<?xml version="1.0" encoding="UTF-8" standalone="no" ?>
<gpx xmlns="http://www.topografix.com/GPX/1/1" xmlns:xsi="http://www.w3.org/2001/XMLSchema-instance" xsi:schemaLocation="http://www.topografix.com/GPX/1/1 http://www.topografix.com/GPX/1/1/gpx.xsd" version="1.1" creator="VisuGPX - https://www.visugpx.com">
  <metadata>
    <name>Sortie Vallée du Paillon 08.12.2013</name>
    <desc><![CDATA[Parcours qui reprends la trace rando téléthon de la Trinité 2013 en partant de Contes.
Enjoy ! ]]></desc>
  </metadata>
  <trk>
    <name><![CDATA[Sortie Vallée du Paillon 08.12.2013]]></name>
    <trkseg>
      <trkpt lat="43.80791" lon="7.31368">
        <ele>222.68</ele>
        <time>2013-12-08T08:57:06Z</time>
      </trkpt>
      <trkpt lat="43.80816" lon="7.31435">
        <ele>220.76</ele>
        <time>2013-12-08T08:57:13Z</time>
      </trkpt>
      <trkpt lat="43.80845" lon="7.31482">
        <ele>217.4</ele>
        <time>2013-12-08T08:57:20Z</time>
      </trkpt>
      <trkpt lat="43.8087" lon="7.31521">
        <ele>212.59</ele>
        <time>2013-12-08T08:57:29Z</time>
      </trkpt>
      <trkpt lat="43.80866" lon="7.31554">
        <ele>211.63</ele>
        <time>2013-12-08T08:57:35Z</time>
      </trkpt>
      <trkpt lat="43.80827" lon="7.3159">
        <ele>204.9</ele>
        <time>2013-12-08T08:57:43Z</time>
      </trkpt>
      <trkpt lat="43.80749" lon="7.31674">
        <ele>193.84</ele>
        <time>2013-12-08T08:58:00Z</time>
      </trkpt>
      <trkpt lat="43.80705" lon="7.3172">
        <ele>191.44</ele>
        <time>2013-12-08T08:58:12Z</time>
      </trkpt>
      <trkpt lat="43.80642" lon="7.31788">
        <ele>188.56</ele>
        <time>2013-12-08T08:58:28Z</time>
      </trkpt>
      <trkpt lat="43.80578" lon="7.31857">
        <ele>187.11</ele>
        <time>2013-12-08T08:58:46Z</time>
      </trkpt>
      <trkpt lat="43.80565" lon="7.31899">
        <ele>186.15</ele>
        <time>2013-12-08T08:58:57Z</time>
      </trkpt>
      <trkpt lat="43.80557" lon="7.31907">
        <ele>185.19</ele>
        <time>2013-12-08T08:59:07Z</time>
      </trkpt>
      <trkpt lat="43.80557" lon="7.31906">
        <ele>186.63</ele>
        <time>2013-12-08T08:59:21Z</time>
      </trkpt>
      <trkpt lat="43.80558" lon="7.31907">
        <ele>186.63</ele>
        <time>2013-12-08T08:59:36Z</time>
      </trkpt>
      <trkpt lat="43.80557" lon="7.31909">
        <ele>186.15</ele>
        <time>2013-12-08T08:59:53Z</time>
      </trkpt>
      <trkpt lat="43.80555" lon="7.31909">
        <ele>186.15</ele>
        <time>2013-12-08T08:59:59Z</time>
      </trkpt>
      <trkpt lat="43.80546" lon="7.31914">
        <ele>186.15</ele>
        <time>2013-12-08T09:00:04Z</time>
      </trkpt>
      <trkpt lat="43.80534" lon="7.3194">
        <ele>185.19</ele>
        <time>2013-12-08T09:00:12Z</time>
      </trkpt>
      <trkpt lat="43.80526" lon="7.31958">
        <ele>184.71</ele>
        <time>2013-12-08T09:00:15Z</time>
      </trkpt>
      <trkpt lat="43.8046" lon="7.32038">
        <ele>182.79</ele>
        <time>2013-12-08T09:00:32Z</time>
      </trkpt>
      <trkpt lat="43.80402" lon="7.32111">
        <ele>180.87</ele>
        <time>2013-12-08T09:00:48Z</time>
      </trkpt>
      <trkpt lat="43.80384" lon="7.32136">
        <ele>181.35</ele>
        <time>2013-12-08T09:00:53Z</time>
      </trkpt>
      <trkpt lat="43.80344" lon="7.32233">
        <ele>180.87</ele>
        <time>2013-12-08T09:01:10Z</time>
      </trkpt>
      <trkpt lat="43.80332" lon="7.32264">
        <ele>180.87</ele>
        <time>2013-12-08T09:01:16Z</time>
      </trkpt>
      <trkpt lat="43.80292" lon="7.32302">
        <ele>180.87</ele>
        <time>2013-12-08T09:01:30Z</time>
      </trkpt>
      <trkpt lat="43.80289" lon="7.3233">
        <ele>181.83</ele>
        <time>2013-12-08T09:01:40Z</time>
      </trkpt>
      <trkpt lat="43.80287" lon="7.3234">
        <ele>183.27</ele>
        <time>2013-12-08T09:01:44Z</time>
      </trkpt>
      <trkpt lat="43.80284" lon="7.32353">
        <ele>185.67</ele>
        <time>2013-12-08T09:01:51Z</time>
      </trkpt>
      <trkpt lat="43.80286" lon="7.32362">
        <ele>190.48</ele>
        <time>2013-12-08T09:02:02Z</time>
      </trkpt>
      <trkpt lat="43.80288" lon="7.32366">
        <ele>191.44</ele>
        <time>2013-12-08T09:02:05Z</time>
      </trkpt>
      <trkpt lat="43.80293" lon="7.3238">
        <ele>193.36</ele>
        <time>2013-12-08T09:02:21Z</time>
      </trkpt>
      <trkpt lat="43.803" lon="7.32389">
        <ele>194.32</ele>
        <time>2013-12-08T09:02:26Z</time>
      </trkpt>
      <trkpt lat="43.803" lon="7.32406">
        <ele>192.88</ele>
        <time>2013-12-08T09:02:36Z</time>
      </trkpt>
      <trkpt lat="43.803" lon="7.32408">
        <ele>192.88</ele>
        <time>2013-12-08T09:02:37Z</time>
      </trkpt>
      <trkpt lat="43.80299" lon="7.32413">
        <ele>192.88</ele>
        <time>2013-12-08T09:02:39Z</time>
      </trkpt>
      <trkpt lat="43.80296" lon="7.32421">
        <ele>194.8</ele>
        <time>2013-12-08T09:02:49Z</time>
      </trkpt>
      <trkpt lat="43.80297" lon="7.32434">
        <ele>198.17</ele>
        <time>2013-12-08T09:03:02Z</time>
      </trkpt>
      <trkpt lat="43.80299" lon="7.32444">
        <ele>200.09</ele>
        <time>2013-12-08T09:03:14Z</time>
      </trkpt>
      <trkpt lat="43.80299" lon="7.32449">
        <ele>201.05</ele>
        <time>2013-12-08T09:03:20Z</time>
      </trkpt>
      <trkpt lat="43.803" lon="7.32456">
        <ele>200.57</ele>
        <time>2013-12-08T09:03:33Z</time>
      </trkpt>
      <trkpt lat="43.80301" lon="7.32464">
        <ele>202.01</ele>
        <time>2013-12-08T09:03:46Z</time>
      </trkpt>
      <trkpt lat="43.80303" lon="7.32475">
        <ele>202.98</ele>
        <time>2013-12-08T09:03:58Z</time>
      </trkpt>
      <trkpt lat="43.80303" lon="7.32475">
        <ele>202.98</ele>
        <time>2013-12-08T09:04:00Z</time>
      </trkpt>
      <trkpt lat="43.80305" lon="7.32482">
        <ele>205.38</ele>
        <time>2013-12-08T09:04:12Z</time>
      </trkpt>
      <trkpt lat="43.80305" lon="7.32484">
        <ele>202.98</ele>
        <time>2013-12-08T09:04:37Z</time>
      </trkpt>
      <trkpt lat="43.80303" lon="7.32487">
        <ele>203.46</ele>
        <time>2013-12-08T09:04:48Z</time>
      </trkpt>
      <trkpt lat="43.80303" lon="7.32485">
        <ele>202.98</ele>
        <time>2013-12-08T09:05:00Z</time>
      </trkpt>
      <trkpt lat="43.80301" lon="7.325">
        <ele>204.42</ele>
        <time>2013-12-08T09:05:08Z</time>
      </trkpt>
      <trkpt lat="43.80315" lon="7.3254">
        <ele>207.3</ele>
        <time>2013-12-08T09:05:23Z</time>
      </trkpt>
      <trkpt lat="43.80332" lon="7.32567">
        <ele>211.15</ele>
        <time>2013-12-08T09:05:37Z</time>
      </trkpt>
      <trkpt lat="43.80344" lon="7.32608">
        <ele>213.07</ele>
        <time>2013-12-08T09:05:52Z</time>
      </trkpt>
      <trkpt lat="43.80341" lon="7.32651">
        <ele>215.95</ele>
        <time>2013-12-08T09:06:06Z</time>
      </trkpt>
      <trkpt lat="43.80337" lon="7.32699">
        <ele>217.4</ele>
        <time>2013-12-08T09:06:21Z</time>
      </trkpt>
      <trkpt lat="43.8033" lon="7.32747">
        <ele>221.24</ele>
        <time>2013-12-08T09:06:37Z</time>
      </trkpt>
      <trkpt lat="43.80314" lon="7.32798">
        <ele>225.57</ele>
        <time>2013-12-08T09:06:55Z</time>
      </trkpt>
      <trkpt lat="43.80312" lon="7.32843">
        <ele>226.05</ele>
        <time>2013-12-08T09:07:11Z</time>
      </trkpt>
      <trkpt lat="43.80313" lon="7.32851">
        <ele>225.09</ele>
        <time>2013-12-08T09:07:22Z</time>
      </trkpt>
      <trkpt lat="43.80312" lon="7.32857">
        <ele>224.61</ele>
        <time>2013-12-08T09:07:24Z</time>
      </trkpt>
      <trkpt lat="43.80301" lon="7.32893">
        <ele>220.28</ele>
        <time>2013-12-08T09:07:31Z</time>
      </trkpt>
      <trkpt lat="43.80291" lon="7.32914">
        <ele>217.4</ele>
        <time>2013-12-08T09:07:37Z</time>
      </trkpt>
      <trkpt lat="43.80273" lon="7.32946">
        <ele>214.03</ele>
        <time>2013-12-08T09:07:41Z</time>
      </trkpt>
      <trkpt lat="43.80258" lon="7.32979">
        <ele>215.95</ele>
        <time>2013-12-08T09:07:48Z</time>
      </trkpt>
      <trkpt lat="43.80235" lon="7.33006">
        <ele>218.84</ele>
        <time>2013-12-08T09:08:01Z</time>
      </trkpt>
      <trkpt lat="43.80224" lon="7.3302">
        <ele>220.76</ele>
        <time>2013-12-08T09:08:08Z</time>
      </trkpt>
      <trkpt lat="43.80218" lon="7.3302">
        <ele>223.16</ele>
        <time>2013-12-08T09:08:13Z</time>
      </trkpt>
      <trkpt lat="43.802" lon="7.3305">
        <ele>223.16</ele>
        <time>2013-12-08T09:08:25Z</time>
      </trkpt>
      <trkpt lat="43.80193" lon="7.33056">
        <ele>222.68</ele>
        <time>2013-12-08T09:08:28Z</time>
      </trkpt>
      <trkpt lat="43.80189" lon="7.33056">
        <ele>223.16</ele>
        <time>2013-12-08T09:08:30Z</time>
      </trkpt>
      <trkpt lat="43.80183" lon="7.33052">
        <ele>224.12</ele>
        <time>2013-12-08T09:08:35Z</time>
      </trkpt>
      <trkpt lat="43.8018" lon="7.3306">
        <ele>226.05</ele>
        <time>2013-12-08T09:08:41Z</time>
      </trkpt>
      <trkpt lat="43.80177" lon="7.33069">
        <ele>227.97</ele>
        <time>2013-12-08T09:08:46Z</time>
      </trkpt>
      <trkpt lat="43.80173" lon="7.33073">
        <ele>228.93</ele>
        <time>2013-12-08T09:08:59Z</time>
      </trkpt>
      <trkpt lat="43.80174" lon="7.33081">
        <ele>228.93</ele>
        <time>2013-12-08T09:09:11Z</time>
      </trkpt>
      <trkpt lat="43.80173" lon="7.33089">
        <ele>230.37</ele>
        <time>2013-12-08T09:09:22Z</time>
      </trkpt>
      <trkpt lat="43.80175" lon="7.33099">
        <ele>231.81</ele>
        <time>2013-12-08T09:09:34Z</time>
      </trkpt>
      <trkpt lat="43.80176" lon="7.33104">
        <ele>232.78</ele>
        <time>2013-12-08T09:09:50Z</time>
      </trkpt>
      <trkpt lat="43.80178" lon="7.33116">
        <ele>234.22</ele>
        <time>2013-12-08T09:10:03Z</time>
      </trkpt>
      <trkpt lat="43.80178" lon="7.33121">
        <ele>233.26</ele>
        <time>2013-12-08T09:10:07Z</time>
      </trkpt>
      <trkpt lat="43.80181" lon="7.33128">
        <ele>232.3</ele>
        <time>2013-12-08T09:10:12Z</time>
      </trkpt>
      <trkpt lat="43.80181" lon="7.33134">
        <ele>233.74</ele>
        <time>2013-12-08T09:10:20Z</time>
      </trkpt>
      <trkpt lat="43.80184" lon="7.3314">
        <ele>233.26</ele>
        <time>2013-12-08T09:10:25Z</time>
      </trkpt>
      <trkpt lat="43.80188" lon="7.33146">
        <ele>233.26</ele>
        <time>2013-12-08T09:10:29Z</time>
      </trkpt>
      <trkpt lat="43.80188" lon="7.33153">
        <ele>233.26</ele>
        <time>2013-12-08T09:10:32Z</time>
      </trkpt>
      <trkpt lat="43.8019" lon="7.33164">
        <ele>234.7</ele>
        <time>2013-12-08T09:10:43Z</time>
      </trkpt>
      <trkpt lat="43.80192" lon="7.33171">
        <ele>237.1</ele>
        <time>2013-12-08T09:10:59Z</time>
      </trkpt>
      <trkpt lat="43.80191" lon="7.33174">
        <ele>238.54</ele>
        <time>2013-12-08T09:11:24Z</time>
      </trkpt>
      <trkpt lat="43.80189" lon="7.33172">
        <ele>233.74</ele>
        <time>2013-12-08T09:12:01Z</time>
      </trkpt>
      <trkpt lat="43.80192" lon="7.33168">
        <ele>235.66</ele>
        <time>2013-12-08T09:12:15Z</time>
      </trkpt>
      <trkpt lat="43.80191" lon="7.33169">
        <ele>236.14</ele>
        <time>2013-12-08T09:12:16Z</time>
      </trkpt>
      <trkpt lat="43.80185" lon="7.33187">
        <ele>238.54</ele>
        <time>2013-12-08T09:12:29Z</time>
      </trkpt>
      <trkpt lat="43.80184" lon="7.33197">
        <ele>239.99</ele>
        <time>2013-12-08T09:12:34Z</time>
      </trkpt>
      <trkpt lat="43.80183" lon="7.33209">
        <ele>241.43</ele>
        <time>2013-12-08T09:12:39Z</time>
      </trkpt>
      <trkpt lat="43.80178" lon="7.33234">
        <ele>245.27</ele>
        <time>2013-12-08T09:12:52Z</time>
      </trkpt>
      <trkpt lat="43.80173" lon="7.33256">
        <ele>245.27</ele>
        <time>2013-12-08T09:13:04Z</time>
      </trkpt>
      <trkpt lat="43.8017" lon="7.3326">
        <ele>246.23</ele>
        <time>2013-12-08T09:13:09Z</time>
      </trkpt>
      <trkpt lat="43.80158" lon="7.33279">
        <ele>249.12</ele>
        <time>2013-12-08T09:13:23Z</time>
      </trkpt>
      <trkpt lat="43.80144" lon="7.33296">
        <ele>250.56</ele>
        <time>2013-12-08T09:13:39Z</time>
      </trkpt>
      <trkpt lat="43.80141" lon="7.33298">
        <ele>250.56</ele>
        <time>2013-12-08T09:13:41Z</time>
      </trkpt>
      <trkpt lat="43.80139" lon="7.33306">
        <ele>252</ele>
        <time>2013-12-08T09:13:46Z</time>
      </trkpt>
      <trkpt lat="43.80129" lon="7.33327">
        <ele>254.41</ele>
        <time>2013-12-08T09:13:59Z</time>
      </trkpt>
      <trkpt lat="43.80125" lon="7.33336">
        <ele>255.37</ele>
        <time>2013-12-08T09:14:05Z</time>
      </trkpt>
      <trkpt lat="43.80115" lon="7.33363">
        <ele>258.73</ele>
        <time>2013-12-08T09:14:20Z</time>
      </trkpt>
      <trkpt lat="43.80106" lon="7.33398">
        <ele>259.69</ele>
        <time>2013-12-08T09:14:36Z</time>
      </trkpt>
      <trkpt lat="43.80097" lon="7.33425">
        <ele>262.1</ele>
        <time>2013-12-08T09:14:50Z</time>
      </trkpt>
      <trkpt lat="43.80091" lon="7.33453">
        <ele>265.94</ele>
        <time>2013-12-08T09:15:05Z</time>
      </trkpt>
      <trkpt lat="43.80091" lon="7.33464">
        <ele>266.9</ele>
        <time>2013-12-08T09:15:11Z</time>
      </trkpt>
      <trkpt lat="43.80088" lon="7.33475">
        <ele>267.86</ele>
        <time>2013-12-08T09:15:19Z</time>
      </trkpt>
      <trkpt lat="43.80057" lon="7.33496">
        <ele>264.98</ele>
        <time>2013-12-08T09:15:33Z</time>
      </trkpt>
      <trkpt lat="43.80017" lon="7.33524">
        <ele>260.17</ele>
        <time>2013-12-08T09:15:44Z</time>
      </trkpt>
      <trkpt lat="43.80004" lon="7.33526">
        <ele>259.21</ele>
        <time>2013-12-08T09:17:42Z</time>
      </trkpt>
      <trkpt lat="43.8001" lon="7.33524">
        <ele>260.17</ele>
        <time>2013-12-08T09:17:51Z</time>
      </trkpt>
      <trkpt lat="43.80005" lon="7.33528">
        <ele>259.69</ele>
        <time>2013-12-08T09:17:53Z</time>
      </trkpt>
      <trkpt lat="43.79946" lon="7.33525">
        <ele>264.98</ele>
        <time>2013-12-08T09:18:28Z</time>
      </trkpt>
      <trkpt lat="43.79942" lon="7.33527">
        <ele>265.46</ele>
        <time>2013-12-08T09:18:31Z</time>
      </trkpt>
      <trkpt lat="43.79921" lon="7.33529">
        <ele>268.35</ele>
        <time>2013-12-08T09:19:01Z</time>
      </trkpt>
      <trkpt lat="43.79895" lon="7.3357">
        <ele>269.79</ele>
        <time>2013-12-08T09:19:18Z</time>
      </trkpt>
      <trkpt lat="43.79869" lon="7.3358">
        <ele>269.79</ele>
        <time>2013-12-08T09:19:27Z</time>
      </trkpt>
      <trkpt lat="43.79865" lon="7.3358">
        <ele>269.31</ele>
        <time>2013-12-08T09:19:28Z</time>
      </trkpt>
      <trkpt lat="43.79855" lon="7.33576">
        <ele>268.35</ele>
        <time>2013-12-08T09:19:30Z</time>
      </trkpt>
      <trkpt lat="43.79835" lon="7.33558">
        <ele>267.86</ele>
        <time>2013-12-08T09:19:35Z</time>
      </trkpt>
      <trkpt lat="43.79818" lon="7.33544">
        <ele>266.9</ele>
        <time>2013-12-08T09:19:39Z</time>
      </trkpt>
      <trkpt lat="43.79789" lon="7.33555">
        <ele>265.46</ele>
        <time>2013-12-08T09:19:48Z</time>
      </trkpt>
      <trkpt lat="43.79764" lon="7.33566">
        <ele>268.35</ele>
        <time>2013-12-08T09:19:57Z</time>
      </trkpt>
      <trkpt lat="43.79743" lon="7.33569">
        <ele>269.31</ele>
        <time>2013-12-08T09:20:06Z</time>
      </trkpt>
      <trkpt lat="43.79718" lon="7.33573">
        <ele>270.27</ele>
        <time>2013-12-08T09:20:14Z</time>
      </trkpt>
      <trkpt lat="43.79713" lon="7.33571">
        <ele>270.27</ele>
        <time>2013-12-08T09:20:16Z</time>
      </trkpt>
      <trkpt lat="43.79705" lon="7.33569">
        <ele>270.75</ele>
        <time>2013-12-08T09:20:20Z</time>
      </trkpt>
      <trkpt lat="43.79673" lon="7.33579">
        <ele>275.07</ele>
        <time>2013-12-08T09:20:34Z</time>
      </trkpt>
      <trkpt lat="43.79651" lon="7.33584">
        <ele>276.52</ele>
        <time>2013-12-08T09:20:45Z</time>
      </trkpt>
      <trkpt lat="43.79628" lon="7.33582">
        <ele>277.96</ele>
        <time>2013-12-08T09:20:58Z</time>
      </trkpt>
      <trkpt lat="43.79626" lon="7.33581">
        <ele>277.96</ele>
        <time>2013-12-08T09:20:59Z</time>
      </trkpt>
      <trkpt lat="43.79611" lon="7.33574">
        <ele>279.88</ele>
        <time>2013-12-08T09:21:10Z</time>
      </trkpt>
      <trkpt lat="43.79602" lon="7.33584">
        <ele>281.32</ele>
        <time>2013-12-08T09:21:24Z</time>
      </trkpt>
      <trkpt lat="43.79599" lon="7.33582">
        <ele>281.8</ele>
        <time>2013-12-08T09:21:47Z</time>
      </trkpt>
      <trkpt lat="43.79596" lon="7.33587">
        <ele>282.77</ele>
        <time>2013-12-08T09:22:12Z</time>
      </trkpt>
      <trkpt lat="43.79587" lon="7.33591">
        <ele>283.25</ele>
        <time>2013-12-08T09:22:18Z</time>
      </trkpt>
      <trkpt lat="43.79575" lon="7.33591">
        <ele>284.21</ele>
        <time>2013-12-08T09:22:24Z</time>
      </trkpt>
      <trkpt lat="43.79568" lon="7.3359">
        <ele>285.17</ele>
        <time>2013-12-08T09:22:27Z</time>
      </trkpt>
      <trkpt lat="43.79563" lon="7.33592">
        <ele>286.61</ele>
        <time>2013-12-08T09:22:32Z</time>
      </trkpt>
      <trkpt lat="43.79541" lon="7.3359">
        <ele>290.46</ele>
        <time>2013-12-08T09:22:49Z</time>
      </trkpt>
      <trkpt lat="43.79526" lon="7.33582">
        <ele>294.3</ele>
        <time>2013-12-08T09:23:01Z</time>
      </trkpt>
      <trkpt lat="43.79513" lon="7.33576">
        <ele>299.11</ele>
        <time>2013-12-08T09:23:14Z</time>
      </trkpt>
      <trkpt lat="43.79501" lon="7.33573">
        <ele>293.34</ele>
        <time>2013-12-08T09:23:37Z</time>
      </trkpt>
      <trkpt lat="43.79476" lon="7.33578">
        <ele>293.34</ele>
        <time>2013-12-08T09:23:50Z</time>
      </trkpt>
      <trkpt lat="43.79474" lon="7.33578">
        <ele>293.34</ele>
        <time>2013-12-08T09:23:51Z</time>
      </trkpt>
      <trkpt lat="43.79463" lon="7.33586">
        <ele>294.78</ele>
        <time>2013-12-08T09:23:56Z</time>
      </trkpt>
      <trkpt lat="43.7943" lon="7.33602">
        <ele>296.7</ele>
        <time>2013-12-08T09:24:12Z</time>
      </trkpt>
      <trkpt lat="43.79411" lon="7.33621">
        <ele>296.7</ele>
        <time>2013-12-08T09:24:23Z</time>
      </trkpt>
      <trkpt lat="43.79383" lon="7.33623">
        <ele>299.59</ele>
        <time>2013-12-08T09:24:36Z</time>
      </trkpt>
      <trkpt lat="43.79348" lon="7.33627">
        <ele>296.7</ele>
        <time>2013-12-08T09:24:47Z</time>
      </trkpt>
      <trkpt lat="43.79339" lon="7.3363">
        <ele>295.74</ele>
        <time>2013-12-08T09:24:56Z</time>
      </trkpt>
      <trkpt lat="43.79324" lon="7.33632">
        <ele>295.26</ele>
        <time>2013-12-08T09:25:08Z</time>
      </trkpt>
      <trkpt lat="43.79296" lon="7.33639">
        <ele>292.86</ele>
        <time>2013-12-08T09:25:15Z</time>
      </trkpt>
      <trkpt lat="43.7928" lon="7.33649">
        <ele>290.46</ele>
        <time>2013-12-08T09:25:19Z</time>
      </trkpt>
      <trkpt lat="43.79264" lon="7.33652">
        <ele>288.53</ele>
        <time>2013-12-08T09:25:22Z</time>
      </trkpt>
      <trkpt lat="43.79229" lon="7.33654">
        <ele>283.73</ele>
        <time>2013-12-08T09:25:29Z</time>
      </trkpt>
      <trkpt lat="43.79209" lon="7.33657">
        <ele>280.36</ele>
        <time>2013-12-08T09:25:33Z</time>
      </trkpt>
      <trkpt lat="43.79189" lon="7.33657">
        <ele>276.52</ele>
        <time>2013-12-08T09:25:37Z</time>
      </trkpt>
      <trkpt lat="43.79165" lon="7.33669">
        <ele>271.71</ele>
        <time>2013-12-08T09:25:44Z</time>
      </trkpt>
      <trkpt lat="43.79166" lon="7.33672">
        <ele>269.79</ele>
        <time>2013-12-08T09:25:46Z</time>
      </trkpt>
      <trkpt lat="43.79166" lon="7.33688">
        <ele>265.46</ele>
        <time>2013-12-08T09:25:52Z</time>
      </trkpt>
      <trkpt lat="43.7915" lon="7.33696">
        <ele>260.17</ele>
        <time>2013-12-08T09:26:01Z</time>
      </trkpt>
      <trkpt lat="43.79147" lon="7.33696">
        <ele>255.85</ele>
        <time>2013-12-08T09:26:18Z</time>
      </trkpt>
      <trkpt lat="43.79147" lon="7.33698">
        <ele>257.29</ele>
        <time>2013-12-08T09:26:50Z</time>
      </trkpt>
      <trkpt lat="43.79146" lon="7.33696">
        <ele>255.85</ele>
        <time>2013-12-08T09:27:22Z</time>
      </trkpt>
      <trkpt lat="43.79148" lon="7.33698">
        <ele>258.25</ele>
        <time>2013-12-08T09:27:48Z</time>
      </trkpt>
      <trkpt lat="43.79148" lon="7.33701">
        <ele>260.65</ele>
        <time>2013-12-08T09:28:17Z</time>
      </trkpt>
      <trkpt lat="43.7915" lon="7.33702">
        <ele>263.54</ele>
        <time>2013-12-08T09:28:46Z</time>
      </trkpt>
      <trkpt lat="43.79149" lon="7.33701">
        <ele>263.06</ele>
        <time>2013-12-08T09:28:50Z</time>
      </trkpt>
      <trkpt lat="43.79148" lon="7.33703">
        <ele>262.58</ele>
        <time>2013-12-08T09:28:56Z</time>
      </trkpt>
      <trkpt lat="43.79137" lon="7.33707">
        <ele>260.17</ele>
        <time>2013-12-08T09:29:04Z</time>
      </trkpt>
      <trkpt lat="43.79134" lon="7.33711">
        <ele>257.29</ele>
        <time>2013-12-08T09:29:17Z</time>
      </trkpt>
      <trkpt lat="43.7913" lon="7.33717">
        <ele>255.85</ele>
        <time>2013-12-08T09:29:20Z</time>
      </trkpt>
      <trkpt lat="43.79125" lon="7.33717">
        <ele>251.52</ele>
        <time>2013-12-08T09:29:32Z</time>
      </trkpt>
      <trkpt lat="43.79125" lon="7.33719">
        <ele>251.04</ele>
        <time>2013-12-08T09:29:36Z</time>
      </trkpt>
      <trkpt lat="43.79124" lon="7.33723">
        <ele>250.08</ele>
        <time>2013-12-08T09:29:39Z</time>
      </trkpt>
      <trkpt lat="43.79116" lon="7.3373">
        <ele>247.68</ele>
        <time>2013-12-08T09:29:44Z</time>
      </trkpt>
      <trkpt lat="43.79108" lon="7.33733">
        <ele>244.31</ele>
        <time>2013-12-08T09:29:49Z</time>
      </trkpt>
      <trkpt lat="43.7906" lon="7.33747">
        <ele>229.89</ele>
        <time>2013-12-08T09:30:09Z</time>
      </trkpt>
      <trkpt lat="43.79059" lon="7.33747">
        <ele>230.37</ele>
        <time>2013-12-08T09:30:27Z</time>
      </trkpt>
      <trkpt lat="43.79058" lon="7.33746">
        <ele>233.26</ele>
        <time>2013-12-08T09:30:36Z</time>
      </trkpt>
      <trkpt lat="43.79058" lon="7.33747">
        <ele>234.22</ele>
        <time>2013-12-08T09:30:48Z</time>
      </trkpt>
      <trkpt lat="43.79062" lon="7.33748">
        <ele>234.7</ele>
        <time>2013-12-08T09:30:53Z</time>
      </trkpt>
      <trkpt lat="43.79058" lon="7.33747">
        <ele>235.18</ele>
        <time>2013-12-08T09:31:37Z</time>
      </trkpt>
      <trkpt lat="43.79044" lon="7.33742">
        <ele>232.78</ele>
        <time>2013-12-08T09:31:40Z</time>
      </trkpt>
      <trkpt lat="43.79017" lon="7.33741">
        <ele>227.49</ele>
        <time>2013-12-08T09:31:46Z</time>
      </trkpt>
      <trkpt lat="43.79" lon="7.33732">
        <ele>224.12</ele>
        <time>2013-12-08T09:31:55Z</time>
      </trkpt>
      <trkpt lat="43.78996" lon="7.33728">
        <ele>221.72</ele>
        <time>2013-12-08T09:32:25Z</time>
      </trkpt>
      <trkpt lat="43.78994" lon="7.33728">
        <ele>220.28</ele>
        <time>2013-12-08T09:32:54Z</time>
      </trkpt>
      <trkpt lat="43.7899" lon="7.33721">
        <ele>219.8</ele>
        <time>2013-12-08T09:32:57Z</time>
      </trkpt>
      <trkpt lat="43.78984" lon="7.33715">
        <ele>219.32</ele>
        <time>2013-12-08T09:32:59Z</time>
      </trkpt>
      <trkpt lat="43.78972" lon="7.33708">
        <ele>216.43</ele>
        <time>2013-12-08T09:33:07Z</time>
      </trkpt>
      <trkpt lat="43.78967" lon="7.33691">
        <ele>213.07</ele>
        <time>2013-12-08T09:33:13Z</time>
      </trkpt>
      <trkpt lat="43.78968" lon="7.33688">
        <ele>212.11</ele>
        <time>2013-12-08T09:33:15Z</time>
      </trkpt>
      <trkpt lat="43.78971" lon="7.33663">
        <ele>207.78</ele>
        <time>2013-12-08T09:33:22Z</time>
      </trkpt>
      <trkpt lat="43.78978" lon="7.33651">
        <ele>204.42</ele>
        <time>2013-12-08T09:33:26Z</time>
      </trkpt>
      <trkpt lat="43.7898" lon="7.33641">
        <ele>200.57</ele>
        <time>2013-12-08T09:33:40Z</time>
      </trkpt>
      <trkpt lat="43.78982" lon="7.33631">
        <ele>198.17</ele>
        <time>2013-12-08T09:34:01Z</time>
      </trkpt>
      <trkpt lat="43.7898" lon="7.33589">
        <ele>190.96</ele>
        <time>2013-12-08T09:34:09Z</time>
      </trkpt>
      <trkpt lat="43.78979" lon="7.33587">
        <ele>190.48</ele>
        <time>2013-12-08T09:34:10Z</time>
      </trkpt>
      <trkpt lat="43.78973" lon="7.3358">
        <ele>187.11</ele>
        <time>2013-12-08T09:34:20Z</time>
      </trkpt>
      <trkpt lat="43.78974" lon="7.33582">
        <ele>186.63</ele>
        <time>2013-12-08T09:34:23Z</time>
      </trkpt>
      <trkpt lat="43.78977" lon="7.33581">
        <ele>188.08</ele>
        <time>2013-12-08T09:34:36Z</time>
      </trkpt>
      <trkpt lat="43.7897" lon="7.33578">
        <ele>186.15</ele>
        <time>2013-12-08T09:34:40Z</time>
      </trkpt>
      <trkpt lat="43.78951" lon="7.33544">
        <ele>181.35</ele>
        <time>2013-12-08T09:34:47Z</time>
      </trkpt>
      <trkpt lat="43.78939" lon="7.33508">
        <ele>177.02</ele>
        <time>2013-12-08T09:34:53Z</time>
      </trkpt>
      <trkpt lat="43.78927" lon="7.33493">
        <ele>172.69</ele>
        <time>2013-12-08T09:34:58Z</time>
      </trkpt>
      <trkpt lat="43.78922" lon="7.33478">
        <ele>168.85</ele>
        <time>2013-12-08T09:35:07Z</time>
      </trkpt>
      <trkpt lat="43.7892" lon="7.33474">
        <ele>170.29</ele>
        <time>2013-12-08T09:35:41Z</time>
      </trkpt>
      <trkpt lat="43.78918" lon="7.33475">
        <ele>171.25</ele>
        <time>2013-12-08T09:35:53Z</time>
      </trkpt>
      <trkpt lat="43.78919" lon="7.33474">
        <ele>172.69</ele>
        <time>2013-12-08T09:36:19Z</time>
      </trkpt>
      <trkpt lat="43.78917" lon="7.33459">
        <ele>170.29</ele>
        <time>2013-12-08T09:36:26Z</time>
      </trkpt>
      <trkpt lat="43.78898" lon="7.3337">
        <ele>160.68</ele>
        <time>2013-12-08T09:36:35Z</time>
      </trkpt>
      <trkpt lat="43.78896" lon="7.33359">
        <ele>160.2</ele>
        <time>2013-12-08T09:36:36Z</time>
      </trkpt>
      <trkpt lat="43.78912" lon="7.33279">
        <ele>154.91</ele>
        <time>2013-12-08T09:36:44Z</time>
      </trkpt>
      <trkpt lat="43.78922" lon="7.33255">
        <ele>154.43</ele>
        <time>2013-12-08T09:36:50Z</time>
      </trkpt>
      <trkpt lat="43.78913" lon="7.33239">
        <ele>153.95</ele>
        <time>2013-12-08T09:36:54Z</time>
      </trkpt>
      <trkpt lat="43.78904" lon="7.3322">
        <ele>153.47</ele>
        <time>2013-12-08T09:37:00Z</time>
      </trkpt>
      <trkpt lat="43.78909" lon="7.33211">
        <ele>152.51</ele>
        <time>2013-12-08T09:37:04Z</time>
      </trkpt>
      <trkpt lat="43.78932" lon="7.33187">
        <ele>153.95</ele>
        <time>2013-12-08T09:37:16Z</time>
      </trkpt>
      <trkpt lat="43.78923" lon="7.33175">
        <ele>154.43</ele>
        <time>2013-12-08T09:37:24Z</time>
      </trkpt>
      <trkpt lat="43.7886" lon="7.33189">
        <ele>151.06</ele>
        <time>2013-12-08T09:37:42Z</time>
      </trkpt>
      <trkpt lat="43.78803" lon="7.33219">
        <ele>148.66</ele>
        <time>2013-12-08T09:37:57Z</time>
      </trkpt>
      <trkpt lat="43.78761" lon="7.33249">
        <ele>147.7</ele>
        <time>2013-12-08T09:38:08Z</time>
      </trkpt>
      <trkpt lat="43.78732" lon="7.33284">
        <ele>147.7</ele>
        <time>2013-12-08T09:38:16Z</time>
      </trkpt>
      <trkpt lat="43.78669" lon="7.33346">
        <ele>147.7</ele>
        <time>2013-12-08T09:38:31Z</time>
      </trkpt>
      <trkpt lat="43.78599" lon="7.33396">
        <ele>147.22</ele>
        <time>2013-12-08T09:38:46Z</time>
      </trkpt>
      <trkpt lat="43.7854" lon="7.3345">
        <ele>147.22</ele>
        <time>2013-12-08T09:38:59Z</time>
      </trkpt>
      <trkpt lat="43.78522" lon="7.33472">
        <ele>146.74</ele>
        <time>2013-12-08T09:39:04Z</time>
      </trkpt>
      <trkpt lat="43.78468" lon="7.3355">
        <ele>145.78</ele>
        <time>2013-12-08T09:39:19Z</time>
      </trkpt>
      <trkpt lat="43.7845" lon="7.33562">
        <ele>145.3</ele>
        <time>2013-12-08T09:39:23Z</time>
      </trkpt>
      <trkpt lat="43.78364" lon="7.33592">
        <ele>144.82</ele>
        <time>2013-12-08T09:39:40Z</time>
      </trkpt>
      <trkpt lat="43.78286" lon="7.33637">
        <ele>143.37</ele>
        <time>2013-12-08T09:39:56Z</time>
      </trkpt>
      <trkpt lat="43.78224" lon="7.33678">
        <ele>142.41</ele>
        <time>2013-12-08T09:40:09Z</time>
      </trkpt>
      <trkpt lat="43.78174" lon="7.33736">
        <ele>140.01</ele>
        <time>2013-12-08T09:40:21Z</time>
      </trkpt>
      <trkpt lat="43.78151" lon="7.3374">
        <ele>140.97</ele>
        <time>2013-12-08T09:40:26Z</time>
      </trkpt>
      <trkpt lat="43.78141" lon="7.33735">
        <ele>140.97</ele>
        <time>2013-12-08T09:40:28Z</time>
      </trkpt>
      <trkpt lat="43.78129" lon="7.33703">
        <ele>140.97</ele>
        <time>2013-12-08T09:40:34Z</time>
      </trkpt>
      <trkpt lat="43.78104" lon="7.3369">
        <ele>138.09</ele>
        <time>2013-12-08T09:40:40Z</time>
      </trkpt>
      <trkpt lat="43.78036" lon="7.33704">
        <ele>134.24</ele>
        <time>2013-12-08T09:40:52Z</time>
      </trkpt>
      <trkpt lat="43.77974" lon="7.33701">
        <ele>137.61</ele>
        <time>2013-12-08T09:41:43Z</time>
      </trkpt>
      <trkpt lat="43.77898" lon="7.33706">
        <ele>133.28</ele>
        <time>2013-12-08T09:42:03Z</time>
      </trkpt>
      <trkpt lat="43.77894" lon="7.33706">
        <ele>133.28</ele>
        <time>2013-12-08T09:42:04Z</time>
      </trkpt>
      <trkpt lat="43.77861" lon="7.33707">
        <ele>131.84</ele>
        <time>2013-12-08T09:42:12Z</time>
      </trkpt>
      <trkpt lat="43.77775" lon="7.33703">
        <ele>127.51</ele>
        <time>2013-12-08T09:42:31Z</time>
      </trkpt>
      <trkpt lat="43.7771" lon="7.33686">
        <ele>125.59</ele>
        <time>2013-12-08T09:42:44Z</time>
      </trkpt>
      <trkpt lat="43.77702" lon="7.33683">
        <ele>125.11</ele>
        <time>2013-12-08T09:42:46Z</time>
      </trkpt>
      <trkpt lat="43.77665" lon="7.33663">
        <ele>124.63</ele>
        <time>2013-12-08T09:42:55Z</time>
      </trkpt>
      <trkpt lat="43.77584" lon="7.33614">
        <ele>123.67</ele>
        <time>2013-12-08T09:43:12Z</time>
      </trkpt>
      <trkpt lat="43.77546" lon="7.33585">
        <ele>123.67</ele>
        <time>2013-12-08T09:43:21Z</time>
      </trkpt>
      <trkpt lat="43.77481" lon="7.3352">
        <ele>122.71</ele>
        <time>2013-12-08T09:43:37Z</time>
      </trkpt>
      <trkpt lat="43.77424" lon="7.33441">
        <ele>122.22</ele>
        <time>2013-12-08T09:43:52Z</time>
      </trkpt>
      <trkpt lat="43.77407" lon="7.33416">
        <ele>121.74</ele>
        <time>2013-12-08T09:43:57Z</time>
      </trkpt>
      <trkpt lat="43.77399" lon="7.33399">
        <ele>121.74</ele>
        <time>2013-12-08T09:44:01Z</time>
      </trkpt>
      <trkpt lat="43.77382" lon="7.33372">
        <ele>120.3</ele>
        <time>2013-12-08T09:44:07Z</time>
      </trkpt>
      <trkpt lat="43.77347" lon="7.33262">
        <ele>120.78</ele>
        <time>2013-12-08T09:44:22Z</time>
      </trkpt>
      <trkpt lat="43.77337" lon="7.33232">
        <ele>124.15</ele>
        <time>2013-12-08T09:44:27Z</time>
      </trkpt>
      <trkpt lat="43.77327" lon="7.3321">
        <ele>127.03</ele>
        <time>2013-12-08T09:44:32Z</time>
      </trkpt>
      <trkpt lat="43.77298" lon="7.33176">
        <ele>132.32</ele>
        <time>2013-12-08T09:44:45Z</time>
      </trkpt>
      <trkpt lat="43.77294" lon="7.33172">
        <ele>132.8</ele>
        <time>2013-12-08T09:44:49Z</time>
      </trkpt>
      <trkpt lat="43.77289" lon="7.33168">
        <ele>130.88</ele>
        <time>2013-12-08T09:45:00Z</time>
      </trkpt>
      <trkpt lat="43.77269" lon="7.33164">
        <ele>129.43</ele>
        <time>2013-12-08T09:45:10Z</time>
      </trkpt>
      <trkpt lat="43.77256" lon="7.3316">
        <ele>127.99</ele>
        <time>2013-12-08T09:45:13Z</time>
      </trkpt>
      <trkpt lat="43.77237" lon="7.33161">
        <ele>126.07</ele>
        <time>2013-12-08T09:45:17Z</time>
      </trkpt>
      <trkpt lat="43.77217" lon="7.33172">
        <ele>124.15</ele>
        <time>2013-12-08T09:45:21Z</time>
      </trkpt>
      <trkpt lat="43.77204" lon="7.33209">
        <ele>122.71</ele>
        <time>2013-12-08T09:45:31Z</time>
      </trkpt>
      <trkpt lat="43.77197" lon="7.33283">
        <ele>120.3</ele>
        <time>2013-12-08T09:45:40Z</time>
      </trkpt>
      <trkpt lat="43.77204" lon="7.33312">
        <ele>121.74</ele>
        <time>2013-12-08T09:45:48Z</time>
      </trkpt>
      <trkpt lat="43.77234" lon="7.33323">
        <ele>123.19</ele>
        <time>2013-12-08T09:46:02Z</time>
      </trkpt>
      <trkpt lat="43.77278" lon="7.33367">
        <ele>124.63</ele>
        <time>2013-12-08T09:46:20Z</time>
      </trkpt>
      <trkpt lat="43.77304" lon="7.33427">
        <ele>126.07</ele>
        <time>2013-12-08T09:46:33Z</time>
      </trkpt>
      <trkpt lat="43.77337" lon="7.33488">
        <ele>125.59</ele>
        <time>2013-12-08T09:46:45Z</time>
      </trkpt>
      <trkpt lat="43.77388" lon="7.33553">
        <ele>126.55</ele>
        <time>2013-12-08T09:47:01Z</time>
      </trkpt>
      <trkpt lat="43.77446" lon="7.33612">
        <ele>129.43</ele>
        <time>2013-12-08T09:47:18Z</time>
      </trkpt>
      <trkpt lat="43.77465" lon="7.33636">
        <ele>131.36</ele>
        <time>2013-12-08T09:47:27Z</time>
      </trkpt>
      <trkpt lat="43.77464" lon="7.33637">
        <ele>136.64</ele>
        <time>2013-12-08T09:47:35Z</time>
      </trkpt>
      <trkpt lat="43.77475" lon="7.33648">
        <ele>137.61</ele>
        <time>2013-12-08T09:48:47Z</time>
      </trkpt>
      <trkpt lat="43.77468" lon="7.33652">
        <ele>135.2</ele>
        <time>2013-12-08T09:48:57Z</time>
      </trkpt>
      <trkpt lat="43.77465" lon="7.33658">
        <ele>140.97</ele>
        <time>2013-12-08T09:49:12Z</time>
      </trkpt>
      <trkpt lat="43.77469" lon="7.3366">
        <ele>143.85</ele>
        <time>2013-12-08T09:49:25Z</time>
      </trkpt>
      <trkpt lat="43.77467" lon="7.33666">
        <ele>145.3</ele>
        <time>2013-12-08T09:49:35Z</time>
      </trkpt>
      <trkpt lat="43.77472" lon="7.33668">
        <ele>147.7</ele>
        <time>2013-12-08T09:49:46Z</time>
      </trkpt>
      <trkpt lat="43.77472" lon="7.33676">
        <ele>148.66</ele>
        <time>2013-12-08T09:50:00Z</time>
      </trkpt>
      <trkpt lat="43.77478" lon="7.3368">
        <ele>151.54</ele>
        <time>2013-12-08T09:50:14Z</time>
      </trkpt>
      <trkpt lat="43.77478" lon="7.33688">
        <ele>154.43</ele>
        <time>2013-12-08T09:50:26Z</time>
      </trkpt>
      <trkpt lat="43.77477" lon="7.33696">
        <ele>155.87</ele>
        <time>2013-12-08T09:50:39Z</time>
      </trkpt>
      <trkpt lat="43.77469" lon="7.33699">
        <ele>157.79</ele>
        <time>2013-12-08T09:50:52Z</time>
      </trkpt>
      <trkpt lat="43.77465" lon="7.33708">
        <ele>159.72</ele>
        <time>2013-12-08T09:51:05Z</time>
      </trkpt>
      <trkpt lat="43.7747" lon="7.33714">
        <ele>163.56</ele>
        <time>2013-12-08T09:51:18Z</time>
      </trkpt>
      <trkpt lat="43.77469" lon="7.33722">
        <ele>167.41</ele>
        <time>2013-12-08T09:51:30Z</time>
      </trkpt>
      <trkpt lat="43.77468" lon="7.33726">
        <ele>171.25</ele>
        <time>2013-12-08T09:51:43Z</time>
      </trkpt>
      <trkpt lat="43.77459" lon="7.33731">
        <ele>171.73</ele>
        <time>2013-12-08T09:51:57Z</time>
      </trkpt>
      <trkpt lat="43.77461" lon="7.33733">
        <ele>169.33</ele>
        <time>2013-12-08T09:52:25Z</time>
      </trkpt>
      <trkpt lat="43.7746" lon="7.33735">
        <ele>168.85</ele>
        <time>2013-12-08T09:52:27Z</time>
      </trkpt>
      <trkpt lat="43.77448" lon="7.33739">
        <ele>169.81</ele>
        <time>2013-12-08T09:52:35Z</time>
      </trkpt>
      <trkpt lat="43.77444" lon="7.33749">
        <ele>171.73</ele>
        <time>2013-12-08T09:52:40Z</time>
      </trkpt>
      <trkpt lat="43.77431" lon="7.33759">
        <ele>173.66</ele>
        <time>2013-12-08T09:52:51Z</time>
      </trkpt>
      <trkpt lat="43.77431" lon="7.33766">
        <ele>176.54</ele>
        <time>2013-12-08T09:53:03Z</time>
      </trkpt>
      <trkpt lat="43.77427" lon="7.33769">
        <ele>178.94</ele>
        <time>2013-12-08T09:53:15Z</time>
      </trkpt>
      <trkpt lat="43.77424" lon="7.33773">
        <ele>176.54</ele>
        <time>2013-12-08T09:53:31Z</time>
      </trkpt>
      <trkpt lat="43.77422" lon="7.33777">
        <ele>176.54</ele>
        <time>2013-12-08T09:53:33Z</time>
      </trkpt>
      <trkpt lat="43.77409" lon="7.33786">
        <ele>178.46</ele>
        <time>2013-12-08T09:53:41Z</time>
      </trkpt>
      <trkpt lat="43.77397" lon="7.33778">
        <ele>179.42</ele>
        <time>2013-12-08T09:53:50Z</time>
      </trkpt>
      <trkpt lat="43.77393" lon="7.33774">
        <ele>180.38</ele>
        <time>2013-12-08T09:54:00Z</time>
      </trkpt>
      <trkpt lat="43.77385" lon="7.33773">
        <ele>180.87</ele>
        <time>2013-12-08T09:54:13Z</time>
      </trkpt>
      <trkpt lat="43.77373" lon="7.33771">
        <ele>182.31</ele>
        <time>2013-12-08T09:54:20Z</time>
      </trkpt>
      <trkpt lat="43.77371" lon="7.3377">
        <ele>182.79</ele>
        <time>2013-12-08T09:54:22Z</time>
      </trkpt>
      <trkpt lat="43.77372" lon="7.33761">
        <ele>182.79</ele>
        <time>2013-12-08T09:54:34Z</time>
      </trkpt>
      <trkpt lat="43.77372" lon="7.33761">
        <ele>180.38</ele>
        <time>2013-12-08T09:55:06Z</time>
      </trkpt>
      <trkpt lat="43.77373" lon="7.33756">
        <ele>179.42</ele>
        <time>2013-12-08T09:55:10Z</time>
      </trkpt>
      <trkpt lat="43.77375" lon="7.33744">
        <ele>179.42</ele>
        <time>2013-12-08T09:55:15Z</time>
      </trkpt>
      <trkpt lat="43.77377" lon="7.33715">
        <ele>180.38</ele>
        <time>2013-12-08T09:55:29Z</time>
      </trkpt>
      <trkpt lat="43.77378" lon="7.33709">
        <ele>181.35</ele>
        <time>2013-12-08T09:55:32Z</time>
      </trkpt>
      <trkpt lat="43.77378" lon="7.33693">
        <ele>184.71</ele>
        <time>2013-12-08T09:55:40Z</time>
      </trkpt>
      <trkpt lat="43.77364" lon="7.33685">
        <ele>184.71</ele>
        <time>2013-12-08T09:55:51Z</time>
      </trkpt>
      <trkpt lat="43.77362" lon="7.33682">
        <ele>185.67</ele>
        <time>2013-12-08T09:55:53Z</time>
      </trkpt>
      <trkpt lat="43.77359" lon="7.33681">
        <ele>185.67</ele>
        <time>2013-12-08T09:55:56Z</time>
      </trkpt>
      <trkpt lat="43.77342" lon="7.33674">
        <ele>188.08</ele>
        <time>2013-12-08T09:56:09Z</time>
      </trkpt>
      <trkpt lat="43.77328" lon="7.33672">
        <ele>189.52</ele>
        <time>2013-12-08T09:56:20Z</time>
      </trkpt>
      <trkpt lat="43.77328" lon="7.3367">
        <ele>190</ele>
        <time>2013-12-08T09:56:33Z</time>
      </trkpt>
      <trkpt lat="43.77326" lon="7.33671">
        <ele>187.11</ele>
        <time>2013-12-08T09:57:02Z</time>
      </trkpt>
      <trkpt lat="43.7733" lon="7.33672">
        <ele>187.11</ele>
        <time>2013-12-08T09:57:21Z</time>
      </trkpt>
      <trkpt lat="43.77338" lon="7.33676">
        <ele>189.04</ele>
        <time>2013-12-08T09:57:28Z</time>
      </trkpt>
      <trkpt lat="43.77342" lon="7.33683">
        <ele>190.96</ele>
        <time>2013-12-08T09:57:32Z</time>
      </trkpt>
      <trkpt lat="43.77349" lon="7.33688">
        <ele>192.4</ele>
        <time>2013-12-08T09:57:37Z</time>
      </trkpt>
      <trkpt lat="43.77354" lon="7.33698">
        <ele>192.88</ele>
        <time>2013-12-08T09:57:42Z</time>
      </trkpt>
      <trkpt lat="43.77357" lon="7.33722">
        <ele>195.28</ele>
        <time>2013-12-08T09:57:55Z</time>
      </trkpt>
      <trkpt lat="43.77357" lon="7.33724">
        <ele>195.28</ele>
        <time>2013-12-08T09:57:56Z</time>
      </trkpt>
      <trkpt lat="43.77356" lon="7.33728">
        <ele>195.77</ele>
        <time>2013-12-08T09:57:58Z</time>
      </trkpt>
      <trkpt lat="43.77349" lon="7.33739">
        <ele>198.17</ele>
        <time>2013-12-08T09:58:10Z</time>
      </trkpt>
      <trkpt lat="43.77346" lon="7.33745">
        <ele>200.09</ele>
        <time>2013-12-08T09:58:20Z</time>
      </trkpt>
      <trkpt lat="43.77346" lon="7.3375">
        <ele>200.09</ele>
        <time>2013-12-08T09:58:23Z</time>
      </trkpt>
      <trkpt lat="43.77343" lon="7.3376">
        <ele>200.09</ele>
        <time>2013-12-08T09:58:28Z</time>
      </trkpt>
      <trkpt lat="43.77342" lon="7.33763">
        <ele>200.57</ele>
        <time>2013-12-08T09:58:30Z</time>
      </trkpt>
      <trkpt lat="43.77342" lon="7.33773">
        <ele>201.53</ele>
        <time>2013-12-08T09:58:35Z</time>
      </trkpt>
      <trkpt lat="43.77343" lon="7.33777">
        <ele>201.53</ele>
        <time>2013-12-08T09:58:37Z</time>
      </trkpt>
      <trkpt lat="43.77333" lon="7.33799">
        <ele>202.98</ele>
        <time>2013-12-08T09:58:49Z</time>
      </trkpt>
      <trkpt lat="43.77326" lon="7.33816">
        <ele>203.46</ele>
        <time>2013-12-08T09:59:02Z</time>
      </trkpt>
      <trkpt lat="43.77323" lon="7.33823">
        <ele>202.98</ele>
        <time>2013-12-08T09:59:11Z</time>
      </trkpt>
      <trkpt lat="43.77322" lon="7.33829">
        <ele>205.86</ele>
        <time>2013-12-08T09:59:16Z</time>
      </trkpt>
      <trkpt lat="43.77327" lon="7.33829">
        <ele>207.3</ele>
        <time>2013-12-08T09:59:29Z</time>
      </trkpt>
      <trkpt lat="43.77326" lon="7.33832">
        <ele>209.22</ele>
        <time>2013-12-08T09:59:52Z</time>
      </trkpt>
      <trkpt lat="43.77331" lon="7.33831">
        <ele>208.74</ele>
        <time>2013-12-08T09:59:56Z</time>
      </trkpt>
      <trkpt lat="43.7735" lon="7.33843">
        <ele>210.19</ele>
        <time>2013-12-08T10:00:11Z</time>
      </trkpt>
      <trkpt lat="43.77354" lon="7.33851">
        <ele>211.15</ele>
        <time>2013-12-08T10:00:15Z</time>
      </trkpt>
      <trkpt lat="43.77352" lon="7.33859">
        <ele>211.15</ele>
        <time>2013-12-08T10:00:21Z</time>
      </trkpt>
      <trkpt lat="43.77353" lon="7.33863">
        <ele>211.63</ele>
        <time>2013-12-08T10:00:24Z</time>
      </trkpt>
      <trkpt lat="43.77358" lon="7.33865">
        <ele>213.07</ele>
        <time>2013-12-08T10:00:28Z</time>
      </trkpt>
      <trkpt lat="43.7736" lon="7.3387">
        <ele>214.51</ele>
        <time>2013-12-08T10:00:31Z</time>
      </trkpt>
      <trkpt lat="43.7736" lon="7.33873">
        <ele>215.47</ele>
        <time>2013-12-08T10:00:33Z</time>
      </trkpt>
      <trkpt lat="43.77366" lon="7.33891">
        <ele>218.36</ele>
        <time>2013-12-08T10:00:43Z</time>
      </trkpt>
      <trkpt lat="43.77371" lon="7.33912">
        <ele>220.76</ele>
        <time>2013-12-08T10:00:57Z</time>
      </trkpt>
      <trkpt lat="43.77371" lon="7.33916">
        <ele>217.4</ele>
        <time>2013-12-08T10:01:14Z</time>
      </trkpt>
      <trkpt lat="43.77373" lon="7.33917">
        <ele>218.84</ele>
        <time>2013-12-08T10:01:35Z</time>
      </trkpt>
      <trkpt lat="43.77371" lon="7.33916">
        <ele>217.4</ele>
        <time>2013-12-08T10:01:52Z</time>
      </trkpt>
      <trkpt lat="43.77369" lon="7.33914">
        <ele>217.4</ele>
        <time>2013-12-08T10:01:58Z</time>
      </trkpt>
      <trkpt lat="43.77368" lon="7.33912">
        <ele>217.88</ele>
        <time>2013-12-08T10:02:00Z</time>
      </trkpt>
      <trkpt lat="43.77365" lon="7.33909">
        <ele>218.84</ele>
        <time>2013-12-08T10:02:03Z</time>
      </trkpt>
      <trkpt lat="43.77358" lon="7.33901">
        <ele>220.76</ele>
        <time>2013-12-08T10:02:11Z</time>
      </trkpt>
      <trkpt lat="43.77345" lon="7.33883">
        <ele>224.12</ele>
        <time>2013-12-08T10:02:25Z</time>
      </trkpt>
      <trkpt lat="43.77342" lon="7.33879">
        <ele>224.12</ele>
        <time>2013-12-08T10:02:28Z</time>
      </trkpt>
      <trkpt lat="43.7734" lon="7.33887">
        <ele>225.57</ele>
        <time>2013-12-08T10:02:36Z</time>
      </trkpt>
      <trkpt lat="43.77355" lon="7.33907">
        <ele>224.12</ele>
        <time>2013-12-08T10:02:48Z</time>
      </trkpt>
      <trkpt lat="43.77361" lon="7.33944">
        <ele>224.12</ele>
        <time>2013-12-08T10:03:01Z</time>
      </trkpt>
      <trkpt lat="43.77364" lon="7.33947">
        <ele>224.12</ele>
        <time>2013-12-08T10:03:04Z</time>
      </trkpt>
      <trkpt lat="43.77355" lon="7.33961">
        <ele>226.05</ele>
        <time>2013-12-08T10:03:16Z</time>
      </trkpt>
      <trkpt lat="43.77351" lon="7.33966">
        <ele>227.49</ele>
        <time>2013-12-08T10:03:32Z</time>
      </trkpt>
      <trkpt lat="43.77351" lon="7.3398">
        <ele>227.97</ele>
        <time>2013-12-08T10:03:38Z</time>
      </trkpt>
      <trkpt lat="43.77365" lon="7.33994">
        <ele>231.81</ele>
        <time>2013-12-08T10:03:48Z</time>
      </trkpt>
      <trkpt lat="43.77363" lon="7.34025">
        <ele>234.22</ele>
        <time>2013-12-08T10:04:02Z</time>
      </trkpt>
      <trkpt lat="43.77361" lon="7.34033">
        <ele>235.18</ele>
        <time>2013-12-08T10:04:06Z</time>
      </trkpt>
      <trkpt lat="43.77355" lon="7.34043">
        <ele>235.66</ele>
        <time>2013-12-08T10:04:13Z</time>
      </trkpt>
      <trkpt lat="43.77343" lon="7.34067">
        <ele>238.06</ele>
        <time>2013-12-08T10:04:28Z</time>
      </trkpt>
      <trkpt lat="43.77331" lon="7.34088">
        <ele>239.99</ele>
        <time>2013-12-08T10:04:43Z</time>
      </trkpt>
      <trkpt lat="43.7733" lon="7.3409">
        <ele>239.99</ele>
        <time>2013-12-08T10:04:44Z</time>
      </trkpt>
      <trkpt lat="43.77313" lon="7.34114">
        <ele>241.91</ele>
        <time>2013-12-08T10:05:00Z</time>
      </trkpt>
      <trkpt lat="43.77295" lon="7.34139">
        <ele>243.35</ele>
        <time>2013-12-08T10:05:15Z</time>
      </trkpt>
      <trkpt lat="43.77279" lon="7.34161">
        <ele>243.35</ele>
        <time>2013-12-08T10:05:28Z</time>
      </trkpt>
      <trkpt lat="43.77266" lon="7.34186">
        <ele>246.23</ele>
        <time>2013-12-08T10:05:41Z</time>
      </trkpt>
      <trkpt lat="43.77261" lon="7.34196">
        <ele>245.75</ele>
        <time>2013-12-08T10:05:46Z</time>
      </trkpt>
      <trkpt lat="43.77263" lon="7.34204">
        <ele>246.72</ele>
        <time>2013-12-08T10:05:50Z</time>
      </trkpt>
      <trkpt lat="43.77281" lon="7.34226">
        <ele>249.6</ele>
        <time>2013-12-08T10:06:02Z</time>
      </trkpt>
      <trkpt lat="43.77303" lon="7.34231">
        <ele>254.41</ele>
        <time>2013-12-08T10:06:15Z</time>
      </trkpt>
      <trkpt lat="43.77329" lon="7.34234">
        <ele>259.69</ele>
        <time>2013-12-08T10:06:31Z</time>
      </trkpt>
      <trkpt lat="43.77333" lon="7.34247">
        <ele>263.06</ele>
        <time>2013-12-08T10:06:39Z</time>
      </trkpt>
      <trkpt lat="43.77329" lon="7.34255">
        <ele>264.02</ele>
        <time>2013-12-08T10:06:44Z</time>
      </trkpt>
      <trkpt lat="43.77316" lon="7.3428">
        <ele>267.86</ele>
        <time>2013-12-08T10:06:59Z</time>
      </trkpt>
      <trkpt lat="43.77307" lon="7.34289">
        <ele>271.23</ele>
        <time>2013-12-08T10:07:32Z</time>
      </trkpt>
      <trkpt lat="43.77309" lon="7.34289">
        <ele>274.59</ele>
        <time>2013-12-08T10:09:05Z</time>
      </trkpt>
      <trkpt lat="43.77308" lon="7.34288">
        <ele>270.27</ele>
        <time>2013-12-08T10:09:27Z</time>
      </trkpt>
      <trkpt lat="43.77305" lon="7.34306">
        <ele>272.67</ele>
        <time>2013-12-08T10:10:24Z</time>
      </trkpt>
      <trkpt lat="43.7728" lon="7.34351">
        <ele>270.27</ele>
        <time>2013-12-08T10:10:40Z</time>
      </trkpt>
      <trkpt lat="43.77261" lon="7.34399">
        <ele>268.83</ele>
        <time>2013-12-08T10:10:52Z</time>
      </trkpt>
      <trkpt lat="43.77249" lon="7.34427">
        <ele>268.35</ele>
        <time>2013-12-08T10:11:00Z</time>
      </trkpt>
      <trkpt lat="43.77235" lon="7.34481">
        <ele>269.31</ele>
        <time>2013-12-08T10:11:14Z</time>
      </trkpt>
      <trkpt lat="43.77218" lon="7.34517">
        <ele>268.83</ele>
        <time>2013-12-08T10:11:26Z</time>
      </trkpt>
      <trkpt lat="43.77213" lon="7.34527">
        <ele>268.35</ele>
        <time>2013-12-08T10:11:30Z</time>
      </trkpt>
      <trkpt lat="43.77206" lon="7.34542">
        <ele>268.83</ele>
        <time>2013-12-08T10:11:36Z</time>
      </trkpt>
      <trkpt lat="43.772" lon="7.34559">
        <ele>269.79</ele>
        <time>2013-12-08T10:11:42Z</time>
      </trkpt>
      <trkpt lat="43.7719" lon="7.34576">
        <ele>270.75</ele>
        <time>2013-12-08T10:11:49Z</time>
      </trkpt>
      <trkpt lat="43.77187" lon="7.34595">
        <ele>271.23</ele>
        <time>2013-12-08T10:11:56Z</time>
      </trkpt>
      <trkpt lat="43.77199" lon="7.34641">
        <ele>277.48</ele>
        <time>2013-12-08T10:12:12Z</time>
      </trkpt>
      <trkpt lat="43.772" lon="7.34646">
        <ele>277.96</ele>
        <time>2013-12-08T10:12:14Z</time>
      </trkpt>
      <trkpt lat="43.77217" lon="7.34673">
        <ele>280.84</ele>
        <time>2013-12-08T10:12:28Z</time>
      </trkpt>
      <trkpt lat="43.77227" lon="7.34693">
        <ele>283.25</ele>
        <time>2013-12-08T10:12:38Z</time>
      </trkpt>
      <trkpt lat="43.77231" lon="7.34705">
        <ele>284.21</ele>
        <time>2013-12-08T10:12:44Z</time>
      </trkpt>
      <trkpt lat="43.77248" lon="7.34727">
        <ele>285.65</ele>
        <time>2013-12-08T10:12:58Z</time>
      </trkpt>
      <trkpt lat="43.77264" lon="7.34756">
        <ele>288.05</ele>
        <time>2013-12-08T10:13:13Z</time>
      </trkpt>
      <trkpt lat="43.77272" lon="7.34771">
        <ele>289.49</ele>
        <time>2013-12-08T10:13:21Z</time>
      </trkpt>
      <trkpt lat="43.7728" lon="7.34777">
        <ele>292.38</ele>
        <time>2013-12-08T10:13:27Z</time>
      </trkpt>
      <trkpt lat="43.77297" lon="7.34806">
        <ele>294.3</ele>
        <time>2013-12-08T10:13:43Z</time>
      </trkpt>
      <trkpt lat="43.77314" lon="7.34832">
        <ele>296.7</ele>
        <time>2013-12-08T10:13:59Z</time>
      </trkpt>
      <trkpt lat="43.7733" lon="7.34853">
        <ele>300.07</ele>
        <time>2013-12-08T10:14:14Z</time>
      </trkpt>
      <trkpt lat="43.77351" lon="7.34876">
        <ele>302.47</ele>
        <time>2013-12-08T10:14:31Z</time>
      </trkpt>
      <trkpt lat="43.7737" lon="7.34896">
        <ele>305.36</ele>
        <time>2013-12-08T10:14:47Z</time>
      </trkpt>
      <trkpt lat="43.77373" lon="7.34899">
        <ele>305.36</ele>
        <time>2013-12-08T10:14:49Z</time>
      </trkpt>
      <trkpt lat="43.77394" lon="7.34932">
        <ele>305.84</ele>
        <time>2013-12-08T10:18:14Z</time>
      </trkpt>
      <trkpt lat="43.77394" lon="7.34934">
        <ele>303.91</ele>
        <time>2013-12-08T10:18:50Z</time>
      </trkpt>
      <trkpt lat="43.7741" lon="7.34942">
        <ele>304.88</ele>
        <time>2013-12-08T10:19:01Z</time>
      </trkpt>
      <trkpt lat="43.77426" lon="7.34959">
        <ele>307.76</ele>
        <time>2013-12-08T10:19:22Z</time>
      </trkpt>
      <trkpt lat="43.7743" lon="7.34963">
        <ele>307.76</ele>
        <time>2013-12-08T10:19:26Z</time>
      </trkpt>
      <trkpt lat="43.77455" lon="7.34988">
        <ele>307.28</ele>
        <time>2013-12-08T10:19:42Z</time>
      </trkpt>
      <trkpt lat="43.77481" lon="7.35013">
        <ele>303.43</ele>
        <time>2013-12-08T10:19:53Z</time>
      </trkpt>
      <trkpt lat="43.77507" lon="7.35044">
        <ele>302.95</ele>
        <time>2013-12-08T10:20:03Z</time>
      </trkpt>
      <trkpt lat="43.7752" lon="7.35052">
        <ele>305.36</ele>
        <time>2013-12-08T10:20:11Z</time>
      </trkpt>
      <trkpt lat="43.77523" lon="7.35066">
        <ele>309.2</ele>
        <time>2013-12-08T10:20:18Z</time>
      </trkpt>
      <trkpt lat="43.77516" lon="7.35102">
        <ele>312.09</ele>
        <time>2013-12-08T10:20:32Z</time>
      </trkpt>
      <trkpt lat="43.77517" lon="7.35117">
        <ele>313.53</ele>
        <time>2013-12-08T10:20:39Z</time>
      </trkpt>
      <trkpt lat="43.77517" lon="7.35124">
        <ele>314.01</ele>
        <time>2013-12-08T10:20:43Z</time>
      </trkpt>
      <trkpt lat="43.77517" lon="7.35131">
        <ele>314.97</ele>
        <time>2013-12-08T10:20:48Z</time>
      </trkpt>
      <trkpt lat="43.77521" lon="7.35151">
        <ele>318.33</ele>
        <time>2013-12-08T10:21:02Z</time>
      </trkpt>
      <trkpt lat="43.77522" lon="7.35177">
        <ele>319.78</ele>
        <time>2013-12-08T10:21:16Z</time>
      </trkpt>
      <trkpt lat="43.77519" lon="7.352">
        <ele>323.62</ele>
        <time>2013-12-08T10:21:31Z</time>
      </trkpt>
      <trkpt lat="43.77516" lon="7.3521">
        <ele>325.54</ele>
        <time>2013-12-08T10:21:38Z</time>
      </trkpt>
      <trkpt lat="43.77506" lon="7.35218">
        <ele>326.99</ele>
        <time>2013-12-08T10:21:49Z</time>
      </trkpt>
      <trkpt lat="43.77501" lon="7.35216">
        <ele>328.43</ele>
        <time>2013-12-08T10:21:54Z</time>
      </trkpt>
      <trkpt lat="43.77496" lon="7.35213">
        <ele>328.91</ele>
        <time>2013-12-08T10:21:59Z</time>
      </trkpt>
      <trkpt lat="43.77481" lon="7.35206">
        <ele>329.87</ele>
        <time>2013-12-08T10:22:13Z</time>
      </trkpt>
      <trkpt lat="43.77451" lon="7.35232">
        <ele>333.71</ele>
        <time>2013-12-08T10:26:05Z</time>
      </trkpt>
      <trkpt lat="43.77449" lon="7.35245">
        <ele>334.2</ele>
        <time>2013-12-08T10:26:12Z</time>
      </trkpt>
      <trkpt lat="43.77459" lon="7.35267">
        <ele>337.08</ele>
        <time>2013-12-08T10:26:28Z</time>
      </trkpt>
      <trkpt lat="43.77463" lon="7.35273">
        <ele>338.52</ele>
        <time>2013-12-08T10:26:33Z</time>
      </trkpt>
      <trkpt lat="43.77481" lon="7.35293">
        <ele>341.41</ele>
        <time>2013-12-08T10:26:50Z</time>
      </trkpt>
      <trkpt lat="43.77497" lon="7.35318">
        <ele>343.33</ele>
        <time>2013-12-08T10:27:07Z</time>
      </trkpt>
      <trkpt lat="43.77512" lon="7.35337">
        <ele>344.77</ele>
        <time>2013-12-08T10:27:21Z</time>
      </trkpt>
      <trkpt lat="43.77511" lon="7.35337">
        <ele>344.77</ele>
        <time>2013-12-08T10:28:02Z</time>
      </trkpt>
      <trkpt lat="43.77514" lon="7.35339">
        <ele>344.29</ele>
        <time>2013-12-08T10:28:05Z</time>
      </trkpt>
      <trkpt lat="43.77512" lon="7.35338">
        <ele>345.25</ele>
        <time>2013-12-08T10:28:19Z</time>
      </trkpt>
      <trkpt lat="43.77516" lon="7.35349">
        <ele>344.77</ele>
        <time>2013-12-08T10:28:25Z</time>
      </trkpt>
      <trkpt lat="43.77524" lon="7.35376">
        <ele>344.29</ele>
        <time>2013-12-08T10:28:36Z</time>
      </trkpt>
      <trkpt lat="43.77525" lon="7.3538">
        <ele>344.29</ele>
        <time>2013-12-08T10:28:38Z</time>
      </trkpt>
      <trkpt lat="43.77531" lon="7.35415">
        <ele>342.37</ele>
        <time>2013-12-08T10:28:48Z</time>
      </trkpt>
      <trkpt lat="43.77541" lon="7.35418">
        <ele>341.41</ele>
        <time>2013-12-08T10:28:52Z</time>
      </trkpt>
      <trkpt lat="43.77563" lon="7.35432">
        <ele>339.96</ele>
        <time>2013-12-08T10:28:57Z</time>
      </trkpt>
      <trkpt lat="43.77579" lon="7.35488">
        <ele>337.56</ele>
        <time>2013-12-08T10:29:05Z</time>
      </trkpt>
      <trkpt lat="43.7758" lon="7.35496">
        <ele>337.08</ele>
        <time>2013-12-08T10:29:06Z</time>
      </trkpt>
      <trkpt lat="43.77582" lon="7.35518">
        <ele>336.6</ele>
        <time>2013-12-08T10:29:11Z</time>
      </trkpt>
      <trkpt lat="43.77584" lon="7.35523">
        <ele>336.6</ele>
        <time>2013-12-08T10:29:16Z</time>
      </trkpt>
      <trkpt lat="43.77606" lon="7.3552">
        <ele>333.71</ele>
        <time>2013-12-08T10:29:25Z</time>
      </trkpt>
      <trkpt lat="43.77621" lon="7.35519">
        <ele>330.35</ele>
        <time>2013-12-08T10:29:35Z</time>
      </trkpt>
      <trkpt lat="43.77621" lon="7.35519">
        <ele>329.87</ele>
        <time>2013-12-08T10:29:36Z</time>
      </trkpt>
      <trkpt lat="43.77629" lon="7.35524">
        <ele>327.95</ele>
        <time>2013-12-08T10:29:40Z</time>
      </trkpt>
      <trkpt lat="43.77654" lon="7.3554">
        <ele>323.14</ele>
        <time>2013-12-08T10:29:47Z</time>
      </trkpt>
      <trkpt lat="43.77664" lon="7.3555">
        <ele>320.26</ele>
        <time>2013-12-08T10:29:51Z</time>
      </trkpt>
      <trkpt lat="43.77672" lon="7.35549">
        <ele>319.3</ele>
        <time>2013-12-08T10:29:53Z</time>
      </trkpt>
      <trkpt lat="43.77677" lon="7.35536">
        <ele>317.85</ele>
        <time>2013-12-08T10:29:56Z</time>
      </trkpt>
      <trkpt lat="43.7769" lon="7.35516">
        <ele>315.45</ele>
        <time>2013-12-08T10:30:00Z</time>
      </trkpt>
      <trkpt lat="43.77711" lon="7.35516">
        <ele>310.16</ele>
        <time>2013-12-08T10:30:07Z</time>
      </trkpt>
      <trkpt lat="43.77713" lon="7.35517">
        <ele>304.88</ele>
        <time>2013-12-08T10:30:16Z</time>
      </trkpt>
      <trkpt lat="43.77715" lon="7.35522">
        <ele>303.43</ele>
        <time>2013-12-08T10:30:43Z</time>
      </trkpt>
      <trkpt lat="43.77715" lon="7.35523">
        <ele>303.43</ele>
        <time>2013-12-08T10:30:51Z</time>
      </trkpt>
      <trkpt lat="43.77714" lon="7.35509">
        <ele>301.99</ele>
        <time>2013-12-08T10:30:57Z</time>
      </trkpt>
      <trkpt lat="43.77713" lon="7.35502">
        <ele>301.03</ele>
        <time>2013-12-08T10:30:59Z</time>
      </trkpt>
      <trkpt lat="43.77707" lon="7.35491">
        <ele>300.07</ele>
        <time>2013-12-08T10:31:02Z</time>
      </trkpt>
      <trkpt lat="43.77693" lon="7.35488">
        <ele>299.59</ele>
        <time>2013-12-08T10:31:06Z</time>
      </trkpt>
      <trkpt lat="43.77675" lon="7.35496">
        <ele>298.15</ele>
        <time>2013-12-08T10:31:15Z</time>
      </trkpt>
      <trkpt lat="43.77674" lon="7.35488">
        <ele>297.67</ele>
        <time>2013-12-08T10:31:18Z</time>
      </trkpt>
      <trkpt lat="43.77669" lon="7.35472">
        <ele>298.15</ele>
        <time>2013-12-08T10:31:26Z</time>
      </trkpt>
      <trkpt lat="43.77671" lon="7.35468">
        <ele>298.15</ele>
        <time>2013-12-08T10:31:27Z</time>
      </trkpt>
      <trkpt lat="43.77691" lon="7.35439">
        <ele>296.7</ele>
        <time>2013-12-08T10:31:35Z</time>
      </trkpt>
      <trkpt lat="43.77688" lon="7.35421">
        <ele>295.74</ele>
        <time>2013-12-08T10:31:42Z</time>
      </trkpt>
      <trkpt lat="43.77691" lon="7.3542">
        <ele>295.74</ele>
        <time>2013-12-08T10:31:43Z</time>
      </trkpt>
      <trkpt lat="43.777" lon="7.35418">
        <ele>295.26</ele>
        <time>2013-12-08T10:31:47Z</time>
      </trkpt>
      <trkpt lat="43.77733" lon="7.35417">
        <ele>292.38</ele>
        <time>2013-12-08T10:31:56Z</time>
      </trkpt>
      <trkpt lat="43.77743" lon="7.35406">
        <ele>290.46</ele>
        <time>2013-12-08T10:32:02Z</time>
      </trkpt>
      <trkpt lat="43.77743" lon="7.35401">
        <ele>289.97</ele>
        <time>2013-12-08T10:32:12Z</time>
      </trkpt>
      <trkpt lat="43.77745" lon="7.35401">
        <ele>297.67</ele>
        <time>2013-12-08T10:32:47Z</time>
      </trkpt>
      <trkpt lat="43.77744" lon="7.35395">
        <ele>299.59</ele>
        <time>2013-12-08T10:33:04Z</time>
      </trkpt>
      <trkpt lat="43.77752" lon="7.35387">
        <ele>298.15</ele>
        <time>2013-12-08T10:33:12Z</time>
      </trkpt>
      <trkpt lat="43.77755" lon="7.35391">
        <ele>296.7</ele>
        <time>2013-12-08T10:33:32Z</time>
      </trkpt>
      <trkpt lat="43.77755" lon="7.35392">
        <ele>296.22</ele>
        <time>2013-12-08T10:33:34Z</time>
      </trkpt>
      <trkpt lat="43.77767" lon="7.35397">
        <ele>292.38</ele>
        <time>2013-12-08T10:33:43Z</time>
      </trkpt>
      <trkpt lat="43.77776" lon="7.35385">
        <ele>291.9</ele>
        <time>2013-12-08T10:33:50Z</time>
      </trkpt>
      <trkpt lat="43.77779" lon="7.35382">
        <ele>290.94</ele>
        <time>2013-12-08T10:33:52Z</time>
      </trkpt>
      <trkpt lat="43.77793" lon="7.3539">
        <ele>288.53</ele>
        <time>2013-12-08T10:34:01Z</time>
      </trkpt>
      <trkpt lat="43.77794" lon="7.35394">
        <ele>288.05</ele>
        <time>2013-12-08T10:34:02Z</time>
      </trkpt>
      <trkpt lat="43.77795" lon="7.35402">
        <ele>287.57</ele>
        <time>2013-12-08T10:34:05Z</time>
      </trkpt>
      <trkpt lat="43.77813" lon="7.35396">
        <ele>288.53</ele>
        <time>2013-12-08T10:34:14Z</time>
      </trkpt>
      <trkpt lat="43.77818" lon="7.35406">
        <ele>290.46</ele>
        <time>2013-12-08T10:34:23Z</time>
      </trkpt>
      <trkpt lat="43.77814" lon="7.35413">
        <ele>289.49</ele>
        <time>2013-12-08T10:34:35Z</time>
      </trkpt>
      <trkpt lat="43.77811" lon="7.35411">
        <ele>287.09</ele>
        <time>2013-12-08T10:34:52Z</time>
      </trkpt>
      <trkpt lat="43.7782" lon="7.35431">
        <ele>284.21</ele>
        <time>2013-12-08T10:34:59Z</time>
      </trkpt>
      <trkpt lat="43.77828" lon="7.35433">
        <ele>283.73</ele>
        <time>2013-12-08T10:35:01Z</time>
      </trkpt>
      <trkpt lat="43.77849" lon="7.35427">
        <ele>282.28</ele>
        <time>2013-12-08T10:35:09Z</time>
      </trkpt>
      <trkpt lat="43.77868" lon="7.35407">
        <ele>280.36</ele>
        <time>2013-12-08T10:35:16Z</time>
      </trkpt>
      <trkpt lat="43.77885" lon="7.35407">
        <ele>278.92</ele>
        <time>2013-12-08T10:35:22Z</time>
      </trkpt>
      <trkpt lat="43.7789" lon="7.3541">
        <ele>277.48</ele>
        <time>2013-12-08T10:35:28Z</time>
      </trkpt>
      <trkpt lat="43.77894" lon="7.35412">
        <ele>277.48</ele>
        <time>2013-12-08T10:35:30Z</time>
      </trkpt>
      <trkpt lat="43.77906" lon="7.3544">
        <ele>278.92</ele>
        <time>2013-12-08T10:35:37Z</time>
      </trkpt>
      <trkpt lat="43.77906" lon="7.35446">
        <ele>278.92</ele>
        <time>2013-12-08T10:35:38Z</time>
      </trkpt>
      <trkpt lat="43.77907" lon="7.35485">
        <ele>277.48</ele>
        <time>2013-12-08T10:35:47Z</time>
      </trkpt>
      <trkpt lat="43.7792" lon="7.35488">
        <ele>277</ele>
        <time>2013-12-08T10:35:52Z</time>
      </trkpt>
      <trkpt lat="43.77931" lon="7.35491">
        <ele>276.04</ele>
        <time>2013-12-08T10:35:55Z</time>
      </trkpt>
      <trkpt lat="43.77945" lon="7.35498">
        <ele>274.11</ele>
        <time>2013-12-08T10:35:59Z</time>
      </trkpt>
      <trkpt lat="43.77952" lon="7.35496">
        <ele>273.63</ele>
        <time>2013-12-08T10:36:01Z</time>
      </trkpt>
      <trkpt lat="43.77968" lon="7.35496">
        <ele>269.79</ele>
        <time>2013-12-08T10:36:09Z</time>
      </trkpt>
      <trkpt lat="43.77971" lon="7.35498">
        <ele>269.31</ele>
        <time>2013-12-08T10:36:10Z</time>
      </trkpt>
      <trkpt lat="43.77978" lon="7.35483">
        <ele>267.86</ele>
        <time>2013-12-08T10:36:16Z</time>
      </trkpt>
      <trkpt lat="43.77989" lon="7.35487">
        <ele>267.38</ele>
        <time>2013-12-08T10:36:24Z</time>
      </trkpt>
      <trkpt lat="43.77993" lon="7.35488">
        <ele>266.9</ele>
        <time>2013-12-08T10:36:25Z</time>
      </trkpt>
      <trkpt lat="43.78007" lon="7.35488">
        <ele>266.9</ele>
        <time>2013-12-08T10:36:29Z</time>
      </trkpt>
      <trkpt lat="43.78016" lon="7.35465">
        <ele>266.9</ele>
        <time>2013-12-08T10:36:38Z</time>
      </trkpt>
      <trkpt lat="43.7803" lon="7.35454">
        <ele>267.86</ele>
        <time>2013-12-08T10:36:44Z</time>
      </trkpt>
      <trkpt lat="43.78037" lon="7.35443">
        <ele>267.86</ele>
        <time>2013-12-08T10:36:46Z</time>
      </trkpt>
      <trkpt lat="43.78035" lon="7.35417">
        <ele>265.46</ele>
        <time>2013-12-08T10:36:53Z</time>
      </trkpt>
      <trkpt lat="43.78042" lon="7.35402">
        <ele>263.54</ele>
        <time>2013-12-08T10:36:58Z</time>
      </trkpt>
      <trkpt lat="43.78033" lon="7.35372">
        <ele>259.69</ele>
        <time>2013-12-08T10:37:06Z</time>
      </trkpt>
      <trkpt lat="43.78038" lon="7.3534">
        <ele>256.33</ele>
        <time>2013-12-08T10:37:13Z</time>
      </trkpt>
      <trkpt lat="43.78041" lon="7.35317">
        <ele>253.93</ele>
        <time>2013-12-08T10:37:30Z</time>
      </trkpt>
      <trkpt lat="43.78039" lon="7.35314">
        <ele>256.33</ele>
        <time>2013-12-08T10:37:43Z</time>
      </trkpt>
      <trkpt lat="43.78039" lon="7.3532">
        <ele>260.65</ele>
        <time>2013-12-08T10:39:27Z</time>
      </trkpt>
      <trkpt lat="43.78038" lon="7.35313">
        <ele>261.14</ele>
        <time>2013-12-08T10:39:58Z</time>
      </trkpt>
      <trkpt lat="43.78039" lon="7.35317">
        <ele>269.79</ele>
        <time>2013-12-08T10:41:33Z</time>
      </trkpt>
      <trkpt lat="43.78038" lon="7.35316">
        <ele>267.38</ele>
        <time>2013-12-08T10:42:01Z</time>
      </trkpt>
      <trkpt lat="43.78041" lon="7.3532">
        <ele>267.38</ele>
        <time>2013-12-08T10:42:39Z</time>
      </trkpt>
      <trkpt lat="43.78037" lon="7.3532">
        <ele>267.38</ele>
        <time>2013-12-08T10:43:17Z</time>
      </trkpt>
      <trkpt lat="43.78038" lon="7.35318">
        <ele>265.46</ele>
        <time>2013-12-08T10:43:21Z</time>
      </trkpt>
      <trkpt lat="43.78039" lon="7.35292">
        <ele>260.65</ele>
        <time>2013-12-08T10:46:45Z</time>
      </trkpt>
      <trkpt lat="43.78039" lon="7.35292">
        <ele>261.62</ele>
        <time>2013-12-08T10:46:53Z</time>
      </trkpt>
      <trkpt lat="43.78032" lon="7.35275">
        <ele>263.54</ele>
        <time>2013-12-08T10:47:06Z</time>
      </trkpt>
      <trkpt lat="43.78031" lon="7.35268">
        <ele>264.5</ele>
        <time>2013-12-08T10:47:11Z</time>
      </trkpt>
      <trkpt lat="43.78027" lon="7.35248">
        <ele>266.9</ele>
        <time>2013-12-08T10:47:26Z</time>
      </trkpt>
      <trkpt lat="43.78022" lon="7.35227">
        <ele>270.75</ele>
        <time>2013-12-08T10:47:41Z</time>
      </trkpt>
      <trkpt lat="43.78019" lon="7.35213">
        <ele>274.11</ele>
        <time>2013-12-08T10:47:52Z</time>
      </trkpt>
      <trkpt lat="43.7801" lon="7.35194">
        <ele>277</ele>
        <time>2013-12-08T10:48:07Z</time>
      </trkpt>
      <trkpt lat="43.78002" lon="7.35183">
        <ele>280.36</ele>
        <time>2013-12-08T10:48:21Z</time>
      </trkpt>
      <trkpt lat="43.78001" lon="7.35183">
        <ele>280.36</ele>
        <time>2013-12-08T10:48:22Z</time>
      </trkpt>
      <trkpt lat="43.77994" lon="7.35179">
        <ele>281.32</ele>
        <time>2013-12-08T10:48:31Z</time>
      </trkpt>
      <trkpt lat="43.77992" lon="7.35177">
        <ele>281.8</ele>
        <time>2013-12-08T10:48:33Z</time>
      </trkpt>
      <trkpt lat="43.77988" lon="7.35154">
        <ele>284.69</ele>
        <time>2013-12-08T10:48:48Z</time>
      </trkpt>
      <trkpt lat="43.77987" lon="7.35146">
        <ele>286.61</ele>
        <time>2013-12-08T10:48:53Z</time>
      </trkpt>
      <trkpt lat="43.77975" lon="7.35126">
        <ele>289.49</ele>
        <time>2013-12-08T10:49:06Z</time>
      </trkpt>
      <trkpt lat="43.77971" lon="7.35123">
        <ele>289.01</ele>
        <time>2013-12-08T10:49:09Z</time>
      </trkpt>
      <trkpt lat="43.77959" lon="7.35109">
        <ele>289.49</ele>
        <time>2013-12-08T10:49:19Z</time>
      </trkpt>
      <trkpt lat="43.7796" lon="7.35098">
        <ele>289.49</ele>
        <time>2013-12-08T10:49:24Z</time>
      </trkpt>
      <trkpt lat="43.77967" lon="7.35092">
        <ele>289.01</ele>
        <time>2013-12-08T10:49:30Z</time>
      </trkpt>
      <trkpt lat="43.77974" lon="7.35049">
        <ele>285.17</ele>
        <time>2013-12-08T10:49:43Z</time>
      </trkpt>
      <trkpt lat="43.77971" lon="7.35007">
        <ele>284.69</ele>
        <time>2013-12-08T10:49:56Z</time>
      </trkpt>
      <trkpt lat="43.77951" lon="7.34986">
        <ele>286.61</ele>
        <time>2013-12-08T10:50:08Z</time>
      </trkpt>
      <trkpt lat="43.77943" lon="7.34979">
        <ele>289.01</ele>
        <time>2013-12-08T10:50:22Z</time>
      </trkpt>
      <trkpt lat="43.77939" lon="7.34976">
        <ele>285.65</ele>
        <time>2013-12-08T10:50:50Z</time>
      </trkpt>
      <trkpt lat="43.7794" lon="7.34976">
        <ele>283.73</ele>
        <time>2013-12-08T10:51:13Z</time>
      </trkpt>
      <trkpt lat="43.77939" lon="7.34975">
        <ele>285.65</ele>
        <time>2013-12-08T10:51:46Z</time>
      </trkpt>
      <trkpt lat="43.77933" lon="7.34966">
        <ele>285.17</ele>
        <time>2013-12-08T10:51:51Z</time>
      </trkpt>
      <trkpt lat="43.77929" lon="7.34933">
        <ele>282.28</ele>
        <time>2013-12-08T10:51:57Z</time>
      </trkpt>
      <trkpt lat="43.77934" lon="7.34925">
        <ele>281.8</ele>
        <time>2013-12-08T10:51:59Z</time>
      </trkpt>
      <trkpt lat="43.77961" lon="7.34882">
        <ele>277.48</ele>
        <time>2013-12-08T10:52:07Z</time>
      </trkpt>
      <trkpt lat="43.77953" lon="7.349">
        <ele>278.44</ele>
        <time>2013-12-08T10:53:45Z</time>
      </trkpt>
      <trkpt lat="43.77952" lon="7.34899">
        <ele>275.56</ele>
        <time>2013-12-08T10:53:55Z</time>
      </trkpt>
      <trkpt lat="43.77963" lon="7.34874">
        <ele>272.67</ele>
        <time>2013-12-08T10:54:06Z</time>
      </trkpt>
      <trkpt lat="43.77962" lon="7.34874">
        <ele>271.71</ele>
        <time>2013-12-08T10:54:11Z</time>
      </trkpt>
      <trkpt lat="43.77968" lon="7.3487">
        <ele>271.71</ele>
        <time>2013-12-08T10:54:23Z</time>
      </trkpt>
      <trkpt lat="43.77964" lon="7.34877">
        <ele>273.15</ele>
        <time>2013-12-08T10:54:30Z</time>
      </trkpt>
      <trkpt lat="43.77963" lon="7.34878">
        <ele>276.52</ele>
        <time>2013-12-08T10:55:11Z</time>
      </trkpt>
      <trkpt lat="43.77964" lon="7.34879">
        <ele>276.04</ele>
        <time>2013-12-08T10:55:14Z</time>
      </trkpt>
      <trkpt lat="43.77975" lon="7.3487">
        <ele>272.19</ele>
        <time>2013-12-08T10:55:19Z</time>
      </trkpt>
      <trkpt lat="43.7799" lon="7.34855">
        <ele>268.35</ele>
        <time>2013-12-08T10:55:23Z</time>
      </trkpt>
      <trkpt lat="43.77998" lon="7.34824">
        <ele>260.65</ele>
        <time>2013-12-08T10:55:31Z</time>
      </trkpt>
      <trkpt lat="43.78014" lon="7.34836">
        <ele>254.41</ele>
        <time>2013-12-08T10:55:38Z</time>
      </trkpt>
      <trkpt lat="43.78017" lon="7.3486">
        <ele>248.16</ele>
        <time>2013-12-08T10:55:44Z</time>
      </trkpt>
      <trkpt lat="43.78021" lon="7.34856">
        <ele>245.75</ele>
        <time>2013-12-08T10:55:47Z</time>
      </trkpt>
      <trkpt lat="43.78023" lon="7.34861">
        <ele>243.83</ele>
        <time>2013-12-08T10:55:50Z</time>
      </trkpt>
      <trkpt lat="43.78035" lon="7.34859">
        <ele>238.54</ele>
        <time>2013-12-08T10:55:58Z</time>
      </trkpt>
      <trkpt lat="43.78036" lon="7.34862">
        <ele>237.58</ele>
        <time>2013-12-08T10:55:59Z</time>
      </trkpt>
      <trkpt lat="43.78046" lon="7.34862">
        <ele>232.78</ele>
        <time>2013-12-08T10:56:04Z</time>
      </trkpt>
      <trkpt lat="43.78057" lon="7.34839">
        <ele>229.89</ele>
        <time>2013-12-08T10:56:09Z</time>
      </trkpt>
      <trkpt lat="43.78071" lon="7.34845">
        <ele>223.64</ele>
        <time>2013-12-08T10:56:15Z</time>
      </trkpt>
      <trkpt lat="43.78075" lon="7.34827">
        <ele>215.95</ele>
        <time>2013-12-08T10:56:22Z</time>
      </trkpt>
      <trkpt lat="43.7808" lon="7.34821">
        <ele>214.03</ele>
        <time>2013-12-08T10:56:25Z</time>
      </trkpt>
      <trkpt lat="43.78099" lon="7.34829">
        <ele>209.7</ele>
        <time>2013-12-08T10:56:33Z</time>
      </trkpt>
      <trkpt lat="43.78102" lon="7.34829">
        <ele>207.78</ele>
        <time>2013-12-08T10:56:37Z</time>
      </trkpt>
      <trkpt lat="43.781" lon="7.3482">
        <ele>205.38</ele>
        <time>2013-12-08T10:56:47Z</time>
      </trkpt>
      <trkpt lat="43.78101" lon="7.34823">
        <ele>202.98</ele>
        <time>2013-12-08T10:57:04Z</time>
      </trkpt>
      <trkpt lat="43.78102" lon="7.34824">
        <ele>203.94</ele>
        <time>2013-12-08T10:57:50Z</time>
      </trkpt>
      <trkpt lat="43.78102" lon="7.34822">
        <ele>200.09</ele>
        <time>2013-12-08T10:58:45Z</time>
      </trkpt>
      <trkpt lat="43.78105" lon="7.34819">
        <ele>198.65</ele>
        <time>2013-12-08T10:59:21Z</time>
      </trkpt>
      <trkpt lat="43.78103" lon="7.3482">
        <ele>200.09</ele>
        <time>2013-12-08T10:59:56Z</time>
      </trkpt>
      <trkpt lat="43.78105" lon="7.3482">
        <ele>199.61</ele>
        <time>2013-12-08T11:00:31Z</time>
      </trkpt>
      <trkpt lat="43.78102" lon="7.34822">
        <ele>203.94</ele>
        <time>2013-12-08T11:01:04Z</time>
      </trkpt>
      <trkpt lat="43.78104" lon="7.3482">
        <ele>202.01</ele>
        <time>2013-12-08T11:01:34Z</time>
      </trkpt>
      <trkpt lat="43.78102" lon="7.34821">
        <ele>196.25</ele>
        <time>2013-12-08T11:02:11Z</time>
      </trkpt>
      <trkpt lat="43.78105" lon="7.34827">
        <ele>200.57</ele>
        <time>2013-12-08T11:02:44Z</time>
      </trkpt>
      <trkpt lat="43.78097" lon="7.34819">
        <ele>204.42</ele>
        <time>2013-12-08T11:03:03Z</time>
      </trkpt>
      <trkpt lat="43.78088" lon="7.34808">
        <ele>204.42</ele>
        <time>2013-12-08T11:03:08Z</time>
      </trkpt>
      <trkpt lat="43.7807" lon="7.34798">
        <ele>203.94</ele>
        <time>2013-12-08T11:03:19Z</time>
      </trkpt>
      <trkpt lat="43.78064" lon="7.34778">
        <ele>204.9</ele>
        <time>2013-12-08T11:03:25Z</time>
      </trkpt>
      <trkpt lat="43.78062" lon="7.34775">
        <ele>203.94</ele>
        <time>2013-12-08T11:03:30Z</time>
      </trkpt>
      <trkpt lat="43.78059" lon="7.34766">
        <ele>204.42</ele>
        <time>2013-12-08T11:03:35Z</time>
      </trkpt>
      <trkpt lat="43.78059" lon="7.34735">
        <ele>202.49</ele>
        <time>2013-12-08T11:03:44Z</time>
      </trkpt>
      <trkpt lat="43.78058" lon="7.34704">
        <ele>202.49</ele>
        <time>2013-12-08T11:03:52Z</time>
      </trkpt>
      <trkpt lat="43.78059" lon="7.34681">
        <ele>203.46</ele>
        <time>2013-12-08T11:03:58Z</time>
      </trkpt>
      <trkpt lat="43.78056" lon="7.34674">
        <ele>202.98</ele>
        <time>2013-12-08T11:04:00Z</time>
      </trkpt>
      <trkpt lat="43.78051" lon="7.34666">
        <ele>202.98</ele>
        <time>2013-12-08T11:04:03Z</time>
      </trkpt>
      <trkpt lat="43.78042" lon="7.34661">
        <ele>202.01</ele>
        <time>2013-12-08T11:04:12Z</time>
      </trkpt>
      <trkpt lat="43.78038" lon="7.34664">
        <ele>202.01</ele>
        <time>2013-12-08T11:04:20Z</time>
      </trkpt>
      <trkpt lat="43.78035" lon="7.34667">
        <ele>202.01</ele>
        <time>2013-12-08T11:04:24Z</time>
      </trkpt>
      <trkpt lat="43.78027" lon="7.34659">
        <ele>203.46</ele>
        <time>2013-12-08T11:04:36Z</time>
      </trkpt>
      <trkpt lat="43.78018" lon="7.34657">
        <ele>203.46</ele>
        <time>2013-12-08T11:04:40Z</time>
      </trkpt>
      <trkpt lat="43.78004" lon="7.34658">
        <ele>204.42</ele>
        <time>2013-12-08T11:04:48Z</time>
      </trkpt>
      <trkpt lat="43.77995" lon="7.34669">
        <ele>204.9</ele>
        <time>2013-12-08T11:04:54Z</time>
      </trkpt>
      <trkpt lat="43.77987" lon="7.34677">
        <ele>204.42</ele>
        <time>2013-12-08T11:04:58Z</time>
      </trkpt>
      <trkpt lat="43.77978" lon="7.34676">
        <ele>203.46</ele>
        <time>2013-12-08T11:05:05Z</time>
      </trkpt>
      <trkpt lat="43.77979" lon="7.34669">
        <ele>202.98</ele>
        <time>2013-12-08T11:05:18Z</time>
      </trkpt>
      <trkpt lat="43.77979" lon="7.34668">
        <ele>201.53</ele>
        <time>2013-12-08T11:05:30Z</time>
      </trkpt>
      <trkpt lat="43.77978" lon="7.34668">
        <ele>200.09</ele>
        <time>2013-12-08T11:05:49Z</time>
      </trkpt>
      <trkpt lat="43.77977" lon="7.34666">
        <ele>199.13</ele>
        <time>2013-12-08T11:06:17Z</time>
      </trkpt>
      <trkpt lat="43.77975" lon="7.34655">
        <ele>198.65</ele>
        <time>2013-12-08T11:06:32Z</time>
      </trkpt>
      <trkpt lat="43.77969" lon="7.3465">
        <ele>198.17</ele>
        <time>2013-12-08T11:06:36Z</time>
      </trkpt>
      <trkpt lat="43.77963" lon="7.34646">
        <ele>197.69</ele>
        <time>2013-12-08T11:06:39Z</time>
      </trkpt>
      <trkpt lat="43.77957" lon="7.34636">
        <ele>198.17</ele>
        <time>2013-12-08T11:06:48Z</time>
      </trkpt>
      <trkpt lat="43.77959" lon="7.34634">
        <ele>198.17</ele>
        <time>2013-12-08T11:06:50Z</time>
      </trkpt>
      <trkpt lat="43.77964" lon="7.34633">
        <ele>199.13</ele>
        <time>2013-12-08T11:06:53Z</time>
      </trkpt>
      <trkpt lat="43.77968" lon="7.34622">
        <ele>205.86</ele>
        <time>2013-12-08T11:07:04Z</time>
      </trkpt>
      <trkpt lat="43.77979" lon="7.34612">
        <ele>207.3</ele>
        <time>2013-12-08T11:07:13Z</time>
      </trkpt>
      <trkpt lat="43.77987" lon="7.3459">
        <ele>205.86</ele>
        <time>2013-12-08T11:07:21Z</time>
      </trkpt>
      <trkpt lat="43.77986" lon="7.34582">
        <ele>205.38</ele>
        <time>2013-12-08T11:07:24Z</time>
      </trkpt>
      <trkpt lat="43.77991" lon="7.34573">
        <ele>205.38</ele>
        <time>2013-12-08T11:07:29Z</time>
      </trkpt>
      <trkpt lat="43.77996" lon="7.34561">
        <ele>205.86</ele>
        <time>2013-12-08T11:07:36Z</time>
      </trkpt>
      <trkpt lat="43.78013" lon="7.34555">
        <ele>205.38</ele>
        <time>2013-12-08T11:07:43Z</time>
      </trkpt>
      <trkpt lat="43.78012" lon="7.34522">
        <ele>203.46</ele>
        <time>2013-12-08T11:07:50Z</time>
      </trkpt>
      <trkpt lat="43.78013" lon="7.34517">
        <ele>202.98</ele>
        <time>2013-12-08T11:07:51Z</time>
      </trkpt>
      <trkpt lat="43.78012" lon="7.34501">
        <ele>201.05</ele>
        <time>2013-12-08T11:07:54Z</time>
      </trkpt>
      <trkpt lat="43.78009" lon="7.34472">
        <ele>196.25</ele>
        <time>2013-12-08T11:08:01Z</time>
      </trkpt>
      <trkpt lat="43.78007" lon="7.34436">
        <ele>192.88</ele>
        <time>2013-12-08T11:08:09Z</time>
      </trkpt>
      <trkpt lat="43.78001" lon="7.34435">
        <ele>191.92</ele>
        <time>2013-12-08T11:08:12Z</time>
      </trkpt>
      <trkpt lat="43.77984" lon="7.34439">
        <ele>190.48</ele>
        <time>2013-12-08T11:08:17Z</time>
      </trkpt>
      <trkpt lat="43.77986" lon="7.34409">
        <ele>189.52</ele>
        <time>2013-12-08T11:08:24Z</time>
      </trkpt>
      <trkpt lat="43.77994" lon="7.34396">
        <ele>188.08</ele>
        <time>2013-12-08T11:08:30Z</time>
      </trkpt>
      <trkpt lat="43.77989" lon="7.34381">
        <ele>185.67</ele>
        <time>2013-12-08T11:08:37Z</time>
      </trkpt>
      <trkpt lat="43.77994" lon="7.34364">
        <ele>184.23</ele>
        <time>2013-12-08T11:08:43Z</time>
      </trkpt>
      <trkpt lat="43.77982" lon="7.34353">
        <ele>182.79</ele>
        <time>2013-12-08T11:08:49Z</time>
      </trkpt>
      <trkpt lat="43.77979" lon="7.3434">
        <ele>181.35</ele>
        <time>2013-12-08T11:08:54Z</time>
      </trkpt>
      <trkpt lat="43.77975" lon="7.34341">
        <ele>180.87</ele>
        <time>2013-12-08T11:08:56Z</time>
      </trkpt>
      <trkpt lat="43.77963" lon="7.3432">
        <ele>180.38</ele>
        <time>2013-12-08T11:09:03Z</time>
      </trkpt>
      <trkpt lat="43.7795" lon="7.34296">
        <ele>177.02</ele>
        <time>2013-12-08T11:09:12Z</time>
      </trkpt>
      <trkpt lat="43.77949" lon="7.34271">
        <ele>173.17</ele>
        <time>2013-12-08T11:09:18Z</time>
      </trkpt>
      <trkpt lat="43.77941" lon="7.3425">
        <ele>168.85</ele>
        <time>2013-12-08T11:09:24Z</time>
      </trkpt>
      <trkpt lat="43.77918" lon="7.3424">
        <ele>164.04</ele>
        <time>2013-12-08T11:09:31Z</time>
      </trkpt>
      <trkpt lat="43.77901" lon="7.34236">
        <ele>161.16</ele>
        <time>2013-12-08T11:09:36Z</time>
      </trkpt>
      <trkpt lat="43.77905" lon="7.34213">
        <ele>159.24</ele>
        <time>2013-12-08T11:09:42Z</time>
      </trkpt>
      <trkpt lat="43.77914" lon="7.34196">
        <ele>158.75</ele>
        <time>2013-12-08T11:09:46Z</time>
      </trkpt>
      <trkpt lat="43.77916" lon="7.34194">
        <ele>155.87</ele>
        <time>2013-12-08T11:10:00Z</time>
      </trkpt>
      <trkpt lat="43.77913" lon="7.34194">
        <ele>156.83</ele>
        <time>2013-12-08T11:10:25Z</time>
      </trkpt>
      <trkpt lat="43.77915" lon="7.3419">
        <ele>159.24</ele>
        <time>2013-12-08T11:11:00Z</time>
      </trkpt>
      <trkpt lat="43.77916" lon="7.34186">
        <ele>158.27</ele>
        <time>2013-12-08T11:11:36Z</time>
      </trkpt>
      <trkpt lat="43.77916" lon="7.34188">
        <ele>158.75</ele>
        <time>2013-12-08T11:12:04Z</time>
      </trkpt>
      <trkpt lat="43.77916" lon="7.34189">
        <ele>163.08</ele>
        <time>2013-12-08T11:12:36Z</time>
      </trkpt>
      <trkpt lat="43.77915" lon="7.3419">
        <ele>164.52</ele>
        <time>2013-12-08T11:13:03Z</time>
      </trkpt>
      <trkpt lat="43.77915" lon="7.3419">
        <ele>166.45</ele>
        <time>2013-12-08T11:13:29Z</time>
      </trkpt>
      <trkpt lat="43.77913" lon="7.34193">
        <ele>165.96</ele>
        <time>2013-12-08T11:14:06Z</time>
      </trkpt>
      <trkpt lat="43.77914" lon="7.3419">
        <ele>163.08</ele>
        <time>2013-12-08T11:14:38Z</time>
      </trkpt>
      <trkpt lat="43.77918" lon="7.34187">
        <ele>160.2</ele>
        <time>2013-12-08T11:14:59Z</time>
      </trkpt>
      <trkpt lat="43.77921" lon="7.34176">
        <ele>159.72</ele>
        <time>2013-12-08T11:15:02Z</time>
      </trkpt>
      <trkpt lat="43.77918" lon="7.34165">
        <ele>159.24</ele>
        <time>2013-12-08T11:15:05Z</time>
      </trkpt>
      <trkpt lat="43.7791" lon="7.34143">
        <ele>158.27</ele>
        <time>2013-12-08T11:15:12Z</time>
      </trkpt>
      <trkpt lat="43.77897" lon="7.3411">
        <ele>156.83</ele>
        <time>2013-12-08T11:15:19Z</time>
      </trkpt>
      <trkpt lat="43.77879" lon="7.34076">
        <ele>155.39</ele>
        <time>2013-12-08T11:15:27Z</time>
      </trkpt>
      <trkpt lat="43.77865" lon="7.34066">
        <ele>154.91</ele>
        <time>2013-12-08T11:15:31Z</time>
      </trkpt>
      <trkpt lat="43.77846" lon="7.34046">
        <ele>158.27</ele>
        <time>2013-12-08T11:15:41Z</time>
      </trkpt>
      <trkpt lat="43.77836" lon="7.34045">
        <ele>158.27</ele>
        <time>2013-12-08T11:15:44Z</time>
      </trkpt>
      <trkpt lat="43.7783" lon="7.34043">
        <ele>157.31</ele>
        <time>2013-12-08T11:15:46Z</time>
      </trkpt>
      <trkpt lat="43.7782" lon="7.34028">
        <ele>153.47</ele>
        <time>2013-12-08T11:15:53Z</time>
      </trkpt>
      <trkpt lat="43.77826" lon="7.34027">
        <ele>153.95</ele>
        <time>2013-12-08T11:16:06Z</time>
      </trkpt>
      <trkpt lat="43.77824" lon="7.34029">
        <ele>153.95</ele>
        <time>2013-12-08T11:16:36Z</time>
      </trkpt>
      <trkpt lat="43.77825" lon="7.34029">
        <ele>153.47</ele>
        <time>2013-12-08T11:16:37Z</time>
      </trkpt>
      <trkpt lat="43.77826" lon="7.34029">
        <ele>153.47</ele>
        <time>2013-12-08T11:16:39Z</time>
      </trkpt>
      <trkpt lat="43.77855" lon="7.34037">
        <ele>150.1</ele>
        <time>2013-12-08T11:16:50Z</time>
      </trkpt>
      <trkpt lat="43.77864" lon="7.34046">
        <ele>149.14</ele>
        <time>2013-12-08T11:16:52Z</time>
      </trkpt>
      <trkpt lat="43.77914" lon="7.34079">
        <ele>144.82</ele>
        <time>2013-12-08T11:16:59Z</time>
      </trkpt>
      <trkpt lat="43.77967" lon="7.3406">
        <ele>140.01</ele>
        <time>2013-12-08T11:17:06Z</time>
      </trkpt>
      <trkpt lat="43.77964" lon="7.3403">
        <ele>139.05</ele>
        <time>2013-12-08T11:17:12Z</time>
      </trkpt>
      <trkpt lat="43.77962" lon="7.34024">
        <ele>140.01</ele>
        <time>2013-12-08T11:17:15Z</time>
      </trkpt>
      <trkpt lat="43.77957" lon="7.34014">
        <ele>141.93</ele>
        <time>2013-12-08T11:17:21Z</time>
      </trkpt>
      <trkpt lat="43.77949" lon="7.33998">
        <ele>146.26</ele>
        <time>2013-12-08T11:17:32Z</time>
      </trkpt>
      <trkpt lat="43.77948" lon="7.33974">
        <ele>150.1</ele>
        <time>2013-12-08T11:17:46Z</time>
      </trkpt>
      <trkpt lat="43.77951" lon="7.33952">
        <ele>152.51</ele>
        <time>2013-12-08T11:17:59Z</time>
      </trkpt>
      <trkpt lat="43.77959" lon="7.33922">
        <ele>156.35</ele>
        <time>2013-12-08T11:18:16Z</time>
      </trkpt>
      <trkpt lat="43.77983" lon="7.33908">
        <ele>158.75</ele>
        <time>2013-12-08T11:18:33Z</time>
      </trkpt>
      <trkpt lat="43.78009" lon="7.33916">
        <ele>160.68</ele>
        <time>2013-12-08T11:18:48Z</time>
      </trkpt>
      <trkpt lat="43.78036" lon="7.33922">
        <ele>163.08</ele>
        <time>2013-12-08T11:19:04Z</time>
      </trkpt>
      <trkpt lat="43.78063" lon="7.33931">
        <ele>165.96</ele>
        <time>2013-12-08T11:19:20Z</time>
      </trkpt>
      <trkpt lat="43.78086" lon="7.33953">
        <ele>166.93</ele>
        <time>2013-12-08T11:19:35Z</time>
      </trkpt>
      <trkpt lat="43.78116" lon="7.33959">
        <ele>170.77</ele>
        <time>2013-12-08T11:19:53Z</time>
      </trkpt>
      <trkpt lat="43.78131" lon="7.3397">
        <ele>172.21</ele>
        <time>2013-12-08T11:20:04Z</time>
      </trkpt>
      <trkpt lat="43.78123" lon="7.34003">
        <ele>175.58</ele>
        <time>2013-12-08T11:20:20Z</time>
      </trkpt>
      <trkpt lat="43.78111" lon="7.3402">
        <ele>178.46</ele>
        <time>2013-12-08T11:20:32Z</time>
      </trkpt>
      <trkpt lat="43.78107" lon="7.34021">
        <ele>178.46</ele>
        <time>2013-12-08T11:20:36Z</time>
      </trkpt>
      <trkpt lat="43.78117" lon="7.34019">
        <ele>177.98</ele>
        <time>2013-12-08T11:20:44Z</time>
      </trkpt>
      <trkpt lat="43.78121" lon="7.34023">
        <ele>176.06</ele>
        <time>2013-12-08T11:20:55Z</time>
      </trkpt>
      <trkpt lat="43.78121" lon="7.34026">
        <ele>175.58</ele>
        <time>2013-12-08T11:21:01Z</time>
      </trkpt>
      <trkpt lat="43.78129" lon="7.34044">
        <ele>168.85</ele>
        <time>2013-12-08T11:21:10Z</time>
      </trkpt>
      <trkpt lat="43.7813" lon="7.34064">
        <ele>168.37</ele>
        <time>2013-12-08T11:21:17Z</time>
      </trkpt>
      <trkpt lat="43.78134" lon="7.34065">
        <ele>168.85</ele>
        <time>2013-12-08T11:21:20Z</time>
      </trkpt>
      <trkpt lat="43.78139" lon="7.34064">
        <ele>167.89</ele>
        <time>2013-12-08T11:21:37Z</time>
      </trkpt>
      <trkpt lat="43.7814" lon="7.34065">
        <ele>167.41</ele>
        <time>2013-12-08T11:21:42Z</time>
      </trkpt>
      <trkpt lat="43.78142" lon="7.34069">
        <ele>166.93</ele>
        <time>2013-12-08T11:21:45Z</time>
      </trkpt>
      <trkpt lat="43.78155" lon="7.34073">
        <ele>166.45</ele>
        <time>2013-12-08T11:21:50Z</time>
      </trkpt>
      <trkpt lat="43.78157" lon="7.34069">
        <ele>166.45</ele>
        <time>2013-12-08T11:21:52Z</time>
      </trkpt>
      <trkpt lat="43.78167" lon="7.34078">
        <ele>165.96</ele>
        <time>2013-12-08T11:21:59Z</time>
      </trkpt>
      <trkpt lat="43.7817" lon="7.34077">
        <ele>166.45</ele>
        <time>2013-12-08T11:22:01Z</time>
      </trkpt>
      <trkpt lat="43.78173" lon="7.3408">
        <ele>166.93</ele>
        <time>2013-12-08T11:22:04Z</time>
      </trkpt>
      <trkpt lat="43.78185" lon="7.34087">
        <ele>168.85</ele>
        <time>2013-12-08T11:22:11Z</time>
      </trkpt>
      <trkpt lat="43.78186" lon="7.34093">
        <ele>168.85</ele>
        <time>2013-12-08T11:22:13Z</time>
      </trkpt>
      <trkpt lat="43.78193" lon="7.34101">
        <ele>169.81</ele>
        <time>2013-12-08T11:22:18Z</time>
      </trkpt>
      <trkpt lat="43.78196" lon="7.34113">
        <ele>170.77</ele>
        <time>2013-12-08T11:22:23Z</time>
      </trkpt>
      <trkpt lat="43.78201" lon="7.34131">
        <ele>170.77</ele>
        <time>2013-12-08T11:22:30Z</time>
      </trkpt>
      <trkpt lat="43.78216" lon="7.34142">
        <ele>170.29</ele>
        <time>2013-12-08T11:22:39Z</time>
      </trkpt>
      <trkpt lat="43.7822" lon="7.34146">
        <ele>169.81</ele>
        <time>2013-12-08T11:22:41Z</time>
      </trkpt>
      <trkpt lat="43.7822" lon="7.34159">
        <ele>169.81</ele>
        <time>2013-12-08T11:22:46Z</time>
      </trkpt>
      <trkpt lat="43.78227" lon="7.34163">
        <ele>168.85</ele>
        <time>2013-12-08T11:22:51Z</time>
      </trkpt>
      <trkpt lat="43.78239" lon="7.34164">
        <ele>169.33</ele>
        <time>2013-12-08T11:22:56Z</time>
      </trkpt>
      <trkpt lat="43.78256" lon="7.34177">
        <ele>170.77</ele>
        <time>2013-12-08T11:23:04Z</time>
      </trkpt>
      <trkpt lat="43.78265" lon="7.34193">
        <ele>172.69</ele>
        <time>2013-12-08T11:23:16Z</time>
      </trkpt>
      <trkpt lat="43.78262" lon="7.34195">
        <ele>177.5</ele>
        <time>2013-12-08T11:23:52Z</time>
      </trkpt>
      <trkpt lat="43.78267" lon="7.34195">
        <ele>175.1</ele>
        <time>2013-12-08T11:24:27Z</time>
      </trkpt>
      <trkpt lat="43.78265" lon="7.34193">
        <ele>175.1</ele>
        <time>2013-12-08T11:25:04Z</time>
      </trkpt>
      <trkpt lat="43.78267" lon="7.34192">
        <ele>173.17</ele>
        <time>2013-12-08T11:25:39Z</time>
      </trkpt>
      <trkpt lat="43.78265" lon="7.34194">
        <ele>170.77</ele>
        <time>2013-12-08T11:25:59Z</time>
      </trkpt>
      <trkpt lat="43.78263" lon="7.3421">
        <ele>171.25</ele>
        <time>2013-12-08T11:26:06Z</time>
      </trkpt>
      <trkpt lat="43.7826" lon="7.34217">
        <ele>171.73</ele>
        <time>2013-12-08T11:26:09Z</time>
      </trkpt>
      <trkpt lat="43.7825" lon="7.34224">
        <ele>175.1</ele>
        <time>2013-12-08T11:26:18Z</time>
      </trkpt>
      <trkpt lat="43.78247" lon="7.34235">
        <ele>176.54</ele>
        <time>2013-12-08T11:26:23Z</time>
      </trkpt>
      <trkpt lat="43.78239" lon="7.34244">
        <ele>176.54</ele>
        <time>2013-12-08T11:26:28Z</time>
      </trkpt>
      <trkpt lat="43.78232" lon="7.34265">
        <ele>177.02</ele>
        <time>2013-12-08T11:26:36Z</time>
      </trkpt>
      <trkpt lat="43.78224" lon="7.34287">
        <ele>179.42</ele>
        <time>2013-12-08T11:26:46Z</time>
      </trkpt>
      <trkpt lat="43.7823" lon="7.34306">
        <ele>178.94</ele>
        <time>2013-12-08T11:26:53Z</time>
      </trkpt>
      <trkpt lat="43.78231" lon="7.34343">
        <ele>178.46</ele>
        <time>2013-12-08T11:27:04Z</time>
      </trkpt>
      <trkpt lat="43.78234" lon="7.34349">
        <ele>178.46</ele>
        <time>2013-12-08T11:27:12Z</time>
      </trkpt>
      <trkpt lat="43.78238" lon="7.34347">
        <ele>177.98</ele>
        <time>2013-12-08T11:27:23Z</time>
      </trkpt>
      <trkpt lat="43.78238" lon="7.34354">
        <ele>178.46</ele>
        <time>2013-12-08T11:27:33Z</time>
      </trkpt>
      <trkpt lat="43.78239" lon="7.34374">
        <ele>181.35</ele>
        <time>2013-12-08T11:27:44Z</time>
      </trkpt>
      <trkpt lat="43.78238" lon="7.34376">
        <ele>181.83</ele>
        <time>2013-12-08T11:27:45Z</time>
      </trkpt>
      <trkpt lat="43.78236" lon="7.34389">
        <ele>183.75</ele>
        <time>2013-12-08T11:27:51Z</time>
      </trkpt>
      <trkpt lat="43.78232" lon="7.34397">
        <ele>185.19</ele>
        <time>2013-12-08T11:27:56Z</time>
      </trkpt>
      <trkpt lat="43.78242" lon="7.34413">
        <ele>185.19</ele>
        <time>2013-12-08T11:28:05Z</time>
      </trkpt>
      <trkpt lat="43.78259" lon="7.34421">
        <ele>184.71</ele>
        <time>2013-12-08T11:28:12Z</time>
      </trkpt>
      <trkpt lat="43.78265" lon="7.34413">
        <ele>184.71</ele>
        <time>2013-12-08T11:28:19Z</time>
      </trkpt>
      <trkpt lat="43.78266" lon="7.34405">
        <ele>184.23</ele>
        <time>2013-12-08T11:28:25Z</time>
      </trkpt>
      <trkpt lat="43.78274" lon="7.34397">
        <ele>184.71</ele>
        <time>2013-12-08T11:28:36Z</time>
      </trkpt>
      <trkpt lat="43.78283" lon="7.34396">
        <ele>186.15</ele>
        <time>2013-12-08T11:28:43Z</time>
      </trkpt>
      <trkpt lat="43.78292" lon="7.34398">
        <ele>185.67</ele>
        <time>2013-12-08T11:28:56Z</time>
      </trkpt>
      <trkpt lat="43.78296" lon="7.3441">
        <ele>185.67</ele>
        <time>2013-12-08T11:29:01Z</time>
      </trkpt>
      <trkpt lat="43.78301" lon="7.3441">
        <ele>186.15</ele>
        <time>2013-12-08T11:29:05Z</time>
      </trkpt>
      <trkpt lat="43.78314" lon="7.34419">
        <ele>188.56</ele>
        <time>2013-12-08T11:29:15Z</time>
      </trkpt>
      <trkpt lat="43.78319" lon="7.34418">
        <ele>189.04</ele>
        <time>2013-12-08T11:29:18Z</time>
      </trkpt>
      <trkpt lat="43.78325" lon="7.34418">
        <ele>189.52</ele>
        <time>2013-12-08T11:29:21Z</time>
      </trkpt>
      <trkpt lat="43.78328" lon="7.34432">
        <ele>190.96</ele>
        <time>2013-12-08T11:29:32Z</time>
      </trkpt>
      <trkpt lat="43.78326" lon="7.34442">
        <ele>192.88</ele>
        <time>2013-12-08T11:29:43Z</time>
      </trkpt>
      <trkpt lat="43.78324" lon="7.34445">
        <ele>193.84</ele>
        <time>2013-12-08T11:29:45Z</time>
      </trkpt>
      <trkpt lat="43.78325" lon="7.3445">
        <ele>195.77</ele>
        <time>2013-12-08T11:29:49Z</time>
      </trkpt>
      <trkpt lat="43.78332" lon="7.34443">
        <ele>197.69</ele>
        <time>2013-12-08T11:29:55Z</time>
      </trkpt>
      <trkpt lat="43.78335" lon="7.3444">
        <ele>197.69</ele>
        <time>2013-12-08T11:29:58Z</time>
      </trkpt>
      <trkpt lat="43.78342" lon="7.34453">
        <ele>198.17</ele>
        <time>2013-12-08T11:30:05Z</time>
      </trkpt>
      <trkpt lat="43.78354" lon="7.34465">
        <ele>198.17</ele>
        <time>2013-12-08T11:30:17Z</time>
      </trkpt>
      <trkpt lat="43.78357" lon="7.34473">
        <ele>195.77</ele>
        <time>2013-12-08T11:30:28Z</time>
      </trkpt>
      <trkpt lat="43.78363" lon="7.34478">
        <ele>197.21</ele>
        <time>2013-12-08T11:30:36Z</time>
      </trkpt>
      <trkpt lat="43.78367" lon="7.34468">
        <ele>196.73</ele>
        <time>2013-12-08T11:30:39Z</time>
      </trkpt>
      <trkpt lat="43.7838" lon="7.34475">
        <ele>195.28</ele>
        <time>2013-12-08T11:30:48Z</time>
      </trkpt>
      <trkpt lat="43.78384" lon="7.34466">
        <ele>196.73</ele>
        <time>2013-12-08T11:30:55Z</time>
      </trkpt>
      <trkpt lat="43.78388" lon="7.34457">
        <ele>197.21</ele>
        <time>2013-12-08T11:30:59Z</time>
      </trkpt>
      <trkpt lat="43.78389" lon="7.34452">
        <ele>197.21</ele>
        <time>2013-12-08T11:31:01Z</time>
      </trkpt>
      <trkpt lat="43.78392" lon="7.34449">
        <ele>197.21</ele>
        <time>2013-12-08T11:31:11Z</time>
      </trkpt>
      <trkpt lat="43.78394" lon="7.34457">
        <ele>197.69</ele>
        <time>2013-12-08T11:31:45Z</time>
      </trkpt>
      <trkpt lat="43.78391" lon="7.34457">
        <ele>201.05</ele>
        <time>2013-12-08T11:32:08Z</time>
      </trkpt>
      <trkpt lat="43.78396" lon="7.3445">
        <ele>200.57</ele>
        <time>2013-12-08T11:32:34Z</time>
      </trkpt>
      <trkpt lat="43.78391" lon="7.34448">
        <ele>201.05</ele>
        <time>2013-12-08T11:33:04Z</time>
      </trkpt>
      <trkpt lat="43.78394" lon="7.34448">
        <ele>199.13</ele>
        <time>2013-12-08T11:33:22Z</time>
      </trkpt>
      <trkpt lat="43.78394" lon="7.34447">
        <ele>198.65</ele>
        <time>2013-12-08T11:33:23Z</time>
      </trkpt>
      <trkpt lat="43.78409" lon="7.34455">
        <ele>195.77</ele>
        <time>2013-12-08T11:33:32Z</time>
      </trkpt>
      <trkpt lat="43.7841" lon="7.34458">
        <ele>195.28</ele>
        <time>2013-12-08T11:33:33Z</time>
      </trkpt>
      <trkpt lat="43.78415" lon="7.34492">
        <ele>192.4</ele>
        <time>2013-12-08T11:33:44Z</time>
      </trkpt>
      <trkpt lat="43.78422" lon="7.34504">
        <ele>191.92</ele>
        <time>2013-12-08T11:33:49Z</time>
      </trkpt>
      <trkpt lat="43.78426" lon="7.34503">
        <ele>192.88</ele>
        <time>2013-12-08T11:33:56Z</time>
      </trkpt>
      <trkpt lat="43.7843" lon="7.34497">
        <ele>194.32</ele>
        <time>2013-12-08T11:34:00Z</time>
      </trkpt>
      <trkpt lat="43.78437" lon="7.34504">
        <ele>199.13</ele>
        <time>2013-12-08T11:34:13Z</time>
      </trkpt>
      <trkpt lat="43.78441" lon="7.34506">
        <ele>198.65</ele>
        <time>2013-12-08T11:34:24Z</time>
      </trkpt>
      <trkpt lat="43.78449" lon="7.34496">
        <ele>196.73</ele>
        <time>2013-12-08T11:34:34Z</time>
      </trkpt>
      <trkpt lat="43.78458" lon="7.34498">
        <ele>194.8</ele>
        <time>2013-12-08T11:34:39Z</time>
      </trkpt>
      <trkpt lat="43.78463" lon="7.3451">
        <ele>193.36</ele>
        <time>2013-12-08T11:34:51Z</time>
      </trkpt>
      <trkpt lat="43.78466" lon="7.34508">
        <ele>194.8</ele>
        <time>2013-12-08T11:35:05Z</time>
      </trkpt>
      <trkpt lat="43.78467" lon="7.34507">
        <ele>202.98</ele>
        <time>2013-12-08T11:35:23Z</time>
      </trkpt>
      <trkpt lat="43.78468" lon="7.34505">
        <ele>204.42</ele>
        <time>2013-12-08T11:35:34Z</time>
      </trkpt>
      <trkpt lat="43.78469" lon="7.34491">
        <ele>202.49</ele>
        <time>2013-12-08T11:35:49Z</time>
      </trkpt>
      <trkpt lat="43.78471" lon="7.34488">
        <ele>201.05</ele>
        <time>2013-12-08T11:35:59Z</time>
      </trkpt>
      <trkpt lat="43.78477" lon="7.3449">
        <ele>200.09</ele>
        <time>2013-12-08T11:36:18Z</time>
      </trkpt>
      <trkpt lat="43.7848" lon="7.34492">
        <ele>201.05</ele>
        <time>2013-12-08T11:36:25Z</time>
      </trkpt>
      <trkpt lat="43.78487" lon="7.34499">
        <ele>202.01</ele>
        <time>2013-12-08T11:36:32Z</time>
      </trkpt>
      <trkpt lat="43.78491" lon="7.34512">
        <ele>203.46</ele>
        <time>2013-12-08T11:36:39Z</time>
      </trkpt>
      <trkpt lat="43.78502" lon="7.34532">
        <ele>206.82</ele>
        <time>2013-12-08T11:36:50Z</time>
      </trkpt>
      <trkpt lat="43.78507" lon="7.34536">
        <ele>205.38</ele>
        <time>2013-12-08T11:36:53Z</time>
      </trkpt>
      <trkpt lat="43.78517" lon="7.34557">
        <ele>205.86</ele>
        <time>2013-12-08T11:37:03Z</time>
      </trkpt>
      <trkpt lat="43.7852" lon="7.3456">
        <ele>205.86</ele>
        <time>2013-12-08T11:37:05Z</time>
      </trkpt>
      <trkpt lat="43.78527" lon="7.34568">
        <ele>204.9</ele>
        <time>2013-12-08T11:37:09Z</time>
      </trkpt>
      <trkpt lat="43.78544" lon="7.34593">
        <ele>201.53</ele>
        <time>2013-12-08T11:37:17Z</time>
      </trkpt>
      <trkpt lat="43.78544" lon="7.34611">
        <ele>199.61</ele>
        <time>2013-12-08T11:37:22Z</time>
      </trkpt>
      <trkpt lat="43.78559" lon="7.3462">
        <ele>198.17</ele>
        <time>2013-12-08T11:37:31Z</time>
      </trkpt>
      <trkpt lat="43.7856" lon="7.34621">
        <ele>193.36</ele>
        <time>2013-12-08T11:37:48Z</time>
      </trkpt>
      <trkpt lat="43.78562" lon="7.34623">
        <ele>191.44</ele>
        <time>2013-12-08T11:38:00Z</time>
      </trkpt>
      <trkpt lat="43.78561" lon="7.34624">
        <ele>193.36</ele>
        <time>2013-12-08T11:38:13Z</time>
      </trkpt>
      <trkpt lat="43.7856" lon="7.34627">
        <ele>194.8</ele>
        <time>2013-12-08T11:38:48Z</time>
      </trkpt>
      <trkpt lat="43.78562" lon="7.34623">
        <ele>194.32</ele>
        <time>2013-12-08T11:39:02Z</time>
      </trkpt>
      <trkpt lat="43.78566" lon="7.34616">
        <ele>193.84</ele>
        <time>2013-12-08T11:39:17Z</time>
      </trkpt>
      <trkpt lat="43.78566" lon="7.34616">
        <ele>197.69</ele>
        <time>2013-12-08T11:39:59Z</time>
      </trkpt>
      <trkpt lat="43.78566" lon="7.34612">
        <ele>196.73</ele>
        <time>2013-12-08T11:40:10Z</time>
      </trkpt>
      <trkpt lat="43.78566" lon="7.34605">
        <ele>199.13</ele>
        <time>2013-12-08T11:40:23Z</time>
      </trkpt>
      <trkpt lat="43.78567" lon="7.346">
        <ele>199.61</ele>
        <time>2013-12-08T11:40:28Z</time>
      </trkpt>
      <trkpt lat="43.78574" lon="7.34592">
        <ele>199.61</ele>
        <time>2013-12-08T11:40:40Z</time>
      </trkpt>
      <trkpt lat="43.78576" lon="7.34592">
        <ele>200.09</ele>
        <time>2013-12-08T11:40:44Z</time>
      </trkpt>
      <trkpt lat="43.78582" lon="7.34588">
        <ele>201.53</ele>
        <time>2013-12-08T11:40:51Z</time>
      </trkpt>
      <trkpt lat="43.78584" lon="7.34583">
        <ele>202.01</ele>
        <time>2013-12-08T11:40:54Z</time>
      </trkpt>
      <trkpt lat="43.78603" lon="7.3458">
        <ele>202.98</ele>
        <time>2013-12-08T11:41:05Z</time>
      </trkpt>
      <trkpt lat="43.78611" lon="7.34585">
        <ele>202.98</ele>
        <time>2013-12-08T11:41:10Z</time>
      </trkpt>
      <trkpt lat="43.7862" lon="7.34591">
        <ele>202.49</ele>
        <time>2013-12-08T11:41:17Z</time>
      </trkpt>
      <trkpt lat="43.78632" lon="7.34601">
        <ele>201.53</ele>
        <time>2013-12-08T11:41:25Z</time>
      </trkpt>
      <trkpt lat="43.78636" lon="7.34612">
        <ele>202.98</ele>
        <time>2013-12-08T11:41:31Z</time>
      </trkpt>
      <trkpt lat="43.78649" lon="7.34625">
        <ele>204.42</ele>
        <time>2013-12-08T11:41:40Z</time>
      </trkpt>
      <trkpt lat="43.78648" lon="7.34633">
        <ele>204.9</ele>
        <time>2013-12-08T11:41:44Z</time>
      </trkpt>
      <trkpt lat="43.78645" lon="7.34652">
        <ele>206.82</ele>
        <time>2013-12-08T11:41:53Z</time>
      </trkpt>
      <trkpt lat="43.7864" lon="7.34676">
        <ele>207.78</ele>
        <time>2013-12-08T11:42:06Z</time>
      </trkpt>
      <trkpt lat="43.78637" lon="7.34685">
        <ele>208.26</ele>
        <time>2013-12-08T11:42:12Z</time>
      </trkpt>
      <trkpt lat="43.78637" lon="7.34696">
        <ele>209.7</ele>
        <time>2013-12-08T11:42:18Z</time>
      </trkpt>
      <trkpt lat="43.78649" lon="7.347">
        <ele>211.63</ele>
        <time>2013-12-08T11:42:28Z</time>
      </trkpt>
      <trkpt lat="43.7866" lon="7.34702">
        <ele>213.55</ele>
        <time>2013-12-08T11:42:36Z</time>
      </trkpt>
      <trkpt lat="43.78667" lon="7.34699">
        <ele>213.07</ele>
        <time>2013-12-08T11:42:42Z</time>
      </trkpt>
      <trkpt lat="43.78679" lon="7.34716">
        <ele>212.11</ele>
        <time>2013-12-08T11:42:55Z</time>
      </trkpt>
      <trkpt lat="43.78681" lon="7.34727">
        <ele>213.07</ele>
        <time>2013-12-08T11:43:01Z</time>
      </trkpt>
      <trkpt lat="43.78686" lon="7.34733">
        <ele>214.51</ele>
        <time>2013-12-08T11:43:06Z</time>
      </trkpt>
      <trkpt lat="43.78692" lon="7.34742">
        <ele>214.03</ele>
        <time>2013-12-08T11:43:11Z</time>
      </trkpt>
      <trkpt lat="43.78698" lon="7.34763">
        <ele>213.55</ele>
        <time>2013-12-08T11:43:20Z</time>
      </trkpt>
      <trkpt lat="43.787" lon="7.34771">
        <ele>214.03</ele>
        <time>2013-12-08T11:43:24Z</time>
      </trkpt>
      <trkpt lat="43.78697" lon="7.34798">
        <ele>213.07</ele>
        <time>2013-12-08T11:43:34Z</time>
      </trkpt>
      <trkpt lat="43.78696" lon="7.34802">
        <ele>213.07</ele>
        <time>2013-12-08T11:43:35Z</time>
      </trkpt>
      <trkpt lat="43.78693" lon="7.34833">
        <ele>213.55</ele>
        <time>2013-12-08T11:43:46Z</time>
      </trkpt>
      <trkpt lat="43.78698" lon="7.34835">
        <ele>213.55</ele>
        <time>2013-12-08T11:43:49Z</time>
      </trkpt>
      <trkpt lat="43.78714" lon="7.34827">
        <ele>212.59</ele>
        <time>2013-12-08T11:43:59Z</time>
      </trkpt>
      <trkpt lat="43.78717" lon="7.34824">
        <ele>212.59</ele>
        <time>2013-12-08T11:44:01Z</time>
      </trkpt>
      <trkpt lat="43.7872" lon="7.34823">
        <ele>212.11</ele>
        <time>2013-12-08T11:44:03Z</time>
      </trkpt>
      <trkpt lat="43.78727" lon="7.34827">
        <ele>211.15</ele>
        <time>2013-12-08T11:44:08Z</time>
      </trkpt>
      <trkpt lat="43.78731" lon="7.34826">
        <ele>210.67</ele>
        <time>2013-12-08T11:44:22Z</time>
      </trkpt>
      <trkpt lat="43.78732" lon="7.34827">
        <ele>210.67</ele>
        <time>2013-12-08T11:44:53Z</time>
      </trkpt>
      <trkpt lat="43.78734" lon="7.34823">
        <ele>213.07</ele>
        <time>2013-12-08T11:45:30Z</time>
      </trkpt>
      <trkpt lat="43.78734" lon="7.34826">
        <ele>211.63</ele>
        <time>2013-12-08T11:45:55Z</time>
      </trkpt>
      <trkpt lat="43.78732" lon="7.34829">
        <ele>207.3</ele>
        <time>2013-12-08T11:46:15Z</time>
      </trkpt>
      <trkpt lat="43.78733" lon="7.34831">
        <ele>208.26</ele>
        <time>2013-12-08T11:46:18Z</time>
      </trkpt>
      <trkpt lat="43.78729" lon="7.34848">
        <ele>209.7</ele>
        <time>2013-12-08T11:46:28Z</time>
      </trkpt>
      <trkpt lat="43.78735" lon="7.34846">
        <ele>211.15</ele>
        <time>2013-12-08T11:46:32Z</time>
      </trkpt>
      <trkpt lat="43.78737" lon="7.34843">
        <ele>211.63</ele>
        <time>2013-12-08T11:46:34Z</time>
      </trkpt>
      <trkpt lat="43.78755" lon="7.34851">
        <ele>209.22</ele>
        <time>2013-12-08T11:46:44Z</time>
      </trkpt>
      <trkpt lat="43.7876" lon="7.3485">
        <ele>209.22</ele>
        <time>2013-12-08T11:46:58Z</time>
      </trkpt>
      <trkpt lat="43.78761" lon="7.34848">
        <ele>212.11</ele>
        <time>2013-12-08T11:47:07Z</time>
      </trkpt>
      <trkpt lat="43.78766" lon="7.34846">
        <ele>211.15</ele>
        <time>2013-12-08T11:47:17Z</time>
      </trkpt>
      <trkpt lat="43.78771" lon="7.34849">
        <ele>210.67</ele>
        <time>2013-12-08T11:47:20Z</time>
      </trkpt>
      <trkpt lat="43.7879" lon="7.34859">
        <ele>207.3</ele>
        <time>2013-12-08T11:47:29Z</time>
      </trkpt>
      <trkpt lat="43.78797" lon="7.34872">
        <ele>206.82</ele>
        <time>2013-12-08T11:47:33Z</time>
      </trkpt>
      <trkpt lat="43.78811" lon="7.34889">
        <ele>205.86</ele>
        <time>2013-12-08T11:47:42Z</time>
      </trkpt>
      <trkpt lat="43.7882" lon="7.34914">
        <ele>203.46</ele>
        <time>2013-12-08T11:47:49Z</time>
      </trkpt>
      <trkpt lat="43.78835" lon="7.34917">
        <ele>201.53</ele>
        <time>2013-12-08T11:47:55Z</time>
      </trkpt>
      <trkpt lat="43.78861" lon="7.34933">
        <ele>198.17</ele>
        <time>2013-12-08T11:48:04Z</time>
      </trkpt>
      <trkpt lat="43.78861" lon="7.34936">
        <ele>198.17</ele>
        <time>2013-12-08T11:48:05Z</time>
      </trkpt>
      <trkpt lat="43.78866" lon="7.34963">
        <ele>196.73</ele>
        <time>2013-12-08T11:48:14Z</time>
      </trkpt>
      <trkpt lat="43.78868" lon="7.34969">
        <ele>196.25</ele>
        <time>2013-12-08T11:48:26Z</time>
      </trkpt>
      <trkpt lat="43.78872" lon="7.34971">
        <ele>198.17</ele>
        <time>2013-12-08T11:48:36Z</time>
      </trkpt>
      <trkpt lat="43.78876" lon="7.34975">
        <ele>198.17</ele>
        <time>2013-12-08T11:49:06Z</time>
      </trkpt>
      <trkpt lat="43.78879" lon="7.34975">
        <ele>196.25</ele>
        <time>2013-12-08T11:49:19Z</time>
      </trkpt>
      <trkpt lat="43.78883" lon="7.34977">
        <ele>196.73</ele>
        <time>2013-12-08T11:49:24Z</time>
      </trkpt>
      <trkpt lat="43.78895" lon="7.3499">
        <ele>194.8</ele>
        <time>2013-12-08T11:49:33Z</time>
      </trkpt>
      <trkpt lat="43.78902" lon="7.35001">
        <ele>192.88</ele>
        <time>2013-12-08T11:49:37Z</time>
      </trkpt>
      <trkpt lat="43.78907" lon="7.35022">
        <ele>187.59</ele>
        <time>2013-12-08T11:49:45Z</time>
      </trkpt>
      <trkpt lat="43.78923" lon="7.35034">
        <ele>182.31</ele>
        <time>2013-12-08T11:49:51Z</time>
      </trkpt>
      <trkpt lat="43.78928" lon="7.35048">
        <ele>179.42</ele>
        <time>2013-12-08T11:49:55Z</time>
      </trkpt>
      <trkpt lat="43.7893" lon="7.35053">
        <ele>177.5</ele>
        <time>2013-12-08T11:49:59Z</time>
      </trkpt>
      <trkpt lat="43.78935" lon="7.35038">
        <ele>176.06</ele>
        <time>2013-12-08T11:50:05Z</time>
      </trkpt>
      <trkpt lat="43.78932" lon="7.35015">
        <ele>171.25</ele>
        <time>2013-12-08T11:50:17Z</time>
      </trkpt>
      <trkpt lat="43.78933" lon="7.35018">
        <ele>169.81</ele>
        <time>2013-12-08T11:50:23Z</time>
      </trkpt>
      <trkpt lat="43.78938" lon="7.35023">
        <ele>167.41</ele>
        <time>2013-12-08T11:50:34Z</time>
      </trkpt>
      <trkpt lat="43.78944" lon="7.3503">
        <ele>166.93</ele>
        <time>2013-12-08T11:50:40Z</time>
      </trkpt>
      <trkpt lat="43.78949" lon="7.3503">
        <ele>165.48</ele>
        <time>2013-12-08T11:50:51Z</time>
      </trkpt>
      <trkpt lat="43.78946" lon="7.35023">
        <ele>162.6</ele>
        <time>2013-12-08T11:51:03Z</time>
      </trkpt>
      <trkpt lat="43.78948" lon="7.35025">
        <ele>160.2</ele>
        <time>2013-12-08T11:51:19Z</time>
      </trkpt>
      <trkpt lat="43.78949" lon="7.35025">
        <ele>160.2</ele>
        <time>2013-12-08T11:51:20Z</time>
      </trkpt>
      <trkpt lat="43.78958" lon="7.35034">
        <ele>158.27</ele>
        <time>2013-12-08T11:51:31Z</time>
      </trkpt>
      <trkpt lat="43.78962" lon="7.35028">
        <ele>155.39</ele>
        <time>2013-12-08T11:51:44Z</time>
      </trkpt>
      <trkpt lat="43.78963" lon="7.3503">
        <ele>153.95</ele>
        <time>2013-12-08T11:51:48Z</time>
      </trkpt>
      <trkpt lat="43.7897" lon="7.3503">
        <ele>153.47</ele>
        <time>2013-12-08T11:51:59Z</time>
      </trkpt>
      <trkpt lat="43.78971" lon="7.35022">
        <ele>150.1</ele>
        <time>2013-12-08T11:52:12Z</time>
      </trkpt>
      <trkpt lat="43.78974" lon="7.35021">
        <ele>149.14</ele>
        <time>2013-12-08T11:52:29Z</time>
      </trkpt>
      <trkpt lat="43.78978" lon="7.35023">
        <ele>153.95</ele>
        <time>2013-12-08T11:52:41Z</time>
      </trkpt>
      <trkpt lat="43.78977" lon="7.3503">
        <ele>158.75</ele>
        <time>2013-12-08T11:53:03Z</time>
      </trkpt>
      <trkpt lat="43.78976" lon="7.35021">
        <ele>162.12</ele>
        <time>2013-12-08T11:53:34Z</time>
      </trkpt>
      <trkpt lat="43.78971" lon="7.35033">
        <ele>166.93</ele>
        <time>2013-12-08T11:54:05Z</time>
      </trkpt>
      <trkpt lat="43.78971" lon="7.35024">
        <ele>166.45</ele>
        <time>2013-12-08T11:54:37Z</time>
      </trkpt>
      <trkpt lat="43.78976" lon="7.35025">
        <ele>166.45</ele>
        <time>2013-12-08T11:54:51Z</time>
      </trkpt>
      <trkpt lat="43.78979" lon="7.35023">
        <ele>167.89</ele>
        <time>2013-12-08T11:55:07Z</time>
      </trkpt>
      <trkpt lat="43.78979" lon="7.3502">
        <ele>171.25</ele>
        <time>2013-12-08T11:55:27Z</time>
      </trkpt>
      <trkpt lat="43.78972" lon="7.35014">
        <ele>171.25</ele>
        <time>2013-12-08T11:55:41Z</time>
      </trkpt>
      <trkpt lat="43.7897" lon="7.35008">
        <ele>172.69</ele>
        <time>2013-12-08T11:55:49Z</time>
      </trkpt>
      <trkpt lat="43.7897" lon="7.35003">
        <ele>170.77</ele>
        <time>2013-12-08T11:55:52Z</time>
      </trkpt>
      <trkpt lat="43.78963" lon="7.34994">
        <ele>167.41</ele>
        <time>2013-12-08T11:55:58Z</time>
      </trkpt>
      <trkpt lat="43.78957" lon="7.34971">
        <ele>166.93</ele>
        <time>2013-12-08T11:56:11Z</time>
      </trkpt>
      <trkpt lat="43.78958" lon="7.3497">
        <ele>166.93</ele>
        <time>2013-12-08T11:56:26Z</time>
      </trkpt>
      <trkpt lat="43.78961" lon="7.3497">
        <ele>163.56</ele>
        <time>2013-12-08T11:56:45Z</time>
      </trkpt>
      <trkpt lat="43.78962" lon="7.34969">
        <ele>164.04</ele>
        <time>2013-12-08T11:57:19Z</time>
      </trkpt>
      <trkpt lat="43.78962" lon="7.34966">
        <ele>165</ele>
        <time>2013-12-08T11:57:30Z</time>
      </trkpt>
      <trkpt lat="43.78966" lon="7.34961">
        <ele>165.48</ele>
        <time>2013-12-08T11:57:34Z</time>
      </trkpt>
      <trkpt lat="43.78976" lon="7.3494">
        <ele>166.93</ele>
        <time>2013-12-08T11:57:44Z</time>
      </trkpt>
      <trkpt lat="43.78985" lon="7.34936">
        <ele>168.37</ele>
        <time>2013-12-08T11:57:51Z</time>
      </trkpt>
      <trkpt lat="43.78997" lon="7.34954">
        <ele>167.89</ele>
        <time>2013-12-08T11:58:04Z</time>
      </trkpt>
      <trkpt lat="43.79006" lon="7.34972">
        <ele>167.41</ele>
        <time>2013-12-08T11:58:18Z</time>
      </trkpt>
      <trkpt lat="43.7903" lon="7.35026">
        <ele>167.89</ele>
        <time>2013-12-08T11:58:33Z</time>
      </trkpt>
      <trkpt lat="43.79066" lon="7.35072">
        <ele>169.33</ele>
        <time>2013-12-08T11:58:46Z</time>
      </trkpt>
      <trkpt lat="43.79109" lon="7.35111">
        <ele>171.73</ele>
        <time>2013-12-08T11:58:59Z</time>
      </trkpt>
      <trkpt lat="43.79156" lon="7.35127">
        <ele>172.69</ele>
        <time>2013-12-08T11:59:12Z</time>
      </trkpt>
      <trkpt lat="43.79198" lon="7.35145">
        <ele>173.17</ele>
        <time>2013-12-08T11:59:24Z</time>
      </trkpt>
      <trkpt lat="43.79237" lon="7.3517">
        <ele>173.66</ele>
        <time>2013-12-08T11:59:36Z</time>
      </trkpt>
      <trkpt lat="43.79284" lon="7.35181">
        <ele>176.54</ele>
        <time>2013-12-08T11:59:49Z</time>
      </trkpt>
      <trkpt lat="43.79327" lon="7.35206">
        <ele>181.35</ele>
        <time>2013-12-08T12:00:03Z</time>
      </trkpt>
      <trkpt lat="43.79355" lon="7.35268">
        <ele>180.38</ele>
        <time>2013-12-08T12:00:18Z</time>
      </trkpt>
      <trkpt lat="43.79372" lon="7.35314">
        <ele>180.87</ele>
        <time>2013-12-08T12:00:30Z</time>
      </trkpt>
      <trkpt lat="43.79378" lon="7.35316">
        <ele>180.87</ele>
        <time>2013-12-08T12:00:33Z</time>
      </trkpt>
      <trkpt lat="43.7939" lon="7.35293">
        <ele>179.42</ele>
        <time>2013-12-08T12:00:43Z</time>
      </trkpt>
      <trkpt lat="43.79393" lon="7.35287">
        <ele>179.42</ele>
        <time>2013-12-08T12:00:45Z</time>
      </trkpt>
      <trkpt lat="43.79403" lon="7.35291">
        <ele>180.87</ele>
        <time>2013-12-08T12:00:51Z</time>
      </trkpt>
      <trkpt lat="43.79412" lon="7.35304">
        <ele>183.75</ele>
        <time>2013-12-08T12:00:58Z</time>
      </trkpt>
      <trkpt lat="43.79415" lon="7.35304">
        <ele>185.67</ele>
        <time>2013-12-08T12:01:01Z</time>
      </trkpt>
      <trkpt lat="43.79423" lon="7.35281">
        <ele>190.48</ele>
        <time>2013-12-08T12:01:15Z</time>
      </trkpt>
      <trkpt lat="43.79429" lon="7.35271">
        <ele>191.44</ele>
        <time>2013-12-08T12:01:21Z</time>
      </trkpt>
      <trkpt lat="43.79449" lon="7.35249">
        <ele>195.77</ele>
        <time>2013-12-08T12:01:38Z</time>
      </trkpt>
      <trkpt lat="43.79475" lon="7.35237">
        <ele>198.65</ele>
        <time>2013-12-08T12:01:53Z</time>
      </trkpt>
      <trkpt lat="43.79496" lon="7.35232">
        <ele>198.65</ele>
        <time>2013-12-08T12:02:04Z</time>
      </trkpt>
      <trkpt lat="43.79513" lon="7.35232">
        <ele>198.17</ele>
        <time>2013-12-08T12:02:12Z</time>
      </trkpt>
      <trkpt lat="43.79519" lon="7.3523">
        <ele>199.13</ele>
        <time>2013-12-08T12:02:16Z</time>
      </trkpt>
      <trkpt lat="43.79545" lon="7.35218">
        <ele>202.01</ele>
        <time>2013-12-08T12:02:32Z</time>
      </trkpt>
      <trkpt lat="43.79563" lon="7.35216">
        <ele>204.9</ele>
        <time>2013-12-08T12:02:44Z</time>
      </trkpt>
      <trkpt lat="43.7958" lon="7.35216">
        <ele>207.78</ele>
        <time>2013-12-08T12:02:57Z</time>
      </trkpt>
      <trkpt lat="43.79589" lon="7.35208">
        <ele>210.19</ele>
        <time>2013-12-08T12:03:07Z</time>
      </trkpt>
      <trkpt lat="43.79598" lon="7.35203">
        <ele>211.63</ele>
        <time>2013-12-08T12:03:15Z</time>
      </trkpt>
      <trkpt lat="43.79606" lon="7.35211">
        <ele>212.59</ele>
        <time>2013-12-08T12:03:23Z</time>
      </trkpt>
      <trkpt lat="43.79607" lon="7.35215">
        <ele>213.55</ele>
        <time>2013-12-08T12:03:26Z</time>
      </trkpt>
      <trkpt lat="43.7961" lon="7.3522">
        <ele>213.55</ele>
        <time>2013-12-08T12:03:30Z</time>
      </trkpt>
      <trkpt lat="43.79616" lon="7.35231">
        <ele>214.51</ele>
        <time>2013-12-08T12:03:38Z</time>
      </trkpt>
      <trkpt lat="43.79627" lon="7.35229">
        <ele>215.95</ele>
        <time>2013-12-08T12:03:48Z</time>
      </trkpt>
      <trkpt lat="43.79636" lon="7.35205">
        <ele>219.32</ele>
        <time>2013-12-08T12:04:04Z</time>
      </trkpt>
      <trkpt lat="43.79644" lon="7.35184">
        <ele>223.64</ele>
        <time>2013-12-08T12:04:19Z</time>
      </trkpt>
      <trkpt lat="43.7965" lon="7.3517">
        <ele>226.53</ele>
        <time>2013-12-08T12:04:29Z</time>
      </trkpt>
      <trkpt lat="43.79662" lon="7.35148">
        <ele>230.85</ele>
        <time>2013-12-08T12:04:45Z</time>
      </trkpt>
      <trkpt lat="43.79663" lon="7.35147">
        <ele>231.33</ele>
        <time>2013-12-08T12:04:46Z</time>
      </trkpt>
      <trkpt lat="43.79673" lon="7.35138">
        <ele>234.7</ele>
        <time>2013-12-08T12:04:55Z</time>
      </trkpt>
      <trkpt lat="43.79691" lon="7.35135">
        <ele>237.1</ele>
        <time>2013-12-08T12:05:09Z</time>
      </trkpt>
      <trkpt lat="43.79704" lon="7.35134">
        <ele>238.06</ele>
        <time>2013-12-08T12:05:19Z</time>
      </trkpt>
      <trkpt lat="43.79726" lon="7.35124">
        <ele>241.43</ele>
        <time>2013-12-08T12:05:36Z</time>
      </trkpt>
      <trkpt lat="43.7973" lon="7.35122">
        <ele>242.39</ele>
        <time>2013-12-08T12:05:39Z</time>
      </trkpt>
      <trkpt lat="43.79737" lon="7.35122">
        <ele>243.83</ele>
        <time>2013-12-08T12:05:45Z</time>
      </trkpt>
      <trkpt lat="43.79743" lon="7.35124">
        <ele>245.27</ele>
        <time>2013-12-08T12:05:50Z</time>
      </trkpt>
      <trkpt lat="43.79757" lon="7.35135">
        <ele>248.64</ele>
        <time>2013-12-08T12:06:05Z</time>
      </trkpt>
      <trkpt lat="43.79773" lon="7.35124">
        <ele>248.16</ele>
        <time>2013-12-08T12:06:18Z</time>
      </trkpt>
      <trkpt lat="43.79784" lon="7.351">
        <ele>252.48</ele>
        <time>2013-12-08T12:06:35Z</time>
      </trkpt>
      <trkpt lat="43.79795" lon="7.35078">
        <ele>252.48</ele>
        <time>2013-12-08T12:06:50Z</time>
      </trkpt>
      <trkpt lat="43.79812" lon="7.35059">
        <ele>254.89</ele>
        <time>2013-12-08T12:07:05Z</time>
      </trkpt>
      <trkpt lat="43.79835" lon="7.35046">
        <ele>259.21</ele>
        <time>2013-12-08T12:07:23Z</time>
      </trkpt>
      <trkpt lat="43.79851" lon="7.35038">
        <ele>260.17</ele>
        <time>2013-12-08T12:07:37Z</time>
      </trkpt>
      <trkpt lat="43.79869" lon="7.3503">
        <ele>265.94</ele>
        <time>2013-12-08T12:07:52Z</time>
      </trkpt>
      <trkpt lat="43.79883" lon="7.35024">
        <ele>268.83</ele>
        <time>2013-12-08T12:08:04Z</time>
      </trkpt>
      <trkpt lat="43.79894" lon="7.35019">
        <ele>270.75</ele>
        <time>2013-12-08T12:08:14Z</time>
      </trkpt>
      <trkpt lat="43.79909" lon="7.35005">
        <ele>273.15</ele>
        <time>2013-12-08T12:08:30Z</time>
      </trkpt>
      <trkpt lat="43.79922" lon="7.34988">
        <ele>277.48</ele>
        <time>2013-12-08T12:08:46Z</time>
      </trkpt>
      <trkpt lat="43.79934" lon="7.34966">
        <ele>278.44</ele>
        <time>2013-12-08T12:09:02Z</time>
      </trkpt>
      <trkpt lat="43.79941" lon="7.34939">
        <ele>280.36</ele>
        <time>2013-12-08T12:09:19Z</time>
      </trkpt>
      <trkpt lat="43.79951" lon="7.34916">
        <ele>282.77</ele>
        <time>2013-12-08T12:09:35Z</time>
      </trkpt>
      <trkpt lat="43.79969" lon="7.349">
        <ele>286.61</ele>
        <time>2013-12-08T12:09:53Z</time>
      </trkpt>
      <trkpt lat="43.79969" lon="7.34899">
        <ele>286.61</ele>
        <time>2013-12-08T12:09:54Z</time>
      </trkpt>
      <trkpt lat="43.79964" lon="7.34891">
        <ele>288.05</ele>
        <time>2013-12-08T12:10:01Z</time>
      </trkpt>
      <trkpt lat="43.79945" lon="7.34875">
        <ele>291.9</ele>
        <time>2013-12-08T12:10:18Z</time>
      </trkpt>
      <trkpt lat="43.7993" lon="7.34858">
        <ele>292.86</ele>
        <time>2013-12-08T12:10:32Z</time>
      </trkpt>
      <trkpt lat="43.79928" lon="7.3484">
        <ele>293.34</ele>
        <time>2013-12-08T12:10:44Z</time>
      </trkpt>
      <trkpt lat="43.79941" lon="7.3483">
        <ele>295.26</ele>
        <time>2013-12-08T12:10:57Z</time>
      </trkpt>
      <trkpt lat="43.79955" lon="7.34836">
        <ele>297.18</ele>
        <time>2013-12-08T12:11:09Z</time>
      </trkpt>
      <trkpt lat="43.79968" lon="7.34844">
        <ele>299.59</ele>
        <time>2013-12-08T12:11:20Z</time>
      </trkpt>
      <trkpt lat="43.79972" lon="7.34848">
        <ele>301.51</ele>
        <time>2013-12-08T12:11:24Z</time>
      </trkpt>
      <trkpt lat="43.79978" lon="7.34849">
        <ele>302.95</ele>
        <time>2013-12-08T12:11:29Z</time>
      </trkpt>
      <trkpt lat="43.79996" lon="7.34858">
        <ele>306.32</ele>
        <time>2013-12-08T12:11:44Z</time>
      </trkpt>
      <trkpt lat="43.80001" lon="7.34856">
        <ele>308.24</ele>
        <time>2013-12-08T12:11:58Z</time>
      </trkpt>
      <trkpt lat="43.80002" lon="7.34856">
        <ele>308.72</ele>
        <time>2013-12-08T12:12:11Z</time>
      </trkpt>
      <trkpt lat="43.80016" lon="7.34854">
        <ele>311.6</ele>
        <time>2013-12-08T12:12:23Z</time>
      </trkpt>
      <trkpt lat="43.80026" lon="7.34847">
        <ele>314.01</ele>
        <time>2013-12-08T12:12:32Z</time>
      </trkpt>
      <trkpt lat="43.80035" lon="7.34843">
        <ele>314.97</ele>
        <time>2013-12-08T12:12:39Z</time>
      </trkpt>
      <trkpt lat="43.80054" lon="7.34842">
        <ele>315.93</ele>
        <time>2013-12-08T12:12:53Z</time>
      </trkpt>
      <trkpt lat="43.80072" lon="7.34855">
        <ele>318.81</ele>
        <time>2013-12-08T12:13:07Z</time>
      </trkpt>
      <trkpt lat="43.80073" lon="7.34856">
        <ele>319.3</ele>
        <time>2013-12-08T12:13:08Z</time>
      </trkpt>
      <trkpt lat="43.80078" lon="7.34859">
        <ele>321.22</ele>
        <time>2013-12-08T12:13:13Z</time>
      </trkpt>
      <trkpt lat="43.80099" lon="7.34863">
        <ele>322.66</ele>
        <time>2013-12-08T12:13:28Z</time>
      </trkpt>
      <trkpt lat="43.80103" lon="7.34867">
        <ele>324.1</ele>
        <time>2013-12-08T12:13:32Z</time>
      </trkpt>
      <trkpt lat="43.80115" lon="7.34887">
        <ele>328.91</ele>
        <time>2013-12-08T12:13:47Z</time>
      </trkpt>
      <trkpt lat="43.80124" lon="7.34902">
        <ele>330.35</ele>
        <time>2013-12-08T12:13:58Z</time>
      </trkpt>
      <trkpt lat="43.80126" lon="7.34904">
        <ele>330.35</ele>
        <time>2013-12-08T12:14:00Z</time>
      </trkpt>
      <trkpt lat="43.8013" lon="7.3491">
        <ele>330.83</ele>
        <time>2013-12-08T12:14:04Z</time>
      </trkpt>
      <trkpt lat="43.80137" lon="7.34913">
        <ele>332.75</ele>
        <time>2013-12-08T12:14:11Z</time>
      </trkpt>
      <trkpt lat="43.80152" lon="7.34907">
        <ele>333.71</ele>
        <time>2013-12-08T12:14:24Z</time>
      </trkpt>
      <trkpt lat="43.80168" lon="7.34894">
        <ele>335.64</ele>
        <time>2013-12-08T12:14:39Z</time>
      </trkpt>
      <trkpt lat="43.80183" lon="7.34886">
        <ele>340.44</ele>
        <time>2013-12-08T12:14:52Z</time>
      </trkpt>
      <trkpt lat="43.80198" lon="7.34879">
        <ele>341.41</ele>
        <time>2013-12-08T12:15:04Z</time>
      </trkpt>
      <trkpt lat="43.80199" lon="7.34879">
        <ele>341.41</ele>
        <time>2013-12-08T12:15:05Z</time>
      </trkpt>
      <trkpt lat="43.80203" lon="7.34878">
        <ele>342.37</ele>
        <time>2013-12-08T12:15:09Z</time>
      </trkpt>
      <trkpt lat="43.8021" lon="7.34872">
        <ele>342.37</ele>
        <time>2013-12-08T12:15:15Z</time>
      </trkpt>
      <trkpt lat="43.80194" lon="7.34867">
        <ele>342.85</ele>
        <time>2013-12-08T12:15:26Z</time>
      </trkpt>
      <trkpt lat="43.80187" lon="7.34869">
        <ele>342.85</ele>
        <time>2013-12-08T12:15:29Z</time>
      </trkpt>
      <trkpt lat="43.80157" lon="7.34878">
        <ele>343.33</ele>
        <time>2013-12-08T12:15:43Z</time>
      </trkpt>
      <trkpt lat="43.80136" lon="7.34854">
        <ele>345.73</ele>
        <time>2013-12-08T12:15:56Z</time>
      </trkpt>
      <trkpt lat="43.80121" lon="7.34821">
        <ele>350.06</ele>
        <time>2013-12-08T12:16:09Z</time>
      </trkpt>
      <trkpt lat="43.80094" lon="7.34807">
        <ele>353.42</ele>
        <time>2013-12-08T12:16:24Z</time>
      </trkpt>
      <trkpt lat="43.8008" lon="7.34788">
        <ele>357.75</ele>
        <time>2013-12-08T12:16:36Z</time>
      </trkpt>
      <trkpt lat="43.80072" lon="7.34773">
        <ele>361.59</ele>
        <time>2013-12-08T12:16:48Z</time>
      </trkpt>
      <trkpt lat="43.80057" lon="7.34757">
        <ele>364</ele>
        <time>2013-12-08T12:17:02Z</time>
      </trkpt>
      <trkpt lat="43.80048" lon="7.34746">
        <ele>369.76</ele>
        <time>2013-12-08T12:17:15Z</time>
      </trkpt>
      <trkpt lat="43.80045" lon="7.34745">
        <ele>369.28</ele>
        <time>2013-12-08T12:17:17Z</time>
      </trkpt>
      <trkpt lat="43.80043" lon="7.34745">
        <ele>369.28</ele>
        <time>2013-12-08T12:17:19Z</time>
      </trkpt>
      <trkpt lat="43.80042" lon="7.34751">
        <ele>368.32</ele>
        <time>2013-12-08T12:17:23Z</time>
      </trkpt>
      <trkpt lat="43.80043" lon="7.34754">
        <ele>365.44</ele>
        <time>2013-12-08T12:17:33Z</time>
      </trkpt>
      <trkpt lat="43.80042" lon="7.34753">
        <ele>365.44</ele>
        <time>2013-12-08T12:17:38Z</time>
      </trkpt>
      <trkpt lat="43.80012" lon="7.34741">
        <ele>363.52</ele>
        <time>2013-12-08T12:17:47Z</time>
      </trkpt>
      <trkpt lat="43.79994" lon="7.34729">
        <ele>358.23</ele>
        <time>2013-12-08T12:17:56Z</time>
      </trkpt>
      <trkpt lat="43.79991" lon="7.34729">
        <ele>352.94</ele>
        <time>2013-12-08T12:18:03Z</time>
      </trkpt>
      <trkpt lat="43.79989" lon="7.34729">
        <ele>350.54</ele>
        <time>2013-12-08T12:18:05Z</time>
      </trkpt>
      <trkpt lat="43.79976" lon="7.34735">
        <ele>346.21</ele>
        <time>2013-12-08T12:18:12Z</time>
      </trkpt>
      <trkpt lat="43.79959" lon="7.34709">
        <ele>340.92</ele>
        <time>2013-12-08T12:18:19Z</time>
      </trkpt>
      <trkpt lat="43.79951" lon="7.34716">
        <ele>339.96</ele>
        <time>2013-12-08T12:18:21Z</time>
      </trkpt>
      <trkpt lat="43.79951" lon="7.34753">
        <ele>334.2</ele>
        <time>2013-12-08T12:18:29Z</time>
      </trkpt>
      <trkpt lat="43.79948" lon="7.34764">
        <ele>329.87</ele>
        <time>2013-12-08T12:18:37Z</time>
      </trkpt>
      <trkpt lat="43.79937" lon="7.34762">
        <ele>328.43</ele>
        <time>2013-12-08T12:18:42Z</time>
      </trkpt>
      <trkpt lat="43.7993" lon="7.34756">
        <ele>327.47</ele>
        <time>2013-12-08T12:18:45Z</time>
      </trkpt>
      <trkpt lat="43.79923" lon="7.34752">
        <ele>325.06</ele>
        <time>2013-12-08T12:18:48Z</time>
      </trkpt>
      <trkpt lat="43.79906" lon="7.34744">
        <ele>317.37</ele>
        <time>2013-12-08T12:18:55Z</time>
      </trkpt>
      <trkpt lat="43.79903" lon="7.34743">
        <ele>313.53</ele>
        <time>2013-12-08T12:19:01Z</time>
      </trkpt>
      <trkpt lat="43.79899" lon="7.34741">
        <ele>311.6</ele>
        <time>2013-12-08T12:19:04Z</time>
      </trkpt>
      <trkpt lat="43.79896" lon="7.34742">
        <ele>310.64</ele>
        <time>2013-12-08T12:19:06Z</time>
      </trkpt>
      <trkpt lat="43.79887" lon="7.34744">
        <ele>305.84</ele>
        <time>2013-12-08T12:19:12Z</time>
      </trkpt>
      <trkpt lat="43.79871" lon="7.34759">
        <ele>300.55</ele>
        <time>2013-12-08T12:19:20Z</time>
      </trkpt>
      <trkpt lat="43.79863" lon="7.34765">
        <ele>297.67</ele>
        <time>2013-12-08T12:19:24Z</time>
      </trkpt>
      <trkpt lat="43.79853" lon="7.34773">
        <ele>295.26</ele>
        <time>2013-12-08T12:19:28Z</time>
      </trkpt>
      <trkpt lat="43.79831" lon="7.34769">
        <ele>289.01</ele>
        <time>2013-12-08T12:19:36Z</time>
      </trkpt>
      <trkpt lat="43.79824" lon="7.34731">
        <ele>282.28</ele>
        <time>2013-12-08T12:19:45Z</time>
      </trkpt>
      <trkpt lat="43.79832" lon="7.34715">
        <ele>280.36</ele>
        <time>2013-12-08T12:19:52Z</time>
      </trkpt>
      <trkpt lat="43.79833" lon="7.34713">
        <ele>280.36</ele>
        <time>2013-12-08T12:19:53Z</time>
      </trkpt>
      <trkpt lat="43.79839" lon="7.34698">
        <ele>278.44</ele>
        <time>2013-12-08T12:20:02Z</time>
      </trkpt>
      <trkpt lat="43.79835" lon="7.34698">
        <ele>277</ele>
        <time>2013-12-08T12:20:14Z</time>
      </trkpt>
      <trkpt lat="43.79831" lon="7.34696">
        <ele>277.48</ele>
        <time>2013-12-08T12:20:22Z</time>
      </trkpt>
      <trkpt lat="43.79823" lon="7.34697">
        <ele>277.48</ele>
        <time>2013-12-08T12:20:26Z</time>
      </trkpt>
      <trkpt lat="43.79816" lon="7.347">
        <ele>277</ele>
        <time>2013-12-08T12:20:29Z</time>
      </trkpt>
      <trkpt lat="43.79808" lon="7.34682">
        <ele>275.56</ele>
        <time>2013-12-08T12:20:33Z</time>
      </trkpt>
      <trkpt lat="43.79801" lon="7.34666">
        <ele>273.63</ele>
        <time>2013-12-08T12:20:36Z</time>
      </trkpt>
      <trkpt lat="43.79795" lon="7.34655">
        <ele>271.71</ele>
        <time>2013-12-08T12:20:38Z</time>
      </trkpt>
      <trkpt lat="43.79775" lon="7.34649">
        <ele>269.31</ele>
        <time>2013-12-08T12:20:46Z</time>
      </trkpt>
      <trkpt lat="43.79762" lon="7.34664">
        <ele>265.94</ele>
        <time>2013-12-08T12:20:50Z</time>
      </trkpt>
      <trkpt lat="43.79739" lon="7.34678">
        <ele>262.58</ele>
        <time>2013-12-08T12:20:55Z</time>
      </trkpt>
      <trkpt lat="43.79708" lon="7.34693">
        <ele>264.5</ele>
        <time>2013-12-08T12:21:06Z</time>
      </trkpt>
      <trkpt lat="43.79703" lon="7.34714">
        <ele>265.94</ele>
        <time>2013-12-08T12:21:14Z</time>
      </trkpt>
      <trkpt lat="43.79684" lon="7.34731">
        <ele>265.46</ele>
        <time>2013-12-08T12:21:27Z</time>
      </trkpt>
      <trkpt lat="43.79684" lon="7.34728">
        <ele>264.98</ele>
        <time>2013-12-08T12:21:31Z</time>
      </trkpt>
      <trkpt lat="43.79691" lon="7.34699">
        <ele>265.46</ele>
        <time>2013-12-08T12:21:43Z</time>
      </trkpt>
      <trkpt lat="43.79703" lon="7.34654">
        <ele>267.38</ele>
        <time>2013-12-08T12:21:54Z</time>
      </trkpt>
      <trkpt lat="43.79712" lon="7.34612">
        <ele>267.86</ele>
        <time>2013-12-08T12:22:03Z</time>
      </trkpt>
      <trkpt lat="43.79706" lon="7.34579">
        <ele>267.38</ele>
        <time>2013-12-08T12:22:12Z</time>
      </trkpt>
      <trkpt lat="43.79698" lon="7.34533">
        <ele>262.1</ele>
        <time>2013-12-08T12:22:19Z</time>
      </trkpt>
      <trkpt lat="43.79692" lon="7.34518">
        <ele>261.14</ele>
        <time>2013-12-08T12:22:22Z</time>
      </trkpt>
      <trkpt lat="43.79679" lon="7.34497">
        <ele>257.29</ele>
        <time>2013-12-08T12:22:29Z</time>
      </trkpt>
      <trkpt lat="43.7968" lon="7.34492">
        <ele>256.33</ele>
        <time>2013-12-08T12:22:31Z</time>
      </trkpt>
      <trkpt lat="43.79689" lon="7.3444">
        <ele>253.44</ele>
        <time>2013-12-08T12:22:38Z</time>
      </trkpt>
      <trkpt lat="43.79696" lon="7.34423">
        <ele>252</ele>
        <time>2013-12-08T12:22:41Z</time>
      </trkpt>
      <trkpt lat="43.79715" lon="7.34378">
        <ele>245.75</ele>
        <time>2013-12-08T12:22:49Z</time>
      </trkpt>
      <trkpt lat="43.79737" lon="7.34348">
        <ele>242.87</ele>
        <time>2013-12-08T12:22:56Z</time>
      </trkpt>
      <trkpt lat="43.7975" lon="7.34318">
        <ele>241.91</ele>
        <time>2013-12-08T12:23:03Z</time>
      </trkpt>
      <trkpt lat="43.79749" lon="7.34311">
        <ele>241.91</ele>
        <time>2013-12-08T12:23:04Z</time>
      </trkpt>
      <trkpt lat="43.79751" lon="7.3429">
        <ele>240.95</ele>
        <time>2013-12-08T12:23:07Z</time>
      </trkpt>
      <trkpt lat="43.79757" lon="7.34264">
        <ele>240.47</ele>
        <time>2013-12-08T12:23:12Z</time>
      </trkpt>
      <trkpt lat="43.79761" lon="7.34234">
        <ele>239.99</ele>
        <time>2013-12-08T12:23:19Z</time>
      </trkpt>
      <trkpt lat="43.79763" lon="7.3422">
        <ele>239.02</ele>
        <time>2013-12-08T12:23:21Z</time>
      </trkpt>
      <trkpt lat="43.79776" lon="7.34197">
        <ele>237.1</ele>
        <time>2013-12-08T12:23:25Z</time>
      </trkpt>
      <trkpt lat="43.79809" lon="7.3417">
        <ele>230.85</ele>
        <time>2013-12-08T12:23:33Z</time>
      </trkpt>
      <trkpt lat="43.79812" lon="7.34157">
        <ele>229.89</ele>
        <time>2013-12-08T12:23:35Z</time>
      </trkpt>
      <trkpt lat="43.79811" lon="7.3412">
        <ele>229.41</ele>
        <time>2013-12-08T12:23:45Z</time>
      </trkpt>
      <trkpt lat="43.79808" lon="7.34095">
        <ele>233.26</ele>
        <time>2013-12-08T12:23:58Z</time>
      </trkpt>
      <trkpt lat="43.79803" lon="7.34065">
        <ele>236.14</ele>
        <time>2013-12-08T12:24:11Z</time>
      </trkpt>
      <trkpt lat="43.79788" lon="7.34041">
        <ele>239.02</ele>
        <time>2013-12-08T12:24:22Z</time>
      </trkpt>
      <trkpt lat="43.79772" lon="7.34012">
        <ele>244.79</ele>
        <time>2013-12-08T12:24:37Z</time>
      </trkpt>
      <trkpt lat="43.79772" lon="7.34003">
        <ele>244.31</ele>
        <time>2013-12-08T12:24:40Z</time>
      </trkpt>
      <trkpt lat="43.79782" lon="7.33993">
        <ele>243.35</ele>
        <time>2013-12-08T12:24:48Z</time>
      </trkpt>
      <trkpt lat="43.79798" lon="7.33992">
        <ele>241.43</ele>
        <time>2013-12-08T12:24:54Z</time>
      </trkpt>
      <trkpt lat="43.79806" lon="7.33991">
        <ele>240.47</ele>
        <time>2013-12-08T12:24:57Z</time>
      </trkpt>
      <trkpt lat="43.79814" lon="7.33981">
        <ele>239.99</ele>
        <time>2013-12-08T12:25:00Z</time>
      </trkpt>
      <trkpt lat="43.79838" lon="7.33973">
        <ele>238.06</ele>
        <time>2013-12-08T12:25:07Z</time>
      </trkpt>
      <trkpt lat="43.79864" lon="7.33967">
        <ele>236.62</ele>
        <time>2013-12-08T12:25:18Z</time>
      </trkpt>
      <trkpt lat="43.79868" lon="7.33964">
        <ele>236.62</ele>
        <time>2013-12-08T12:25:19Z</time>
      </trkpt>
      <trkpt lat="43.79893" lon="7.33957">
        <ele>233.26</ele>
        <time>2013-12-08T12:25:24Z</time>
      </trkpt>
      <trkpt lat="43.79901" lon="7.3395">
        <ele>231.81</ele>
        <time>2013-12-08T12:25:26Z</time>
      </trkpt>
      <trkpt lat="43.79919" lon="7.3395">
        <ele>227.49</ele>
        <time>2013-12-08T12:25:31Z</time>
      </trkpt>
      <trkpt lat="43.79943" lon="7.33954">
        <ele>220.28</ele>
        <time>2013-12-08T12:25:40Z</time>
      </trkpt>
      <trkpt lat="43.79942" lon="7.33937">
        <ele>214.03</ele>
        <time>2013-12-08T12:25:50Z</time>
      </trkpt>
      <trkpt lat="43.79943" lon="7.33934">
        <ele>212.59</ele>
        <time>2013-12-08T12:25:59Z</time>
      </trkpt>
      <trkpt lat="43.79952" lon="7.33922">
        <ele>211.63</ele>
        <time>2013-12-08T12:26:06Z</time>
      </trkpt>
      <trkpt lat="43.79974" lon="7.33913">
        <ele>214.99</ele>
        <time>2013-12-08T12:26:19Z</time>
      </trkpt>
      <trkpt lat="43.79984" lon="7.33911">
        <ele>216.43</ele>
        <time>2013-12-08T12:26:25Z</time>
      </trkpt>
      <trkpt lat="43.79988" lon="7.33907">
        <ele>217.4</ele>
        <time>2013-12-08T12:26:28Z</time>
      </trkpt>
      <trkpt lat="43.79979" lon="7.33898">
        <ele>217.88</ele>
        <time>2013-12-08T12:26:34Z</time>
      </trkpt>
      <trkpt lat="43.79965" lon="7.33854">
        <ele>215.47</ele>
        <time>2013-12-08T12:26:41Z</time>
      </trkpt>
      <trkpt lat="43.79959" lon="7.33822">
        <ele>216.91</ele>
        <time>2013-12-08T12:26:52Z</time>
      </trkpt>
      <trkpt lat="43.79951" lon="7.33803">
        <ele>219.32</ele>
        <time>2013-12-08T12:27:04Z</time>
      </trkpt>
      <trkpt lat="43.79943" lon="7.33787">
        <ele>223.64</ele>
        <time>2013-12-08T12:27:15Z</time>
      </trkpt>
      <trkpt lat="43.79936" lon="7.33778">
        <ele>227.01</ele>
        <time>2013-12-08T12:27:22Z</time>
      </trkpt>
      <trkpt lat="43.7993" lon="7.33772">
        <ele>228.45</ele>
        <time>2013-12-08T12:27:28Z</time>
      </trkpt>
      <trkpt lat="43.79928" lon="7.33769">
        <ele>228.93</ele>
        <time>2013-12-08T12:27:31Z</time>
      </trkpt>
      <trkpt lat="43.79923" lon="7.33761">
        <ele>230.37</ele>
        <time>2013-12-08T12:27:43Z</time>
      </trkpt>
      <trkpt lat="43.79918" lon="7.33749">
        <ele>228.45</ele>
        <time>2013-12-08T12:27:56Z</time>
      </trkpt>
      <trkpt lat="43.79918" lon="7.33744">
        <ele>229.41</ele>
        <time>2013-12-08T12:28:00Z</time>
      </trkpt>
      <trkpt lat="43.79918" lon="7.33733">
        <ele>229.41</ele>
        <time>2013-12-08T12:28:12Z</time>
      </trkpt>
      <trkpt lat="43.79923" lon="7.33722">
        <ele>232.78</ele>
        <time>2013-12-08T12:28:25Z</time>
      </trkpt>
      <trkpt lat="43.79925" lon="7.3371">
        <ele>232.78</ele>
        <time>2013-12-08T12:28:38Z</time>
      </trkpt>
      <trkpt lat="43.79926" lon="7.33699">
        <ele>233.26</ele>
        <time>2013-12-08T12:28:47Z</time>
      </trkpt>
      <trkpt lat="43.79931" lon="7.33691">
        <ele>234.22</ele>
        <time>2013-12-08T12:28:53Z</time>
      </trkpt>
      <trkpt lat="43.79935" lon="7.33688">
        <ele>234.7</ele>
        <time>2013-12-08T12:28:57Z</time>
      </trkpt>
      <trkpt lat="43.79943" lon="7.33677">
        <ele>236.14</ele>
        <time>2013-12-08T12:29:08Z</time>
      </trkpt>
      <trkpt lat="43.79946" lon="7.33669">
        <ele>235.66</ele>
        <time>2013-12-08T12:29:13Z</time>
      </trkpt>
      <trkpt lat="43.7995" lon="7.33659">
        <ele>235.18</ele>
        <time>2013-12-08T12:29:17Z</time>
      </trkpt>
      <trkpt lat="43.79946" lon="7.33643">
        <ele>236.62</ele>
        <time>2013-12-08T12:29:27Z</time>
      </trkpt>
      <trkpt lat="43.79949" lon="7.33633">
        <ele>237.58</ele>
        <time>2013-12-08T12:29:31Z</time>
      </trkpt>
      <trkpt lat="43.79952" lon="7.33627">
        <ele>239.51</ele>
        <time>2013-12-08T12:29:35Z</time>
      </trkpt>
      <trkpt lat="43.79957" lon="7.3362">
        <ele>240.47</ele>
        <time>2013-12-08T12:29:40Z</time>
      </trkpt>
      <trkpt lat="43.7996" lon="7.33617">
        <ele>240.47</ele>
        <time>2013-12-08T12:29:42Z</time>
      </trkpt>
      <trkpt lat="43.79966" lon="7.33614">
        <ele>240.47</ele>
        <time>2013-12-08T12:29:46Z</time>
      </trkpt>
      <trkpt lat="43.79973" lon="7.33611">
        <ele>241.43</ele>
        <time>2013-12-08T12:29:55Z</time>
      </trkpt>
      <trkpt lat="43.79983" lon="7.33609">
        <ele>239.99</ele>
        <time>2013-12-08T12:30:01Z</time>
      </trkpt>
      <trkpt lat="43.79986" lon="7.33607">
        <ele>239.99</ele>
        <time>2013-12-08T12:30:04Z</time>
      </trkpt>
      <trkpt lat="43.79987" lon="7.33598">
        <ele>241.43</ele>
        <time>2013-12-08T12:30:14Z</time>
      </trkpt>
      <trkpt lat="43.79988" lon="7.33584">
        <ele>247.68</ele>
        <time>2013-12-08T12:30:29Z</time>
      </trkpt>
      <trkpt lat="43.79991" lon="7.33576">
        <ele>249.6</ele>
        <time>2013-12-08T12:30:38Z</time>
      </trkpt>
      <trkpt lat="43.79994" lon="7.33569">
        <ele>251.04</ele>
        <time>2013-12-08T12:30:44Z</time>
      </trkpt>
      <trkpt lat="43.79999" lon="7.33559">
        <ele>252.96</ele>
        <time>2013-12-08T12:30:58Z</time>
      </trkpt>
      <trkpt lat="43.79999" lon="7.33552">
        <ele>254.41</ele>
        <time>2013-12-08T12:31:12Z</time>
      </trkpt>
      <trkpt lat="43.80006" lon="7.33543">
        <ele>257.77</ele>
        <time>2013-12-08T12:31:24Z</time>
      </trkpt>
      <trkpt lat="43.80013" lon="7.33529">
        <ele>260.17</ele>
        <time>2013-12-08T12:31:40Z</time>
      </trkpt>
      <trkpt lat="43.80024" lon="7.33519">
        <ele>263.54</ele>
        <time>2013-12-08T12:31:53Z</time>
      </trkpt>
      <trkpt lat="43.80028" lon="7.33516">
        <ele>264.5</ele>
        <time>2013-12-08T12:31:57Z</time>
      </trkpt>
      <trkpt lat="43.80053" lon="7.33501">
        <ele>264.02</ele>
        <time>2013-12-08T12:32:11Z</time>
      </trkpt>
      <trkpt lat="43.80084" lon="7.33477">
        <ele>263.06</ele>
        <time>2013-12-08T12:32:28Z</time>
      </trkpt>
      <trkpt lat="43.80109" lon="7.33487">
        <ele>263.06</ele>
        <time>2013-12-08T12:32:42Z</time>
      </trkpt>
      <trkpt lat="43.80133" lon="7.33495">
        <ele>263.54</ele>
        <time>2013-12-08T12:32:56Z</time>
      </trkpt>
      <trkpt lat="43.8016" lon="7.33482">
        <ele>268.83</ele>
        <time>2013-12-08T12:33:14Z</time>
      </trkpt>
      <trkpt lat="43.80181" lon="7.33489">
        <ele>272.67</ele>
        <time>2013-12-08T12:33:28Z</time>
      </trkpt>
      <trkpt lat="43.80218" lon="7.33501">
        <ele>272.67</ele>
        <time>2013-12-08T12:33:42Z</time>
      </trkpt>
      <trkpt lat="43.80259" lon="7.33498">
        <ele>272.67</ele>
        <time>2013-12-08T12:33:55Z</time>
      </trkpt>
      <trkpt lat="43.80293" lon="7.33527">
        <ele>273.15</ele>
        <time>2013-12-08T12:34:07Z</time>
      </trkpt>
      <trkpt lat="43.80305" lon="7.33551">
        <ele>272.19</ele>
        <time>2013-12-08T12:34:12Z</time>
      </trkpt>
      <trkpt lat="43.80343" lon="7.33582">
        <ele>272.19</ele>
        <time>2013-12-08T12:34:23Z</time>
      </trkpt>
      <trkpt lat="43.80373" lon="7.33575">
        <ele>272.67</ele>
        <time>2013-12-08T12:34:30Z</time>
      </trkpt>
      <trkpt lat="43.80381" lon="7.33567">
        <ele>272.67</ele>
        <time>2013-12-08T12:34:32Z</time>
      </trkpt>
      <trkpt lat="43.80398" lon="7.33561">
        <ele>272.19</ele>
        <time>2013-12-08T12:34:36Z</time>
      </trkpt>
      <trkpt lat="43.80407" lon="7.3356">
        <ele>271.71</ele>
        <time>2013-12-08T12:34:38Z</time>
      </trkpt>
      <trkpt lat="43.80434" lon="7.33585">
        <ele>271.71</ele>
        <time>2013-12-08T12:34:47Z</time>
      </trkpt>
      <trkpt lat="43.80448" lon="7.33614">
        <ele>270.27</ele>
        <time>2013-12-08T12:34:53Z</time>
      </trkpt>
      <trkpt lat="43.80467" lon="7.33625">
        <ele>268.83</ele>
        <time>2013-12-08T12:34:57Z</time>
      </trkpt>
      <trkpt lat="43.80533" lon="7.3362">
        <ele>270.27</ele>
        <time>2013-12-08T12:35:13Z</time>
      </trkpt>
      <trkpt lat="43.80584" lon="7.33605">
        <ele>274.59</ele>
        <time>2013-12-08T12:35:29Z</time>
      </trkpt>
      <trkpt lat="43.80626" lon="7.33595">
        <ele>278.92</ele>
        <time>2013-12-08T12:35:45Z</time>
      </trkpt>
      <trkpt lat="43.80654" lon="7.33593">
        <ele>280.84</ele>
        <time>2013-12-08T12:35:58Z</time>
      </trkpt>
      <trkpt lat="43.80693" lon="7.33605">
        <ele>282.28</ele>
        <time>2013-12-08T12:36:15Z</time>
      </trkpt>
      <trkpt lat="43.80717" lon="7.3358">
        <ele>287.57</ele>
        <time>2013-12-08T12:36:29Z</time>
      </trkpt>
      <trkpt lat="43.80733" lon="7.33565">
        <ele>290.46</ele>
        <time>2013-12-08T12:36:39Z</time>
      </trkpt>
      <trkpt lat="43.80738" lon="7.33559">
        <ele>291.9</ele>
        <time>2013-12-08T12:36:45Z</time>
      </trkpt>
      <trkpt lat="43.80724" lon="7.33542">
        <ele>291.42</ele>
        <time>2013-12-08T12:36:58Z</time>
      </trkpt>
      <trkpt lat="43.80722" lon="7.33537">
        <ele>292.86</ele>
        <time>2013-12-08T12:37:10Z</time>
      </trkpt>
      <trkpt lat="43.80723" lon="7.33536">
        <ele>293.34</ele>
        <time>2013-12-08T12:37:20Z</time>
      </trkpt>
      <trkpt lat="43.80731" lon="7.33527">
        <ele>295.26</ele>
        <time>2013-12-08T12:37:32Z</time>
      </trkpt>
      <trkpt lat="43.80733" lon="7.33526">
        <ele>295.74</ele>
        <time>2013-12-08T12:37:38Z</time>
      </trkpt>
      <trkpt lat="43.80738" lon="7.33515">
        <ele>298.63</ele>
        <time>2013-12-08T12:37:53Z</time>
      </trkpt>
      <trkpt lat="43.80742" lon="7.33501">
        <ele>301.99</ele>
        <time>2013-12-08T12:38:10Z</time>
      </trkpt>
      <trkpt lat="43.80748" lon="7.33496">
        <ele>301.99</ele>
        <time>2013-12-08T12:38:24Z</time>
      </trkpt>
      <trkpt lat="43.80752" lon="7.33491">
        <ele>303.91</ele>
        <time>2013-12-08T12:38:37Z</time>
      </trkpt>
      <trkpt lat="43.80759" lon="7.33483">
        <ele>306.32</ele>
        <time>2013-12-08T12:38:53Z</time>
      </trkpt>
      <trkpt lat="43.80761" lon="7.33475">
        <ele>307.28</ele>
        <time>2013-12-08T12:39:06Z</time>
      </trkpt>
      <trkpt lat="43.80762" lon="7.33463">
        <ele>309.68</ele>
        <time>2013-12-08T12:39:20Z</time>
      </trkpt>
      <trkpt lat="43.80764" lon="7.33455">
        <ele>313.53</ele>
        <time>2013-12-08T12:39:33Z</time>
      </trkpt>
      <trkpt lat="43.80766" lon="7.33448">
        <ele>315.93</ele>
        <time>2013-12-08T12:39:44Z</time>
      </trkpt>
      <trkpt lat="43.80767" lon="7.33434">
        <ele>318.33</ele>
        <time>2013-12-08T12:39:58Z</time>
      </trkpt>
      <trkpt lat="43.80773" lon="7.3342">
        <ele>319.3</ele>
        <time>2013-12-08T12:40:11Z</time>
      </trkpt>
      <trkpt lat="43.80777" lon="7.33404">
        <ele>321.7</ele>
        <time>2013-12-08T12:40:22Z</time>
      </trkpt>
      <trkpt lat="43.8078" lon="7.33398">
        <ele>321.7</ele>
        <time>2013-12-08T12:40:28Z</time>
      </trkpt>
      <trkpt lat="43.80785" lon="7.33387">
        <ele>320.74</ele>
        <time>2013-12-08T12:40:33Z</time>
      </trkpt>
      <trkpt lat="43.80791" lon="7.33378">
        <ele>320.74</ele>
        <time>2013-12-08T12:40:37Z</time>
      </trkpt>
      <trkpt lat="43.80791" lon="7.33351">
        <ele>320.74</ele>
        <time>2013-12-08T12:40:43Z</time>
      </trkpt>
      <trkpt lat="43.80787" lon="7.33343">
        <ele>320.74</ele>
        <time>2013-12-08T12:40:45Z</time>
      </trkpt>
      <trkpt lat="43.80794" lon="7.33314">
        <ele>318.81</ele>
        <time>2013-12-08T12:40:56Z</time>
      </trkpt>
      <trkpt lat="43.80794" lon="7.33308">
        <ele>316.89</ele>
        <time>2013-12-08T12:41:02Z</time>
      </trkpt>
      <trkpt lat="43.80794" lon="7.33299">
        <ele>317.85</ele>
        <time>2013-12-08T12:41:07Z</time>
      </trkpt>
      <trkpt lat="43.80811" lon="7.33284">
        <ele>320.26</ele>
        <time>2013-12-08T12:41:18Z</time>
      </trkpt>
      <trkpt lat="43.80823" lon="7.33262">
        <ele>323.62</ele>
        <time>2013-12-08T12:41:29Z</time>
      </trkpt>
      <trkpt lat="43.80825" lon="7.33249">
        <ele>324.58</ele>
        <time>2013-12-08T12:41:34Z</time>
      </trkpt>
      <trkpt lat="43.80841" lon="7.33229">
        <ele>323.62</ele>
        <time>2013-12-08T12:41:40Z</time>
      </trkpt>
      <trkpt lat="43.80863" lon="7.33222">
        <ele>321.22</ele>
        <time>2013-12-08T12:41:46Z</time>
      </trkpt>
      <trkpt lat="43.80866" lon="7.33212">
        <ele>319.3</ele>
        <time>2013-12-08T12:41:50Z</time>
      </trkpt>
      <trkpt lat="43.80869" lon="7.33201">
        <ele>317.85</ele>
        <time>2013-12-08T12:41:54Z</time>
      </trkpt>
      <trkpt lat="43.80881" lon="7.33184">
        <ele>317.85</ele>
        <time>2013-12-08T12:42:03Z</time>
      </trkpt>
      <trkpt lat="43.80897" lon="7.33157">
        <ele>319.3</ele>
        <time>2013-12-08T12:42:11Z</time>
      </trkpt>
      <trkpt lat="43.80909" lon="7.33151">
        <ele>319.3</ele>
        <time>2013-12-08T12:42:16Z</time>
      </trkpt>
      <trkpt lat="43.8091" lon="7.33141">
        <ele>319.78</ele>
        <time>2013-12-08T12:42:19Z</time>
      </trkpt>
      <trkpt lat="43.80919" lon="7.33119">
        <ele>320.26</ele>
        <time>2013-12-08T12:42:24Z</time>
      </trkpt>
      <trkpt lat="43.8095" lon="7.33096">
        <ele>320.74</ele>
        <time>2013-12-08T12:42:35Z</time>
      </trkpt>
      <trkpt lat="43.80975" lon="7.33098">
        <ele>321.7</ele>
        <time>2013-12-08T12:42:44Z</time>
      </trkpt>
      <trkpt lat="43.80981" lon="7.33093">
        <ele>322.66</ele>
        <time>2013-12-08T12:42:53Z</time>
      </trkpt>
      <trkpt lat="43.80985" lon="7.33088">
        <ele>324.1</ele>
        <time>2013-12-08T12:42:59Z</time>
      </trkpt>
      <trkpt lat="43.80986" lon="7.33079">
        <ele>326.5</ele>
        <time>2013-12-08T12:43:06Z</time>
      </trkpt>
      <trkpt lat="43.80993" lon="7.33064">
        <ele>328.91</ele>
        <time>2013-12-08T12:43:21Z</time>
      </trkpt>
      <trkpt lat="43.80999" lon="7.33054">
        <ele>332.27</ele>
        <time>2013-12-08T12:43:35Z</time>
      </trkpt>
      <trkpt lat="43.80999" lon="7.33053">
        <ele>333.71</ele>
        <time>2013-12-08T12:43:40Z</time>
      </trkpt>
      <trkpt lat="43.81007" lon="7.33023">
        <ele>338.52</ele>
        <time>2013-12-08T12:43:53Z</time>
      </trkpt>
      <trkpt lat="43.81009" lon="7.33013">
        <ele>339</ele>
        <time>2013-12-08T12:43:58Z</time>
      </trkpt>
      <trkpt lat="43.81016" lon="7.32996">
        <ele>343.33</ele>
        <time>2013-12-08T12:44:10Z</time>
      </trkpt>
      <trkpt lat="43.81026" lon="7.32986">
        <ele>344.29</ele>
        <time>2013-12-08T12:44:23Z</time>
      </trkpt>
      <trkpt lat="43.81033" lon="7.32984">
        <ele>346.69</ele>
        <time>2013-12-08T12:44:37Z</time>
      </trkpt>
      <trkpt lat="43.81036" lon="7.32976">
        <ele>345.25</ele>
        <time>2013-12-08T12:44:53Z</time>
      </trkpt>
      <trkpt lat="43.81038" lon="7.32958">
        <ele>346.21</ele>
        <time>2013-12-08T12:45:09Z</time>
      </trkpt>
      <trkpt lat="43.81038" lon="7.3295">
        <ele>348.62</ele>
        <time>2013-12-08T12:45:24Z</time>
      </trkpt>
      <trkpt lat="43.81034" lon="7.32937">
        <ele>354.38</ele>
        <time>2013-12-08T12:45:37Z</time>
      </trkpt>
      <trkpt lat="43.8103" lon="7.32912">
        <ele>356.79</ele>
        <time>2013-12-08T12:45:54Z</time>
      </trkpt>
      <trkpt lat="43.81032" lon="7.32904">
        <ele>357.75</ele>
        <time>2013-12-08T12:46:00Z</time>
      </trkpt>
      <trkpt lat="43.81041" lon="7.32886">
        <ele>358.71</ele>
        <time>2013-12-08T12:46:15Z</time>
      </trkpt>
      <trkpt lat="43.81043" lon="7.32877">
        <ele>359.67</ele>
        <time>2013-12-08T12:46:22Z</time>
      </trkpt>
      <trkpt lat="43.8104" lon="7.32859">
        <ele>359.19</ele>
        <time>2013-12-08T12:46:35Z</time>
      </trkpt>
      <trkpt lat="43.81039" lon="7.32855">
        <ele>358.23</ele>
        <time>2013-12-08T12:46:41Z</time>
      </trkpt>
      <trkpt lat="43.81016" lon="7.32832">
        <ele>358.23</ele>
        <time>2013-12-08T12:46:52Z</time>
      </trkpt>
      <trkpt lat="43.81003" lon="7.32823">
        <ele>357.75</ele>
        <time>2013-12-08T12:46:56Z</time>
      </trkpt>
      <trkpt lat="43.80955" lon="7.32817">
        <ele>355.34</ele>
        <time>2013-12-08T12:47:08Z</time>
      </trkpt>
      <trkpt lat="43.80947" lon="7.32818">
        <ele>354.86</ele>
        <time>2013-12-08T12:47:10Z</time>
      </trkpt>
      <trkpt lat="43.80928" lon="7.32825">
        <ele>353.9</ele>
        <time>2013-12-08T12:47:18Z</time>
      </trkpt>
      <trkpt lat="43.80909" lon="7.32788">
        <ele>352.46</ele>
        <time>2013-12-08T12:47:26Z</time>
      </trkpt>
      <trkpt lat="43.80904" lon="7.32772">
        <ele>351.5</ele>
        <time>2013-12-08T12:47:29Z</time>
      </trkpt>
      <trkpt lat="43.80879" lon="7.32752">
        <ele>349.58</ele>
        <time>2013-12-08T12:47:37Z</time>
      </trkpt>
      <trkpt lat="43.80874" lon="7.32728">
        <ele>347.17</ele>
        <time>2013-12-08T12:47:42Z</time>
      </trkpt>
      <trkpt lat="43.80865" lon="7.32716">
        <ele>344.77</ele>
        <time>2013-12-08T12:47:47Z</time>
      </trkpt>
      <trkpt lat="43.8086" lon="7.32701">
        <ele>341.89</ele>
        <time>2013-12-08T12:47:57Z</time>
      </trkpt>
      <trkpt lat="43.8086" lon="7.327">
        <ele>341.41</ele>
        <time>2013-12-08T12:47:58Z</time>
      </trkpt>
      <trkpt lat="43.80849" lon="7.32667">
        <ele>339</ele>
        <time>2013-12-08T12:48:08Z</time>
      </trkpt>
      <trkpt lat="43.80845" lon="7.32644">
        <ele>337.08</ele>
        <time>2013-12-08T12:48:13Z</time>
      </trkpt>
      <trkpt lat="43.80847" lon="7.32645">
        <ele>328.91</ele>
        <time>2013-12-08T12:49:16Z</time>
      </trkpt>
      <trkpt lat="43.80843" lon="7.32621">
        <ele>311.12</ele>
        <time>2013-12-08T12:55:28Z</time>
      </trkpt>
      <trkpt lat="43.80828" lon="7.32594">
        <ele>304.88</ele>
        <time>2013-12-08T12:55:38Z</time>
      </trkpt>
      <trkpt lat="43.80821" lon="7.32565">
        <ele>303.91</ele>
        <time>2013-12-08T12:55:47Z</time>
      </trkpt>
      <trkpt lat="43.80825" lon="7.32547">
        <ele>303.43</ele>
        <time>2013-12-08T12:55:51Z</time>
      </trkpt>
      <trkpt lat="43.80849" lon="7.32495">
        <ele>298.63</ele>
        <time>2013-12-08T12:56:00Z</time>
      </trkpt>
      <trkpt lat="43.80863" lon="7.32438">
        <ele>294.3</ele>
        <time>2013-12-08T12:56:06Z</time>
      </trkpt>
      <trkpt lat="43.8087" lon="7.32406">
        <ele>291.9</ele>
        <time>2013-12-08T12:56:09Z</time>
      </trkpt>
      <trkpt lat="43.80874" lon="7.32388">
        <ele>289.97</ele>
        <time>2013-12-08T12:56:11Z</time>
      </trkpt>
      <trkpt lat="43.80855" lon="7.32348">
        <ele>285.17</ele>
        <time>2013-12-08T12:56:17Z</time>
      </trkpt>
      <trkpt lat="43.80849" lon="7.32345">
        <ele>284.21</ele>
        <time>2013-12-08T12:56:18Z</time>
      </trkpt>
      <trkpt lat="43.80819" lon="7.32336">
        <ele>281.32</ele>
        <time>2013-12-08T12:56:24Z</time>
      </trkpt>
      <trkpt lat="43.80804" lon="7.32329">
        <ele>280.36</ele>
        <time>2013-12-08T12:56:28Z</time>
      </trkpt>
      <trkpt lat="43.80779" lon="7.3233">
        <ele>279.88</ele>
        <time>2013-12-08T12:56:35Z</time>
      </trkpt>
      <trkpt lat="43.80774" lon="7.32329">
        <ele>277.48</ele>
        <time>2013-12-08T12:56:41Z</time>
      </trkpt>
      <trkpt lat="43.80766" lon="7.32319">
        <ele>276.04</ele>
        <time>2013-12-08T12:56:48Z</time>
      </trkpt>
      <trkpt lat="43.80753" lon="7.32312">
        <ele>276.04</ele>
        <time>2013-12-08T12:56:54Z</time>
      </trkpt>
      <trkpt lat="43.80748" lon="7.32293">
        <ele>272.67</ele>
        <time>2013-12-08T12:57:00Z</time>
      </trkpt>
      <trkpt lat="43.80747" lon="7.32275">
        <ele>267.86</ele>
        <time>2013-12-08T12:57:13Z</time>
      </trkpt>
      <trkpt lat="43.80747" lon="7.32255">
        <ele>266.9</ele>
        <time>2013-12-08T12:57:25Z</time>
      </trkpt>
      <trkpt lat="43.80745" lon="7.32252">
        <ele>264.98</ele>
        <time>2013-12-08T12:57:31Z</time>
      </trkpt>
      <trkpt lat="43.80743" lon="7.32255">
        <ele>264.02</ele>
        <time>2013-12-08T12:57:36Z</time>
      </trkpt>
      <trkpt lat="43.80739" lon="7.32248">
        <ele>259.69</ele>
        <time>2013-12-08T12:57:44Z</time>
      </trkpt>
      <trkpt lat="43.80742" lon="7.32245">
        <ele>258.73</ele>
        <time>2013-12-08T12:57:47Z</time>
      </trkpt>
      <trkpt lat="43.80743" lon="7.32241">
        <ele>257.77</ele>
        <time>2013-12-08T12:57:51Z</time>
      </trkpt>
      <trkpt lat="43.80742" lon="7.32226">
        <ele>254.89</ele>
        <time>2013-12-08T12:58:02Z</time>
      </trkpt>
      <trkpt lat="43.8074" lon="7.32216">
        <ele>251.52</ele>
        <time>2013-12-08T12:58:07Z</time>
      </trkpt>
      <trkpt lat="43.80728" lon="7.3219">
        <ele>246.23</ele>
        <time>2013-12-08T12:58:15Z</time>
      </trkpt>
      <trkpt lat="43.80725" lon="7.32163">
        <ele>241.91</ele>
        <time>2013-12-08T12:58:20Z</time>
      </trkpt>
      <trkpt lat="43.80712" lon="7.3215">
        <ele>239.02</ele>
        <time>2013-12-08T12:58:24Z</time>
      </trkpt>
      <trkpt lat="43.80702" lon="7.32117">
        <ele>234.22</ele>
        <time>2013-12-08T12:58:31Z</time>
      </trkpt>
      <trkpt lat="43.80695" lon="7.32097">
        <ele>229.89</ele>
        <time>2013-12-08T12:58:36Z</time>
      </trkpt>
      <trkpt lat="43.80678" lon="7.32077">
        <ele>224.61</ele>
        <time>2013-12-08T12:58:43Z</time>
      </trkpt>
      <trkpt lat="43.80665" lon="7.32052">
        <ele>218.84</ele>
        <time>2013-12-08T12:58:50Z</time>
      </trkpt>
      <trkpt lat="43.80653" lon="7.32025">
        <ele>210.67</ele>
        <time>2013-12-08T12:59:01Z</time>
      </trkpt>
      <trkpt lat="43.80653" lon="7.32008">
        <ele>205.86</ele>
        <time>2013-12-08T12:59:07Z</time>
      </trkpt>
      <trkpt lat="43.80643" lon="7.32">
        <ele>201.05</ele>
        <time>2013-12-08T12:59:13Z</time>
      </trkpt>
      <trkpt lat="43.80634" lon="7.31985">
        <ele>194.8</ele>
        <time>2013-12-08T12:59:20Z</time>
      </trkpt>
      <trkpt lat="43.80649" lon="7.31966">
        <ele>189.52</ele>
        <time>2013-12-08T12:59:28Z</time>
      </trkpt>
      <trkpt lat="43.80647" lon="7.31962">
        <ele>189.04</ele>
        <time>2013-12-08T12:59:29Z</time>
      </trkpt>
      <trkpt lat="43.80644" lon="7.31945">
        <ele>188.08</ele>
        <time>2013-12-08T12:59:32Z</time>
      </trkpt>
      <trkpt lat="43.80645" lon="7.31915">
        <ele>187.11</ele>
        <time>2013-12-08T12:59:37Z</time>
      </trkpt>
      <trkpt lat="43.80632" lon="7.31883">
        <ele>185.67</ele>
        <time>2013-12-08T12:59:47Z</time>
      </trkpt>
      <trkpt lat="43.80628" lon="7.31875">
        <ele>185.19</ele>
        <time>2013-12-08T12:59:59Z</time>
      </trkpt>
      <trkpt lat="43.80619" lon="7.31871">
        <ele>185.19</ele>
        <time>2013-12-08T13:00:10Z</time>
      </trkpt>
      <trkpt lat="43.80597" lon="7.31846">
        <ele>185.67</ele>
        <time>2013-12-08T13:00:22Z</time>
      </trkpt>
      <trkpt lat="43.80596" lon="7.31841">
        <ele>186.15</ele>
        <time>2013-12-08T13:00:24Z</time>
      </trkpt>
      <trkpt lat="43.80624" lon="7.3181">
        <ele>187.11</ele>
        <time>2013-12-08T13:00:39Z</time>
      </trkpt>
      <trkpt lat="43.80653" lon="7.31779">
        <ele>187.11</ele>
        <time>2013-12-08T13:00:54Z</time>
      </trkpt>
      <trkpt lat="43.80688" lon="7.31742">
        <ele>189.04</ele>
        <time>2013-12-08T13:01:11Z</time>
      </trkpt>
      <trkpt lat="43.80729" lon="7.31697">
        <ele>189.52</ele>
        <time>2013-12-08T13:01:31Z</time>
      </trkpt>
      <trkpt lat="43.80763" lon="7.31661">
        <ele>190.48</ele>
        <time>2013-12-08T13:01:47Z</time>
      </trkpt>
      <trkpt lat="43.80799" lon="7.31622">
        <ele>191.44</ele>
        <time>2013-12-08T13:02:04Z</time>
      </trkpt>
      <trkpt lat="43.80835" lon="7.31581">
        <ele>192.88</ele>
        <time>2013-12-08T13:02:21Z</time>
      </trkpt>
      <trkpt lat="43.80869" lon="7.31544">
        <ele>194.8</ele>
        <time>2013-12-08T13:02:37Z</time>
      </trkpt>
      <trkpt lat="43.80871" lon="7.31542">
        <ele>194.8</ele>
        <time>2013-12-08T13:02:38Z</time>
      </trkpt>
      <trkpt lat="43.80859" lon="7.31499">
        <ele>196.73</ele>
        <time>2013-12-08T13:02:50Z</time>
      </trkpt>
      <trkpt lat="43.8082" lon="7.31434">
        <ele>197.69</ele>
        <time>2013-12-08T13:03:06Z</time>
      </trkpt>
      <trkpt lat="43.80792" lon="7.31388">
        <ele>196.73</ele>
        <time>2013-12-08T13:03:15Z</time>
      </trkpt>
    </trkseg>
  </trk>
</gpx>